PWSweather.com
Personal Weather Stations
Station Observations
WEERALK
AlkmaarNL 1827 PE

AlkmaarNL 1827 PE

Lat: 52.6712679, Lon: 4.7682444

Elevation: 7

Station Type: Davis Vantage Pro2

Latest ConditionsUpdated 11:38:00 PM GMT+01:01 Monday, Dec 22, 2014
Currently Today's Max Today's Min Today's Average
Temperature 52.0°F11.1°C 53.1°F11.7°C 50.5°F10.3°C 52.0°F11.1°C
Dew Point 49.1°F9.5°C 50.7°F10.4°C 48.0°F8.9°C 49.8°F9.9°C
Winds 11.0 mph SW17.7 kmh SW 17.0 mph SW27.4 kmh SW - 13.0 mph 20.9 kmh
Wind Gusts 28.0 mph45.1 kmh 35.0 mph56.3 kmh - -
Humidity 90% 94% 89% 92%
Pressure 29.92 in1013.2 mb 30.01 in1016.3 mb 29.89 in1012.2 mb -
Precipitation - 0.03 in0.8 mm - -
Hour Temp Dew Point Humidity Winds Wind Gusts Pressure Precip Precip Rate Daily Precip Total
11:38 PM 52.0°F11.1°C 49.1°F9.5°C 90% 11.0 mph SW17.7 kmh SW 28.0 mph45.1 kmh 29.92 in1013.2 mb 0.01 in0.3 mm 0.00 in/hr0.0 mm/hr 0.03 in0.8 mm
11:37 PM 52.0°F11.1°C 49.1°F9.5°C 90% 11.0 mph SW17.7 kmh SW 25.0 mph40.2 kmh 29.91 in1012.9 mb 0.01 in0.3 mm 0.00 in/hr0.0 mm/hr 0.03 in0.8 mm
11:36 PM 52.0°F11.1°C 49.1°F9.5°C 90% 12.0 mph SW19.3 kmh SW 25.0 mph40.2 kmh 29.92 in1013.2 mb 0.01 in0.3 mm 0.00 in/hr0.0 mm/hr 0.03 in0.8 mm
11:35 PM 52.0°F11.1°C 49.1°F9.5°C 90% 12.0 mph SW19.3 kmh SW 25.0 mph40.2 kmh 29.92 in1013.2 mb 0.01 in0.3 mm 0.00 in/hr0.0 mm/hr 0.03 in0.8 mm
11:34 PM 51.8°F11.0°C 48.9°F9.4°C 90% 12.0 mph WSW19.3 kmh WSW 25.0 mph40.2 kmh 29.92 in1013.2 mb 0.01 in0.3 mm 0.00 in/hr0.0 mm/hr 0.03 in0.8 mm
11:33 PM 52.0°F11.1°C 49.1°F9.5°C 90% 13.0 mph WSW20.9 kmh WSW 25.0 mph40.2 kmh 29.92 in1013.2 mb 0.01 in0.3 mm 0.00 in/hr0.0 mm/hr 0.03 in0.8 mm
11:32 PM 52.0°F11.1°C 49.1°F9.5°C 90% 13.0 mph WSW20.9 kmh WSW 25.0 mph40.2 kmh 29.92 in1013.2 mb 0.01 in0.3 mm 0.00 in/hr0.0 mm/hr 0.03 in0.8 mm
11:31 PM 52.0°F11.1°C 49.1°F9.5°C 90% 12.0 mph WSW19.3 kmh WSW 25.0 mph40.2 kmh 29.92 in1013.2 mb 0.01 in0.3 mm 0.00 in/hr0.0 mm/hr 0.03 in0.8 mm
11:30 PM 52.0°F11.1°C 49.1°F9.5°C 90% 13.0 mph WSW20.9 kmh WSW 25.0 mph40.2 kmh 29.92 in1013.2 mb 0.01 in0.3 mm 0.00 in/hr0.0 mm/hr 0.03 in0.8 mm
11:29 PM 51.8°F11.0°C 48.9°F9.4°C 90% 14.0 mph WSW22.5 kmh WSW 25.0 mph40.2 kmh 29.92 in1013.2 mb 0.01 in0.3 mm 0.00 in/hr0.0 mm/hr 0.03 in0.8 mm
11:28 PM 51.8°F11.0°C 48.9°F9.4°C 90% 14.0 mph WSW22.5 kmh WSW 25.0 mph40.2 kmh 29.92 in1013.2 mb 0.01 in0.3 mm 0.00 in/hr0.0 mm/hr 0.03 in0.8 mm
11:27 PM 51.8°F11.0°C 48.9°F9.4°C 90% 14.0 mph WSW22.5 kmh WSW 24.0 mph38.6 kmh 29.92 in1013.2 mb 0.01 in0.3 mm 0.00 in/hr0.0 mm/hr 0.03 in0.8 mm
11:26 PM 51.8°F11.0°C 48.9°F9.4°C 90% 14.0 mph WSW22.5 kmh WSW 28.0 mph45.1 kmh 29.92 in1013.2 mb 0.01 in0.3 mm 0.00 in/hr0.0 mm/hr 0.03 in0.8 mm
11:25 PM 51.8°F11.0°C 48.9°F9.4°C 90% 14.0 mph WSW22.5 kmh WSW 28.0 mph45.1 kmh 29.91 in1012.9 mb 0.01 in0.3 mm 0.00 in/hr0.0 mm/hr 0.03 in0.8 mm
11:24 PM 51.8°F11.0°C 48.9°F9.4°C 90% 13.0 mph WSW20.9 kmh WSW 28.0 mph45.1 kmh 29.92 in1013.2 mb 0.01 in0.3 mm 0.00 in/hr0.0 mm/hr 0.03 in0.8 mm
11:23 PM 51.8°F11.0°C 48.9°F9.4°C 90% 13.0 mph WSW20.9 kmh WSW 28.0 mph45.1 kmh 29.91 in1012.9 mb 0.01 in0.3 mm 0.00 in/hr0.0 mm/hr 0.03 in0.8 mm
11:22 PM 51.8°F11.0°C 48.9°F9.4°C 90% 14.0 mph WSW22.5 kmh WSW 28.0 mph45.1 kmh 29.92 in1013.2 mb 0.01 in0.3 mm 0.00 in/hr0.0 mm/hr 0.03 in0.8 mm
11:21 PM 51.8°F11.0°C 49.3°F9.6°C 91% 13.0 mph WSW20.9 kmh WSW 28.0 mph45.1 kmh 29.92 in1013.2 mb 0.01 in0.3 mm 0.00 in/hr0.0 mm/hr 0.03 in0.8 mm
11:20 PM 51.8°F11.0°C 49.3°F9.6°C 91% 14.0 mph WSW22.5 kmh WSW 28.0 mph45.1 kmh 29.91 in1012.9 mb 0.01 in0.3 mm 0.00 in/hr0.0 mm/hr 0.03 in0.8 mm
11:19 PM 51.8°F11.0°C 49.3°F9.6°C 91% 13.0 mph WSW20.9 kmh WSW 28.0 mph45.1 kmh 29.91 in1012.9 mb 0.01 in0.3 mm 0.00 in/hr0.0 mm/hr 0.03 in0.8 mm
11:18 PM 51.6°F10.9°C 49.1°F9.5°C 91% 13.0 mph WSW20.9 kmh WSW 28.0 mph45.1 kmh 29.91 in1012.9 mb 0.01 in0.3 mm 0.00 in/hr0.0 mm/hr 0.03 in0.8 mm
11:17 PM 51.6°F10.9°C 49.1°F9.5°C 91% 13.0 mph WSW20.9 kmh WSW 28.0 mph45.1 kmh 29.91 in1012.9 mb 0.01 in0.3 mm 0.00 in/hr0.0 mm/hr 0.03 in0.8 mm
11:16 PM 51.8°F11.0°C 49.3°F9.6°C 91% 13.0 mph WSW20.9 kmh WSW 28.0 mph45.1 kmh 29.91 in1012.9 mb 0.01 in0.3 mm 0.00 in/hr0.0 mm/hr 0.03 in0.8 mm
11:15 PM 51.6°F10.9°C 49.1°F9.5°C 91% 13.0 mph WSW20.9 kmh WSW 28.0 mph45.1 kmh 29.91 in1012.9 mb 0.01 in0.3 mm 0.00 in/hr0.0 mm/hr 0.03 in0.8 mm
11:14 PM 51.8°F11.0°C 49.3°F9.6°C 91% 13.0 mph WSW20.9 kmh WSW 28.0 mph45.1 kmh 29.91 in1012.9 mb 0.01 in0.3 mm 0.00 in/hr0.0 mm/hr 0.03 in0.8 mm
11:13 PM 51.8°F11.0°C 49.3°F9.6°C 91% 13.0 mph WSW20.9 kmh WSW 28.0 mph45.1 kmh 29.91 in1012.9 mb 0.01 in0.3 mm 0.00 in/hr0.0 mm/hr 0.03 in0.8 mm
11:12 PM 51.8°F11.0°C 49.3°F9.6°C 91% 13.0 mph WSW20.9 kmh WSW 28.0 mph45.1 kmh 29.91 in1012.9 mb 0.01 in0.3 mm 0.00 in/hr0.0 mm/hr 0.03 in0.8 mm
11:11 PM 51.6°F10.9°C 49.1°F9.5°C 91% 14.0 mph WSW22.5 kmh WSW 28.0 mph45.1 kmh 29.91 in1012.9 mb 0.01 in0.3 mm 0.00 in/hr0.0 mm/hr 0.03 in0.8 mm
11:10 PM 51.6°F10.9°C 49.1°F9.5°C 91% 13.0 mph WSW20.9 kmh WSW 28.0 mph45.1 kmh 29.91 in1012.9 mb 0.01 in0.3 mm 0.60 in/hr15.2 mm/hr 0.03 in0.8 mm
11:09 PM 51.6°F10.9°C 49.1°F9.5°C 91% 13.0 mph WSW20.9 kmh WSW 24.0 mph38.6 kmh 29.91 in1012.9 mb 0.00 in0.0 mm 0.00 in/hr0.0 mm/hr 0.02 in0.5 mm
11:08 PM 51.6°F10.9°C 49.1°F9.5°C 91% 12.0 mph WSW19.3 kmh WSW 24.0 mph38.6 kmh 29.91 in1012.9 mb 0.00 in0.0 mm 0.00 in/hr0.0 mm/hr 0.02 in0.5 mm
11:07 PM 51.6°F10.9°C 49.1°F9.5°C 91% 12.0 mph WSW19.3 kmh WSW 24.0 mph38.6 kmh 29.91 in1012.9 mb 0.00 in0.0 mm 0.00 in/hr0.0 mm/hr 0.02 in0.5 mm
11:06 PM 51.6°F10.9°C 49.1°F9.5°C 91% 12.0 mph WSW19.3 kmh WSW 24.0 mph38.6 kmh 29.91 in1012.9 mb 0.00 in0.0 mm 0.00 in/hr0.0 mm/hr 0.02 in0.5 mm
11:05 PM 51.6°F10.9°C 49.1°F9.5°C 91% 13.0 mph WSW20.9 kmh WSW 27.0 mph43.5 kmh 29.91 in1012.9 mb 0.00 in0.0 mm 0.00 in/hr0.0 mm/hr 0.02 in0.5 mm
11:04 PM 51.6°F10.9°C 49.1°F9.5°C 91% 12.0 mph WSW19.3 kmh WSW 27.0 mph43.5 kmh 29.91 in1012.9 mb 0.00 in0.0 mm 0.00 in/hr0.0 mm/hr 0.02 in0.5 mm
11:03 PM 51.6°F10.9°C 49.1°F9.5°C 91% 12.0 mph WSW19.3 kmh WSW 27.0 mph43.5 kmh 29.91 in1012.9 mb 0.00 in0.0 mm 0.00 in/hr0.0 mm/hr 0.02 in0.5 mm
11:02 PM 51.6°F10.9°C 49.1°F9.5°C 91% 12.0 mph WSW19.3 kmh WSW 27.0 mph43.5 kmh 29.91 in1012.9 mb 0.00 in0.0 mm 0.00 in/hr0.0 mm/hr 0.02 in0.5 mm
11:01 PM 51.6°F10.9°C 49.1°F9.5°C 91% 12.0 mph WSW19.3 kmh WSW 27.0 mph43.5 kmh 29.91 in1012.9 mb 0.00 in0.0 mm 0.00 in/hr0.0 mm/hr 0.02 in0.5 mm
11:00 PM 51.6°F10.9°C 49.1°F9.5°C 91% 12.0 mph WSW19.3 kmh WSW 27.0 mph43.5 kmh 29.91 in1012.9 mb 0.00 in0.0 mm 0.00 in/hr0.0 mm/hr 0.02 in0.5 mm
10:59 PM 51.6°F10.9°C 49.1°F9.5°C 91% 12.0 mph WSW19.3 kmh WSW 27.0 mph43.5 kmh 29.91 in1012.9 mb 0.00 in0.0 mm 0.00 in/hr0.0 mm/hr 0.02 in0.5 mm
10:58 PM 51.6°F10.9°C 49.1°F9.5°C 91% 12.0 mph SW19.3 kmh SW 27.0 mph43.5 kmh 29.91 in1012.9 mb 0.00 in0.0 mm 0.00 in/hr0.0 mm/hr 0.02 in0.5 mm
10:57 PM 51.6°F10.9°C 49.1°F9.5°C 91% 12.0 mph SW19.3 kmh SW 27.0 mph43.5 kmh 29.91 in1012.9 mb 0.00 in0.0 mm 0.00 in/hr0.0 mm/hr 0.02 in0.5 mm
10:56 PM 51.6°F10.9°C 49.1°F9.5°C 91% 12.0 mph SW19.3 kmh SW 27.0 mph43.5 kmh 29.91 in1012.9 mb 0.00 in0.0 mm 0.00 in/hr0.0 mm/hr 0.02 in0.5 mm
10:55 PM 51.6°F10.9°C 49.1°F9.5°C 91% 11.0 mph SW17.7 kmh SW 23.0 mph37.0 kmh 29.91 in1012.9 mb 0.00 in0.0 mm 0.00 in/hr0.0 mm/hr 0.02 in0.5 mm
10:54 PM 51.6°F10.9°C 49.1°F9.5°C 91% 11.0 mph SW17.7 kmh SW 23.0 mph37.0 kmh 29.91 in1012.9 mb 0.00 in0.0 mm 0.00 in/hr0.0 mm/hr 0.02 in0.5 mm
10:53 PM 51.6°F10.9°C 49.1°F9.5°C 91% 11.0 mph SW17.7 kmh SW 23.0 mph37.0 kmh 29.91 in1012.9 mb 0.00 in0.0 mm 0.00 in/hr0.0 mm/hr 0.02 in0.5 mm
10:52 PM 51.6°F10.9°C 49.1°F9.5°C 91% 11.0 mph SW17.7 kmh SW 23.0 mph37.0 kmh 29.91 in1012.9 mb 0.00 in0.0 mm 0.00 in/hr0.0 mm/hr 0.02 in0.5 mm
10:51 PM 51.6°F10.9°C 49.1°F9.5°C 91% 11.0 mph SW17.7 kmh SW 19.0 mph30.6 kmh 29.91 in1012.9 mb 0.00 in0.0 mm 0.00 in/hr0.0 mm/hr 0.02 in0.5 mm
10:50 PM 51.6°F10.9°C 49.1°F9.5°C 91% 11.0 mph SW17.7 kmh SW 22.0 mph35.4 kmh 29.91 in1012.9 mb 0.00 in0.0 mm 0.00 in/hr0.0 mm/hr 0.02 in0.5 mm
10:49 PM 51.6°F10.9°C 49.1°F9.5°C 91% 10.0 mph SW16.1 kmh SW 22.0 mph35.4 kmh 29.91 in1012.9 mb 0.00 in0.0 mm 0.00 in/hr0.0 mm/hr 0.02 in0.5 mm
10:48 PM 51.6°F10.9°C 49.1°F9.5°C 91% 11.0 mph SW17.7 kmh SW 22.0 mph35.4 kmh 29.91 in1012.9 mb 0.00 in0.0 mm 0.00 in/hr0.0 mm/hr 0.02 in0.5 mm
10:47 PM 51.6°F10.9°C 49.1°F9.5°C 91% 11.0 mph SW17.7 kmh SW 22.0 mph35.4 kmh 29.91 in1012.9 mb 0.00 in0.0 mm 0.00 in/hr0.0 mm/hr 0.02 in0.5 mm
10:46 PM 51.6°F10.9°C 49.1°F9.5°C 91% 11.0 mph SW17.7 kmh SW 22.0 mph35.4 kmh 29.91 in1012.9 mb 0.00 in0.0 mm 0.00 in/hr0.0 mm/hr 0.02 in0.5 mm
10:45 PM 51.6°F10.9°C 49.1°F9.5°C 91% 11.0 mph SW17.7 kmh SW 22.0 mph35.4 kmh 29.91 in1012.9 mb 0.00 in0.0 mm 0.00 in/hr0.0 mm/hr 0.02 in0.5 mm
10:44 PM 51.6°F10.9°C 49.1°F9.5°C 91% 11.0 mph SW17.7 kmh SW 22.0 mph35.4 kmh 29.91 in1012.9 mb 0.00 in0.0 mm 0.00 in/hr0.0 mm/hr 0.02 in0.5 mm
10:43 PM 51.6°F10.9°C 49.1°F9.5°C 91% 11.0 mph SW17.7 kmh SW 22.0 mph35.4 kmh 29.91 in1012.9 mb 0.00 in0.0 mm 0.00 in/hr0.0 mm/hr 0.02 in0.5 mm
10:42 PM 51.6°F10.9°C 49.5°F9.7°C 92% 11.0 mph SW17.7 kmh SW 22.0 mph35.4 kmh 29.90 in1012.5 mb 0.00 in0.0 mm 0.00 in/hr0.0 mm/hr 0.02 in0.5 mm
10:41 PM 51.6°F10.9°C 49.5°F9.7°C 92% 11.0 mph SW17.7 kmh SW 23.0 mph37.0 kmh 29.91 in1012.9 mb 0.00 in0.0 mm 0.00 in/hr0.0 mm/hr 0.02 in0.5 mm
10:40 PM 51.6°F10.9°C 49.3°F9.6°C 92% 11.0 mph SW17.7 kmh SW 23.0 mph37.0 kmh 29.91 in1012.9 mb 0.00 in0.0 mm 0.00 in/hr0.0 mm/hr 0.02 in0.5 mm
10:39 PM 51.6°F10.9°C 49.3°F9.6°C 92% 11.0 mph SW17.7 kmh SW 23.0 mph37.0 kmh 29.91 in1012.9 mb 0.00 in0.0 mm 0.00 in/hr0.0 mm/hr 0.02 in0.5 mm
10:38 PM 51.6°F10.9°C 49.5°F9.7°C 92% 11.0 mph SW17.7 kmh SW 23.0 mph37.0 kmh 29.90 in1012.5 mb 0.00 in0.0 mm 0.00 in/hr0.0 mm/hr 0.02 in0.5 mm
10:37 PM 51.6°F10.9°C 49.3°F9.6°C 92% 11.0 mph SW17.7 kmh SW 23.0 mph37.0 kmh 29.90 in1012.5 mb 0.00 in0.0 mm 0.00 in/hr0.0 mm/hr 0.02 in0.5 mm
10:36 PM 51.6°F10.9°C 49.3°F9.6°C 92% 11.0 mph SW17.7 kmh SW 23.0 mph37.0 kmh 29.91 in1012.9 mb 0.00 in0.0 mm 0.00 in/hr0.0 mm/hr 0.02 in0.5 mm
10:35 PM 51.6°F10.9°C 49.5°F9.7°C 92% 11.0 mph SW17.7 kmh SW 23.0 mph37.0 kmh 29.91 in1012.9 mb 0.00 in0.0 mm 0.00 in/hr0.0 mm/hr 0.02 in0.5 mm
10:34 PM 51.6°F10.9°C 49.5°F9.7°C 92% 11.0 mph SW17.7 kmh SW 23.0 mph37.0 kmh 29.91 in1012.9 mb 0.00 in0.0 mm 0.00 in/hr0.0 mm/hr 0.02 in0.5 mm
10:33 PM 51.6°F10.9°C 49.3°F9.6°C 92% 12.0 mph SW19.3 kmh SW 23.0 mph37.0 kmh 29.91 in1012.9 mb 0.00 in0.0 mm 0.00 in/hr0.0 mm/hr 0.02 in0.5 mm
10:32 PM 51.6°F10.9°C 49.5°F9.7°C 92% 11.0 mph SW17.7 kmh SW 23.0 mph37.0 kmh 29.91 in1012.9 mb 0.00 in0.0 mm 0.00 in/hr0.0 mm/hr 0.02 in0.5 mm
10:31 PM 51.6°F10.9°C 49.3°F9.6°C 92% 11.0 mph SW17.7 kmh SW 21.0 mph33.8 kmh 29.91 in1012.9 mb 0.00 in0.0 mm 0.00 in/hr0.0 mm/hr 0.02 in0.5 mm
10:30 PM 51.6°F10.9°C 49.3°F9.6°C 92% 11.0 mph SW17.7 kmh SW 21.0 mph33.8 kmh 29.91 in1012.9 mb 0.00 in0.0 mm 0.00 in/hr0.0 mm/hr 0.02 in0.5 mm
10:29 PM 51.6°F10.9°C 49.3°F9.6°C 92% 12.0 mph SW19.3 kmh SW 21.0 mph33.8 kmh 29.91 in1012.9 mb 0.00 in0.0 mm 0.00 in/hr0.0 mm/hr 0.02 in0.5 mm
10:28 PM 51.6°F10.9°C 49.3°F9.6°C 92% 12.0 mph SW19.3 kmh SW 21.0 mph33.8 kmh 29.91 in1012.9 mb 0.00 in0.0 mm 0.00 in/hr0.0 mm/hr 0.02 in0.5 mm
10:27 PM 51.6°F10.9°C 49.3°F9.6°C 92% 12.0 mph SW19.3 kmh SW 23.0 mph37.0 kmh 29.91 in1012.9 mb 0.00 in0.0 mm 0.00 in/hr0.0 mm/hr 0.02 in0.5 mm
10:26 PM 51.6°F10.9°C 49.3°F9.6°C 92% 11.0 mph SW17.7 kmh SW 23.0 mph37.0 kmh 29.91 in1012.9 mb 0.00 in0.0 mm 0.00 in/hr0.0 mm/hr 0.02 in0.5 mm
10:25 PM 51.6°F10.9°C 49.3°F9.6°C 92% 11.0 mph SW17.7 kmh SW 23.0 mph37.0 kmh 29.91 in1012.9 mb 0.00 in0.0 mm 0.00 in/hr0.0 mm/hr 0.02 in0.5 mm
10:24 PM 51.6°F10.9°C 49.3°F9.6°C 92% 11.0 mph SW17.7 kmh SW 23.0 mph37.0 kmh 29.91 in1012.9 mb 0.00 in0.0 mm 0.00 in/hr0.0 mm/hr 0.02 in0.5 mm
10:23 PM 51.6°F10.9°C 49.3°F9.6°C 92% 12.0 mph SW19.3 kmh SW 23.0 mph37.0 kmh 29.91 in1012.9 mb 0.00 in0.0 mm 0.00 in/hr0.0 mm/hr 0.02 in0.5 mm
10:22 PM 51.6°F10.9°C 49.3°F9.6°C 92% 12.0 mph SW19.3 kmh SW 23.0 mph37.0 kmh 29.91 in1012.9 mb 0.00 in0.0 mm 0.00 in/hr0.0 mm/hr 0.02 in0.5 mm
10:21 PM 51.6°F10.9°C 49.3°F9.6°C 92% 12.0 mph SW19.3 kmh SW 23.0 mph37.0 kmh 29.91 in1012.9 mb 0.00 in0.0 mm 0.00 in/hr0.0 mm/hr 0.02 in0.5 mm
10:20 PM 51.6°F10.9°C 49.3°F9.6°C 92% 12.0 mph SW19.3 kmh SW 23.0 mph37.0 kmh 29.90 in1012.5 mb 0.00 in0.0 mm 0.00 in/hr0.0 mm/hr 0.02 in0.5 mm
10:19 PM 51.6°F10.9°C 49.5°F9.7°C 92% 12.0 mph SW19.3 kmh SW 23.0 mph37.0 kmh 29.91 in1012.9 mb 0.00 in0.0 mm 0.00 in/hr0.0 mm/hr 0.02 in0.5 mm
10:18 PM 51.6°F10.9°C 49.3°F9.6°C 92% 12.0 mph SW19.3 kmh SW 24.0 mph38.6 kmh 29.91 in1012.9 mb 0.00 in0.0 mm 0.00 in/hr0.0 mm/hr 0.02 in0.5 mm
10:17 PM 51.6°F10.9°C 49.3°F9.6°C 92% 13.0 mph SW20.9 kmh SW 24.0 mph38.6 kmh 29.91 in1012.9 mb 0.00 in0.0 mm 0.00 in/hr0.0 mm/hr 0.02 in0.5 mm
10:16 PM 51.6°F10.9°C 49.3°F9.6°C 92% 13.0 mph SW20.9 kmh SW 24.0 mph38.6 kmh 29.91 in1012.9 mb 0.00 in0.0 mm 0.00 in/hr0.0 mm/hr 0.02 in0.5 mm
10:15 PM 51.6°F10.9°C 49.3°F9.6°C 92% 13.0 mph SW20.9 kmh SW 24.0 mph38.6 kmh 29.91 in1012.9 mb 0.00 in0.0 mm 0.00 in/hr0.0 mm/hr 0.02 in0.5 mm
10:14 PM 51.6°F10.9°C 49.3°F9.6°C 92% 12.0 mph SW19.3 kmh SW 24.0 mph38.6 kmh 29.91 in1012.9 mb 0.00 in0.0 mm 0.00 in/hr0.0 mm/hr 0.02 in0.5 mm
10:13 PM 51.6°F10.9°C 49.3°F9.6°C 92% 12.0 mph SW19.3 kmh SW 24.0 mph38.6 kmh 29.91 in1012.9 mb 0.00 in0.0 mm 0.00 in/hr0.0 mm/hr 0.02 in0.5 mm
10:12 PM 51.6°F10.9°C 49.3°F9.6°C 92% 12.0 mph SW19.3 kmh SW 24.0 mph38.6 kmh 29.91 in1012.9 mb 0.00 in0.0 mm 0.00 in/hr0.0 mm/hr 0.02 in0.5 mm
10:11 PM 51.6°F10.9°C 49.3°F9.6°C 92% 12.0 mph SW19.3 kmh SW 24.0 mph38.6 kmh 29.91 in1012.9 mb 0.00 in0.0 mm 0.00 in/hr0.0 mm/hr 0.02 in0.5 mm
10:10 PM 51.6°F10.9°C 49.3°F9.6°C 92% 12.0 mph SW19.3 kmh SW 24.0 mph38.6 kmh 29.91 in1012.9 mb 0.00 in0.0 mm 0.00 in/hr0.0 mm/hr 0.02 in0.5 mm
10:09 PM 51.6°F10.9°C 49.3°F9.6°C 92% 12.0 mph SW19.3 kmh SW 24.0 mph38.6 kmh 29.91 in1012.9 mb 0.00 in0.0 mm 0.00 in/hr0.0 mm/hr 0.02 in0.5 mm
10:08 PM 51.6°F10.9°C 49.3°F9.6°C 92% 12.0 mph SW19.3 kmh SW 23.0 mph37.0 kmh 29.91 in1012.9 mb 0.00 in0.0 mm 0.00 in/hr0.0 mm/hr 0.02 in0.5 mm
10:07 PM 51.6°F10.9°C 49.3°F9.6°C 92% 12.0 mph SW19.3 kmh SW 23.0 mph37.0 kmh 29.91 in1012.9 mb 0.00 in0.0 mm 0.00 in/hr0.0 mm/hr 0.02 in0.5 mm
10:06 PM 51.6°F10.9°C 49.3°F9.6°C 92% 11.0 mph SW17.7 kmh SW 23.0 mph37.0 kmh 29.91 in1012.9 mb 0.00 in0.0 mm 0.00 in/hr0.0 mm/hr 0.02 in0.5 mm
10:05 PM 51.6°F10.9°C 49.6°F9.8°C 93% 12.0 mph SW19.3 kmh SW 23.0 mph37.0 kmh 29.91 in1012.9 mb 0.00 in0.0 mm 0.00 in/hr0.0 mm/hr 0.02 in0.5 mm
10:04 PM 51.6°F10.9°C 49.6°F9.8°C 93% 12.0 mph SW19.3 kmh SW 23.0 mph37.0 kmh 29.91 in1012.9 mb 0.00 in0.0 mm 0.00 in/hr0.0 mm/hr 0.02 in0.5 mm
10:03 PM 51.6°F10.9°C 49.6°F9.8°C 93% 13.0 mph SW20.9 kmh SW 23.0 mph37.0 kmh 29.91 in1012.9 mb 0.00 in0.0 mm 0.00 in/hr0.0 mm/hr 0.02 in0.5 mm
10:02 PM 51.6°F10.9°C 49.6°F9.8°C 93% 13.0 mph SW20.9 kmh SW 23.0 mph37.0 kmh 29.91 in1012.9 mb 0.00 in0.0 mm 0.00 in/hr0.0 mm/hr 0.02 in0.5 mm
10:01 PM 51.6°F10.9°C 49.6°F9.8°C 93% 12.0 mph SW19.3 kmh SW 23.0 mph37.0 kmh 29.91 in1012.9 mb 0.00 in0.0 mm 0.00 in/hr0.0 mm/hr 0.02 in0.5 mm
10:00 PM 51.6°F10.9°C 49.6°F9.8°C 93% 13.0 mph SW20.9 kmh SW 23.0 mph37.0 kmh 29.91 in1012.9 mb 0.00 in0.0 mm 0.00 in/hr0.0 mm/hr 0.02 in0.5 mm
09:59 PM 51.6°F10.9°C 49.6°F9.8°C 93% 13.0 mph SW20.9 kmh SW 22.0 mph35.4 kmh 29.91 in1012.9 mb 0.00 in0.0 mm 0.00 in/hr0.0 mm/hr 0.02 in0.5 mm
09:58 PM 51.6°F10.9°C 49.6°F9.8°C 93% 13.0 mph SW20.9 kmh SW 22.0 mph35.4 kmh 29.91 in1012.9 mb 0.00 in0.0 mm 0.00 in/hr0.0 mm/hr 0.02 in0.5 mm
09:57 PM 51.6°F10.9°C 49.6°F9.8°C 93% 13.0 mph SW20.9 kmh SW 22.0 mph35.4 kmh 29.91 in1012.9 mb 0.00 in0.0 mm 0.00 in/hr0.0 mm/hr 0.02 in0.5 mm
09:56 PM 51.6°F10.9°C 49.6°F9.8°C 93% 13.0 mph SW20.9 kmh SW 22.0 mph35.4 kmh 29.91 in1012.9 mb 0.00 in0.0 mm 0.00 in/hr0.0 mm/hr 0.02 in0.5 mm
09:55 PM 51.6°F10.9°C 49.6°F9.8°C 93% 12.0 mph SW19.3 kmh SW 22.0 mph35.4 kmh 29.91 in1012.9 mb 0.00 in0.0 mm 0.00 in/hr0.0 mm/hr 0.02 in0.5 mm
09:54 PM 51.4°F10.8°C 49.5°F9.7°C 93% 12.0 mph SW19.3 kmh SW 22.0 mph35.4 kmh 29.91 in1012.9 mb 0.00 in0.0 mm 0.00 in/hr0.0 mm/hr 0.02 in0.5 mm
09:53 PM 51.4°F10.8°C 49.5°F9.7°C 93% 12.0 mph SW19.3 kmh SW 22.0 mph35.4 kmh 29.91 in1012.9 mb 0.00 in0.0 mm 0.00 in/hr0.0 mm/hr 0.02 in0.5 mm
09:52 PM 51.4°F10.8°C 49.5°F9.7°C 93% 12.0 mph SW19.3 kmh SW 30.0 mph48.3 kmh 29.91 in1012.9 mb 0.00 in0.0 mm 0.00 in/hr0.0 mm/hr 0.02 in0.5 mm
09:51 PM 51.4°F10.8°C 49.5°F9.7°C 93% 12.0 mph SW19.3 kmh SW 30.0 mph48.3 kmh 29.91 in1012.9 mb 0.00 in0.0 mm 0.00 in/hr0.0 mm/hr 0.02 in0.5 mm
09:50 PM 51.4°F10.8°C 49.5°F9.7°C 93% 12.0 mph SW19.3 kmh SW 30.0 mph48.3 kmh 29.91 in1012.9 mb 0.00 in0.0 mm 0.00 in/hr0.0 mm/hr 0.02 in0.5 mm
09:49 PM 51.4°F10.8°C 49.5°F9.7°C 93% 12.0 mph SW19.3 kmh SW 30.0 mph48.3 kmh 29.91 in1012.9 mb 0.00 in0.0 mm 0.00 in/hr0.0 mm/hr 0.02 in0.5 mm
09:48 PM 51.4°F10.8°C 49.5°F9.7°C 93% 12.0 mph SW19.3 kmh SW 30.0 mph48.3 kmh 29.91 in1012.9 mb 0.00 in0.0 mm 0.00 in/hr0.0 mm/hr 0.02 in0.5 mm
09:47 PM 51.4°F10.8°C 49.5°F9.7°C 93% 12.0 mph SW19.3 kmh SW 30.0 mph48.3 kmh 29.91 in1012.9 mb 0.00 in0.0 mm 0.00 in/hr0.0 mm/hr 0.02 in0.5 mm
09:46 PM 51.4°F10.8°C 49.5°F9.7°C 93% 12.0 mph SW19.3 kmh SW 30.0 mph48.3 kmh 29.91 in1012.9 mb 0.00 in0.0 mm 0.00 in/hr0.0 mm/hr 0.02 in0.5 mm
09:45 PM 51.4°F10.8°C 49.5°F9.7°C 93% 13.0 mph SW20.9 kmh SW 30.0 mph48.3 kmh 29.91 in1012.9 mb 0.00 in0.0 mm 0.00 in/hr0.0 mm/hr 0.02 in0.5 mm
09:44 PM 51.4°F10.8°C 49.5°F9.7°C 93% 13.0 mph SW20.9 kmh SW 30.0 mph48.3 kmh 29.91 in1012.9 mb 0.00 in0.0 mm 0.00 in/hr0.0 mm/hr 0.02 in0.5 mm
09:43 PM 51.4°F10.8°C 49.5°F9.7°C 93% 12.0 mph SW19.3 kmh SW 30.0 mph48.3 kmh 29.91 in1012.9 mb 0.00 in0.0 mm 0.00 in/hr0.0 mm/hr 0.02 in0.5 mm
09:42 PM 51.4°F10.8°C 49.5°F9.7°C 93% 12.0 mph SW19.3 kmh SW 25.0 mph40.2 kmh 29.91 in1012.9 mb 0.00 in0.0 mm 0.00 in/hr0.0 mm/hr 0.02 in0.5 mm
09:41 PM 51.4°F10.8°C 49.5°F9.7°C 93% 13.0 mph SW20.9 kmh SW 25.0 mph40.2 kmh 29.91 in1012.9 mb 0.00 in0.0 mm 0.00 in/hr0.0 mm/hr 0.02 in0.5 mm
09:40 PM 51.4°F10.8°C 49.5°F9.7°C 93% 13.0 mph SW20.9 kmh SW 25.0 mph40.2 kmh 29.91 in1012.9 mb 0.00 in0.0 mm 0.00 in/hr0.0 mm/hr 0.02 in0.5 mm
09:39 PM 51.4°F10.8°C 49.5°F9.7°C 93% 12.0 mph SW19.3 kmh SW 25.0 mph40.2 kmh 29.91 in1012.9 mb 0.00 in0.0 mm 0.00 in/hr0.0 mm/hr 0.02 in0.5 mm
09:38 PM 51.4°F10.8°C 49.5°F9.7°C 93% 12.0 mph SW19.3 kmh SW 25.0 mph40.2 kmh 29.91 in1012.9 mb 0.00 in0.0 mm 0.00 in/hr0.0 mm/hr 0.02 in0.5 mm
09:37 PM 51.4°F10.8°C 49.5°F9.7°C 93% 12.0 mph SW19.3 kmh SW 25.0 mph40.2 kmh 29.91 in1012.9 mb 0.00 in0.0 mm 0.00 in/hr0.0 mm/hr 0.02 in0.5 mm
09:36 PM 51.4°F10.8°C 49.5°F9.7°C 93% 12.0 mph SW19.3 kmh SW 25.0 mph40.2 kmh 29.91 in1012.9 mb 0.00 in0.0 mm 0.00 in/hr0.0 mm/hr 0.02 in0.5 mm
09:35 PM 51.4°F10.8°C 49.5°F9.7°C 93% 12.0 mph SW19.3 kmh SW 25.0 mph40.2 kmh 29.92 in1013.2 mb 0.00 in0.0 mm 0.00 in/hr0.0 mm/hr 0.02 in0.5 mm
09:34 PM 51.4°F10.8°C 49.5°F9.7°C 93% 12.0 mph SW19.3 kmh SW 24.0 mph38.6 kmh 29.91 in1012.9 mb 0.00 in0.0 mm 0.00 in/hr0.0 mm/hr 0.02 in0.5 mm
09:33 PM 51.4°F10.8°C 49.5°F9.7°C 93% 12.0 mph SW19.3 kmh SW 24.0 mph38.6 kmh 29.91 in1012.9 mb 0.00 in0.0 mm 0.00 in/hr0.0 mm/hr 0.02 in0.5 mm
09:32 PM 51.4°F10.8°C 49.5°F9.7°C 93% 12.0 mph SW19.3 kmh SW 24.0 mph38.6 kmh 29.91 in1012.9 mb 0.00 in0.0 mm 0.00 in/hr0.0 mm/hr 0.02 in0.5 mm
09:31 PM 51.4°F10.8°C 49.5°F9.7°C 93% 11.0 mph SW17.7 kmh SW 24.0 mph38.6 kmh 29.92 in1013.2 mb 0.00 in0.0 mm 0.00 in/hr0.0 mm/hr 0.02 in0.5 mm
09:30 PM 51.4°F10.8°C 49.5°F9.7°C 93% 11.0 mph SW17.7 kmh SW 23.0 mph37.0 kmh 29.91 in1012.9 mb 0.00 in0.0 mm 0.00 in/hr0.0 mm/hr 0.02 in0.5 mm
09:29 PM 51.3°F10.7°C 49.3°F9.6°C 93% 11.0 mph SW17.7 kmh SW 23.0 mph37.0 kmh 29.91 in1012.9 mb 0.00 in0.0 mm 0.00 in/hr0.0 mm/hr 0.02 in0.5 mm
09:28 PM 51.3°F10.7°C 49.3°F9.6°C 93% 12.0 mph SW19.3 kmh SW 23.0 mph37.0 kmh 29.91 in1012.9 mb 0.00 in0.0 mm 0.00 in/hr0.0 mm/hr 0.02 in0.5 mm
09:27 PM 51.3°F10.7°C 49.3°F9.6°C 93% 12.0 mph SW19.3 kmh SW 23.0 mph37.0 kmh 29.91 in1012.9 mb 0.00 in0.0 mm 0.00 in/hr0.0 mm/hr 0.02 in0.5 mm
09:26 PM 51.3°F10.7°C 49.3°F9.6°C 93% 11.0 mph SW17.7 kmh SW 23.0 mph37.0 kmh 29.91 in1012.9 mb 0.00 in0.0 mm 0.00 in/hr0.0 mm/hr 0.02 in0.5 mm
09:25 PM 51.3°F10.7°C 49.3°F9.6°C 93% 11.0 mph SW17.7 kmh SW 22.0 mph35.4 kmh 29.91 in1012.9 mb 0.00 in0.0 mm 0.00 in/hr0.0 mm/hr 0.02 in0.5 mm
09:24 PM 51.3°F10.7°C 49.3°F9.6°C 93% 11.0 mph SW17.7 kmh SW 22.0 mph35.4 kmh 29.91 in1012.9 mb 0.00 in0.0 mm 0.00 in/hr0.0 mm/hr 0.02 in0.5 mm
09:23 PM 51.3°F10.7°C 49.3°F9.6°C 93% 11.0 mph SW17.7 kmh SW 22.0 mph35.4 kmh 29.91 in1012.9 mb 0.00 in0.0 mm 0.00 in/hr0.0 mm/hr 0.02 in0.5 mm
09:22 PM 51.3°F10.7°C 49.3°F9.6°C 93% 12.0 mph SW19.3 kmh SW 22.0 mph35.4 kmh 29.91 in1012.9 mb 0.00 in0.0 mm 0.00 in/hr0.0 mm/hr 0.02 in0.5 mm
09:21 PM 51.3°F10.7°C 49.3°F9.6°C 93% 11.0 mph SW17.7 kmh SW 22.0 mph35.4 kmh 29.91 in1012.9 mb 0.00 in0.0 mm 0.00 in/hr0.0 mm/hr 0.02 in0.5 mm
09:20 PM 51.3°F10.7°C 49.3°F9.6°C 93% 12.0 mph SW19.3 kmh SW 22.0 mph35.4 kmh 29.91 in1012.9 mb 0.00 in0.0 mm 0.00 in/hr0.0 mm/hr 0.02 in0.5 mm
09:19 PM 51.3°F10.7°C 49.3°F9.6°C 93% 12.0 mph SW19.3 kmh SW 22.0 mph35.4 kmh 29.91 in1012.9 mb 0.00 in0.0 mm 0.00 in/hr0.0 mm/hr 0.02 in0.5 mm
09:18 PM 51.3°F10.7°C 49.3°F9.6°C 93% 11.0 mph SW17.7 kmh SW 23.0 mph37.0 kmh 29.91 in1012.9 mb 0.00 in0.0 mm 0.00 in/hr0.0 mm/hr 0.02 in0.5 mm
09:17 PM 51.3°F10.7°C 49.6°F9.8°C 94% 12.0 mph SW19.3 kmh SW 23.0 mph37.0 kmh 29.91 in1012.9 mb 0.00 in0.0 mm 0.00 in/hr0.0 mm/hr 0.02 in0.5 mm
09:16 PM 51.3°F10.7°C 49.6°F9.8°C 94% 12.0 mph SW19.3 kmh SW 23.0 mph37.0 kmh 29.91 in1012.9 mb 0.00 in0.0 mm 0.00 in/hr0.0 mm/hr 0.02 in0.5 mm
09:15 PM 51.3°F10.7°C 49.6°F9.8°C 94% 12.0 mph SW19.3 kmh SW 23.0 mph37.0 kmh 29.91 in1012.9 mb 0.00 in0.0 mm 0.00 in/hr0.0 mm/hr 0.02 in0.5 mm
09:14 PM 51.3°F10.7°C 49.6°F9.8°C 94% 12.0 mph SW19.3 kmh SW 23.0 mph37.0 kmh 29.91 in1012.9 mb 0.00 in0.0 mm 0.00 in/hr0.0 mm/hr 0.02 in0.5 mm
09:13 PM 51.3°F10.7°C 49.6°F9.8°C 94% 12.0 mph SW19.3 kmh SW 23.0 mph37.0 kmh 29.91 in1012.9 mb 0.00 in0.0 mm 0.00 in/hr0.0 mm/hr 0.02 in0.5 mm
09:12 PM 51.3°F10.7°C 49.6°F9.8°C 94% 12.0 mph SW19.3 kmh SW 23.0 mph37.0 kmh 29.91 in1012.9 mb 0.00 in0.0 mm 0.00 in/hr0.0 mm/hr 0.02 in0.5 mm
09:11 PM 51.3°F10.7°C 49.6°F9.8°C 94% 12.0 mph SW19.3 kmh SW 23.0 mph37.0 kmh 29.91 in1012.9 mb 0.00 in0.0 mm 0.00 in/hr0.0 mm/hr 0.02 in0.5 mm
09:10 PM 51.3°F10.7°C 49.6°F9.8°C 94% 12.0 mph SW19.3 kmh SW 23.0 mph37.0 kmh 29.91 in1012.9 mb 0.00 in0.0 mm 0.00 in/hr0.0 mm/hr 0.02 in0.5 mm
09:09 PM 51.3°F10.7°C 49.6°F9.8°C 94% 12.0 mph SW19.3 kmh SW 23.0 mph37.0 kmh 29.91 in1012.9 mb 0.00 in0.0 mm 0.00 in/hr0.0 mm/hr 0.02 in0.5 mm
09:08 PM 51.3°F10.7°C 49.6°F9.8°C 94% 12.0 mph SW19.3 kmh SW 23.0 mph37.0 kmh 29.90 in1012.5 mb 0.00 in0.0 mm 0.00 in/hr0.0 mm/hr 0.02 in0.5 mm
09:07 PM 51.3°F10.7°C 49.6°F9.8°C 94% 12.0 mph SW19.3 kmh SW 23.0 mph37.0 kmh 29.91 in1012.9 mb 0.00 in0.0 mm 0.00 in/hr0.0 mm/hr 0.02 in0.5 mm
09:06 PM 51.3°F10.7°C 49.6°F9.8°C 94% 13.0 mph SW20.9 kmh SW 23.0 mph37.0 kmh 29.90 in1012.5 mb 0.00 in0.0 mm 0.00 in/hr0.0 mm/hr 0.02 in0.5 mm
09:05 PM 51.3°F10.7°C 49.6°F9.8°C 94% 12.0 mph SW19.3 kmh SW 23.0 mph37.0 kmh 29.90 in1012.5 mb 0.00 in0.0 mm 0.00 in/hr0.0 mm/hr 0.02 in0.5 mm
09:04 PM 51.3°F10.7°C 49.6°F9.8°C 94% 12.0 mph SW19.3 kmh SW 23.0 mph37.0 kmh 29.90 in1012.5 mb 0.00 in0.0 mm 0.00 in/hr0.0 mm/hr 0.02 in0.5 mm
09:03 PM 51.3°F10.7°C 49.6°F9.8°C 94% 12.0 mph SW19.3 kmh SW 23.0 mph37.0 kmh 29.91 in1012.9 mb 0.00 in0.0 mm 0.00 in/hr0.0 mm/hr 0.02 in0.5 mm
09:02 PM 51.3°F10.7°C 49.6°F9.8°C 94% 12.0 mph SW19.3 kmh SW 23.0 mph37.0 kmh 29.91 in1012.9 mb 0.00 in0.0 mm 0.00 in/hr0.0 mm/hr 0.02 in0.5 mm
09:01 PM 51.3°F10.7°C 49.6°F9.8°C 94% 12.0 mph SW19.3 kmh SW 23.0 mph37.0 kmh 29.90 in1012.5 mb 0.00 in0.0 mm 0.00 in/hr0.0 mm/hr 0.02 in0.5 mm
09:00 PM 51.3°F10.7°C 49.6°F9.8°C 94% 12.0 mph SW19.3 kmh SW 23.0 mph37.0 kmh 29.90 in1012.5 mb 0.00 in0.0 mm 0.00 in/hr0.0 mm/hr 0.02 in0.5 mm
08:59 PM 51.3°F10.7°C 49.6°F9.8°C 94% 12.0 mph SW19.3 kmh SW 23.0 mph37.0 kmh 29.90 in1012.5 mb 0.00 in0.0 mm 0.00 in/hr0.0 mm/hr 0.02 in0.5 mm
08:58 PM 51.3°F10.7°C 49.6°F9.8°C 94% 12.0 mph SW19.3 kmh SW 23.0 mph37.0 kmh 29.91 in1012.9 mb 0.00 in0.0 mm 0.00 in/hr0.0 mm/hr 0.02 in0.5 mm
08:57 PM 51.3°F10.7°C 49.6°F9.8°C 94% 12.0 mph SW19.3 kmh SW 23.0 mph37.0 kmh 29.90 in1012.5 mb 0.00 in0.0 mm 0.00 in/hr0.0 mm/hr 0.02 in0.5 mm
08:56 PM 51.3°F10.7°C 49.6°F9.8°C 94% 12.0 mph SW19.3 kmh SW 23.0 mph37.0 kmh 29.90 in1012.5 mb 0.00 in0.0 mm 0.00 in/hr0.0 mm/hr 0.02 in0.5 mm
08:55 PM 51.3°F10.7°C 49.6°F9.8°C 94% 12.0 mph SW19.3 kmh SW 23.0 mph37.0 kmh 29.90 in1012.5 mb 0.00 in0.0 mm 0.00 in/hr0.0 mm/hr 0.02 in0.5 mm
08:54 PM 51.3°F10.7°C 49.6°F9.8°C 94% 12.0 mph SW19.3 kmh SW 23.0 mph37.0 kmh 29.91 in1012.9 mb 0.00 in0.0 mm 0.00 in/hr0.0 mm/hr 0.02 in0.5 mm
08:53 PM 51.3°F10.7°C 49.6°F9.8°C 94% 12.0 mph SW19.3 kmh SW 23.0 mph37.0 kmh 29.91 in1012.9 mb 0.00 in0.0 mm 0.00 in/hr0.0 mm/hr 0.02 in0.5 mm
08:52 PM 51.3°F10.7°C 49.6°F9.8°C 94% 12.0 mph SW19.3 kmh SW 23.0 mph37.0 kmh 29.91 in1012.9 mb 0.00 in0.0 mm 0.00 in/hr0.0 mm/hr 0.02 in0.5 mm
08:51 PM 51.3°F10.7°C 49.6°F9.8°C 94% 12.0 mph SW19.3 kmh SW 23.0 mph37.0 kmh 29.91 in1012.9 mb 0.00 in0.0 mm 0.00 in/hr0.0 mm/hr 0.02 in0.5 mm
08:50 PM 51.3°F10.7°C 49.6°F9.8°C 94% 12.0 mph SW19.3 kmh SW 25.0 mph40.2 kmh 29.91 in1012.9 mb 0.00 in0.0 mm 0.00 in/hr0.0 mm/hr 0.02 in0.5 mm
08:49 PM 51.3°F10.7°C 49.6°F9.8°C 94% 12.0 mph SW19.3 kmh SW 25.0 mph40.2 kmh 29.91 in1012.9 mb 0.00 in0.0 mm 0.00 in/hr0.0 mm/hr 0.02 in0.5 mm
08:48 PM 51.3°F10.7°C 49.6°F9.8°C 94% 11.0 mph SW17.7 kmh SW 25.0 mph40.2 kmh 29.91 in1012.9 mb 0.00 in0.0 mm 0.00 in/hr0.0 mm/hr 0.02 in0.5 mm
08:47 PM 51.3°F10.7°C 49.6°F9.8°C 94% 12.0 mph SW19.3 kmh SW 25.0 mph40.2 kmh 29.90 in1012.5 mb 0.00 in0.0 mm 0.00 in/hr0.0 mm/hr 0.02 in0.5 mm
08:46 PM 51.3°F10.7°C 49.6°F9.8°C 94% 12.0 mph SW19.3 kmh SW 25.0 mph40.2 kmh 29.91 in1012.9 mb 0.00 in0.0 mm 0.00 in/hr0.0 mm/hr 0.02 in0.5 mm
08:45 PM 51.3°F10.7°C 49.6°F9.8°C 94% 12.0 mph SW19.3 kmh SW 25.0 mph40.2 kmh 29.90 in1012.5 mb 0.00 in0.0 mm 0.00 in/hr0.0 mm/hr 0.02 in0.5 mm
08:44 PM 51.3°F10.7°C 49.6°F9.8°C 94% 12.0 mph SW19.3 kmh SW 25.0 mph40.2 kmh 29.90 in1012.5 mb 0.01 in0.3 mm 0.00 in/hr0.0 mm/hr 0.02 in0.5 mm
08:43 PM 51.3°F10.7°C 49.6°F9.8°C 94% 12.0 mph SW19.3 kmh SW 25.0 mph40.2 kmh 29.90 in1012.5 mb 0.01 in0.3 mm 0.00 in/hr0.0 mm/hr 0.02 in0.5 mm
08:42 PM 51.3°F10.7°C 49.6°F9.8°C 94% 12.0 mph SW19.3 kmh SW 25.0 mph40.2 kmh 29.91 in1012.9 mb 0.01 in0.3 mm 0.00 in/hr0.0 mm/hr 0.02 in0.5 mm
08:41 PM 51.3°F10.7°C 49.6°F9.8°C 94% 12.0 mph SW19.3 kmh SW 25.0 mph40.2 kmh 29.91 in1012.9 mb 0.01 in0.3 mm 0.00 in/hr0.0 mm/hr 0.02 in0.5 mm
08:40 PM 51.3°F10.7°C 49.6°F9.8°C 94% 12.0 mph SW19.3 kmh SW 22.0 mph35.4 kmh 29.91 in1012.9 mb 0.01 in0.3 mm 0.00 in/hr0.0 mm/hr 0.02 in0.5 mm
08:39 PM 51.3°F10.7°C 49.6°F9.8°C 94% 12.0 mph SW19.3 kmh SW 22.0 mph35.4 kmh 29.91 in1012.9 mb 0.01 in0.3 mm 0.00 in/hr0.0 mm/hr 0.02 in0.5 mm
08:38 PM 51.3°F10.7°C 49.6°F9.8°C 94% 12.0 mph SW19.3 kmh SW 22.0 mph35.4 kmh 29.91 in1012.9 mb 0.01 in0.3 mm 0.00 in/hr0.0 mm/hr 0.02 in0.5 mm
08:37 PM 51.3°F10.7°C 49.6°F9.8°C 94% 12.0 mph SW19.3 kmh SW 22.0 mph35.4 kmh 29.91 in1012.9 mb 0.01 in0.3 mm 0.00 in/hr0.0 mm/hr 0.02 in0.5 mm
08:36 PM 51.3°F10.7°C 49.6°F9.8°C 94% 12.0 mph SW19.3 kmh SW 22.0 mph35.4 kmh 29.91 in1012.9 mb 0.01 in0.3 mm 0.00 in/hr0.0 mm/hr 0.02 in0.5 mm
08:35 PM 51.3°F10.7°C 49.6°F9.8°C 94% 12.0 mph SW19.3 kmh SW 22.0 mph35.4 kmh 29.91 in1012.9 mb 0.01 in0.3 mm 0.00 in/hr0.0 mm/hr 0.02 in0.5 mm
08:34 PM 51.3°F10.7°C 49.6°F9.8°C 94% 12.0 mph SW19.3 kmh SW 22.0 mph35.4 kmh 29.91 in1012.9 mb 0.01 in0.3 mm 0.00 in/hr0.0 mm/hr 0.02 in0.5 mm
08:33 PM 51.3°F10.7°C 49.6°F9.8°C 94% 12.0 mph SW19.3 kmh SW 22.0 mph35.4 kmh 29.91 in1012.9 mb 0.01 in0.3 mm 0.00 in/hr0.0 mm/hr 0.02 in0.5 mm
08:32 PM 51.3°F10.7°C 49.6°F9.8°C 94% 12.0 mph SW19.3 kmh SW 22.0 mph35.4 kmh 29.91 in1012.9 mb 0.01 in0.3 mm 0.00 in/hr0.0 mm/hr 0.02 in0.5 mm
08:31 PM 51.3°F10.7°C 49.6°F9.8°C 94% 12.0 mph SW19.3 kmh SW 22.0 mph35.4 kmh 29.91 in1012.9 mb 0.01 in0.3 mm 0.00 in/hr0.0 mm/hr 0.02 in0.5 mm
08:30 PM 51.3°F10.7°C 49.6°F9.8°C 94% 11.0 mph SW17.7 kmh SW 22.0 mph35.4 kmh 29.91 in1012.9 mb 0.01 in0.3 mm 0.00 in/hr0.0 mm/hr 0.02 in0.5 mm
08:29 PM 51.3°F10.7°C 49.6°F9.8°C 94% 11.0 mph SW17.7 kmh SW 21.0 mph33.8 kmh 29.91 in1012.9 mb 0.01 in0.3 mm 0.00 in/hr0.0 mm/hr 0.02 in0.5 mm
08:28 PM 51.3°F10.7°C 49.6°F9.8°C 94% 11.0 mph SW17.7 kmh SW 22.0 mph35.4 kmh 29.91 in1012.9 mb 0.02 in0.5 mm 0.00 in/hr0.0 mm/hr 0.02 in0.5 mm
08:27 PM 51.3°F10.7°C 49.6°F9.8°C 94% 11.0 mph SW17.7 kmh SW 22.0 mph35.4 kmh 29.91 in1012.9 mb 0.02 in0.5 mm 0.00 in/hr0.0 mm/hr 0.02 in0.5 mm
08:26 PM 51.3°F10.7°C 49.6°F9.8°C 94% 11.0 mph SW17.7 kmh SW 22.0 mph35.4 kmh 29.91 in1012.9 mb 0.02 in0.5 mm 0.00 in/hr0.0 mm/hr 0.02 in0.5 mm
08:25 PM 51.3°F10.7°C 49.6°F9.8°C 94% 11.0 mph SW17.7 kmh SW 22.0 mph35.4 kmh 29.91 in1012.9 mb 0.02 in0.5 mm 0.00 in/hr0.0 mm/hr 0.02 in0.5 mm
08:24 PM 51.3°F10.7°C 49.6°F9.8°C 94% 10.0 mph SW16.1 kmh SW 22.0 mph35.4 kmh 29.91 in1012.9 mb 0.02 in0.5 mm 0.00 in/hr0.0 mm/hr 0.02 in0.5 mm
08:23 PM 51.3°F10.7°C 49.6°F9.8°C 94% 11.0 mph SW17.7 kmh SW 22.0 mph35.4 kmh 29.91 in1012.9 mb 0.02 in0.5 mm 0.00 in/hr0.0 mm/hr 0.02 in0.5 mm
08:22 PM 51.4°F10.8°C 49.8°F9.9°C 94% 11.0 mph SW17.7 kmh SW 24.0 mph38.6 kmh 29.91 in1012.9 mb 0.02 in0.5 mm 0.00 in/hr0.0 mm/hr 0.02 in0.5 mm
08:21 PM 51.4°F10.8°C 49.8°F9.9°C 94% 11.0 mph SW17.7 kmh SW 24.0 mph38.6 kmh 29.91 in1012.9 mb 0.02 in0.5 mm 0.00 in/hr0.0 mm/hr 0.02 in0.5 mm
08:20 PM 51.4°F10.8°C 49.8°F9.9°C 94% 11.0 mph SW17.7 kmh SW 24.0 mph38.6 kmh 29.91 in1012.9 mb 0.02 in0.5 mm 0.00 in/hr0.0 mm/hr 0.02 in0.5 mm
08:19 PM 51.4°F10.8°C 49.8°F9.9°C 94% 11.0 mph SW17.7 kmh SW 24.0 mph38.6 kmh 29.91 in1012.9 mb 0.02 in0.5 mm 0.00 in/hr0.0 mm/hr 0.02 in0.5 mm
08:18 PM 51.4°F10.8°C 49.8°F9.9°C 94% 11.0 mph SW17.7 kmh SW 24.0 mph38.6 kmh 29.91 in1012.9 mb 0.02 in0.5 mm 0.00 in/hr0.0 mm/hr 0.02 in0.5 mm
08:17 PM 51.4°F10.8°C 49.8°F9.9°C 94% 12.0 mph SW19.3 kmh SW 24.0 mph38.6 kmh 29.91 in1012.9 mb 0.02 in0.5 mm 0.00 in/hr0.0 mm/hr 0.02 in0.5 mm
08:16 PM 51.4°F10.8°C 49.8°F9.9°C 94% 12.0 mph SW19.3 kmh SW 26.0 mph41.8 kmh 29.91 in1012.9 mb 0.02 in0.5 mm 0.00 in/hr0.0 mm/hr 0.02 in0.5 mm
08:15 PM 51.4°F10.8°C 49.8°F9.9°C 94% 12.0 mph SW19.3 kmh SW 26.0 mph41.8 kmh 29.91 in1012.9 mb 0.02 in0.5 mm 0.00 in/hr0.0 mm/hr 0.02 in0.5 mm
08:14 PM 51.4°F10.8°C 49.8°F9.9°C 94% 12.0 mph SW19.3 kmh SW 26.0 mph41.8 kmh 29.91 in1012.9 mb 0.02 in0.5 mm 0.00 in/hr0.0 mm/hr 0.02 in0.5 mm
08:13 PM 51.4°F10.8°C 49.8°F9.9°C 94% 12.0 mph SW19.3 kmh SW 26.0 mph41.8 kmh 29.91 in1012.9 mb 0.02 in0.5 mm 0.00 in/hr0.0 mm/hr 0.02 in0.5 mm
08:12 PM 51.4°F10.8°C 49.8°F9.9°C 94% 12.0 mph SW19.3 kmh SW 26.0 mph41.8 kmh 29.91 in1012.9 mb 0.02 in0.5 mm 0.00 in/hr0.0 mm/hr 0.02 in0.5 mm
08:11 PM 51.4°F10.8°C 49.8°F9.9°C 94% 12.0 mph SW19.3 kmh SW 26.0 mph41.8 kmh 29.91 in1012.9 mb 0.02 in0.5 mm 0.00 in/hr0.0 mm/hr 0.02 in0.5 mm
08:10 PM 51.4°F10.8°C 49.8°F9.9°C 94% 12.0 mph SW19.3 kmh SW 26.0 mph41.8 kmh 29.91 in1012.9 mb 0.02 in0.5 mm 0.00 in/hr0.0 mm/hr 0.02 in0.5 mm
08:09 PM 51.4°F10.8°C 49.8°F9.9°C 94% 12.0 mph SW19.3 kmh SW 26.0 mph41.8 kmh 29.91 in1012.9 mb 0.02 in0.5 mm 0.00 in/hr0.0 mm/hr 0.02 in0.5 mm
08:08 PM 51.4°F10.8°C 49.8°F9.9°C 94% 12.0 mph SW19.3 kmh SW 26.0 mph41.8 kmh 29.91 in1012.9 mb 0.02 in0.5 mm 0.00 in/hr0.0 mm/hr 0.02 in0.5 mm
08:07 PM 51.4°F10.8°C 49.8°F9.9°C 94% 12.0 mph SW19.3 kmh SW 26.0 mph41.8 kmh 29.91 in1012.9 mb 0.02 in0.5 mm 0.00 in/hr0.0 mm/hr 0.02 in0.5 mm
08:06 PM 51.4°F10.8°C 49.8°F9.9°C 94% 12.0 mph SW19.3 kmh SW 28.0 mph45.1 kmh 29.91 in1012.9 mb 0.02 in0.5 mm 0.00 in/hr0.0 mm/hr 0.02 in0.5 mm
08:05 PM 51.4°F10.8°C 49.8°F9.9°C 94% 12.0 mph SW19.3 kmh SW 28.0 mph45.1 kmh 29.91 in1012.9 mb 0.02 in0.5 mm 0.00 in/hr0.0 mm/hr 0.02 in0.5 mm
08:04 PM 51.4°F10.8°C 49.8°F9.9°C 94% 12.0 mph SW19.3 kmh SW 28.0 mph45.1 kmh 29.91 in1012.9 mb 0.02 in0.5 mm 0.00 in/hr0.0 mm/hr 0.02 in0.5 mm
08:03 PM 51.4°F10.8°C 49.5°F9.7°C 93% 12.0 mph SW19.3 kmh SW 28.0 mph45.1 kmh 29.91 in1012.9 mb 0.02 in0.5 mm 0.00 in/hr0.0 mm/hr 0.02 in0.5 mm
08:02 PM 51.4°F10.8°C 49.8°F9.9°C 94% 12.0 mph SW19.3 kmh SW 28.0 mph45.1 kmh 29.91 in1012.9 mb 0.02 in0.5 mm 0.00 in/hr0.0 mm/hr 0.02 in0.5 mm
08:01 PM 51.4°F10.8°C 49.5°F9.7°C 93% 13.0 mph SW20.9 kmh SW 28.0 mph45.1 kmh 29.91 in1012.9 mb 0.02 in0.5 mm 0.00 in/hr0.0 mm/hr 0.02 in0.5 mm
08:00 PM 51.4°F10.8°C 49.5°F9.7°C 93% 12.0 mph SW19.3 kmh SW 28.0 mph45.1 kmh 29.91 in1012.9 mb 0.02 in0.5 mm 0.00 in/hr0.0 mm/hr 0.02 in0.5 mm
07:59 PM 51.4°F10.8°C 49.5°F9.7°C 93% 13.0 mph SW20.9 kmh SW 28.0 mph45.1 kmh 29.91 in1012.9 mb 0.02 in0.5 mm 0.00 in/hr0.0 mm/hr 0.02 in0.5 mm
07:58 PM 51.4°F10.8°C 49.5°F9.7°C 93% 13.0 mph SW20.9 kmh SW 28.0 mph45.1 kmh 29.91 in1012.9 mb 0.02 in0.5 mm 0.00 in/hr0.0 mm/hr 0.02 in0.5 mm
07:57 PM 51.4°F10.8°C 49.5°F9.7°C 93% 13.0 mph SW20.9 kmh SW 28.0 mph45.1 kmh 29.91 in1012.9 mb 0.02 in0.5 mm 0.00 in/hr0.0 mm/hr 0.02 in0.5 mm
07:56 PM 51.4°F10.8°C 49.5°F9.7°C 93% 13.0 mph SW20.9 kmh SW 25.0 mph40.2 kmh 29.91 in1012.9 mb 0.02 in0.5 mm 0.00 in/hr0.0 mm/hr 0.02 in0.5 mm
07:55 PM 51.6°F10.9°C 49.6°F9.8°C 93% 13.0 mph SW20.9 kmh SW 25.0 mph40.2 kmh 29.91 in1012.9 mb 0.02 in0.5 mm 0.00 in/hr0.0 mm/hr 0.02 in0.5 mm
07:54 PM 51.6°F10.9°C 49.6°F9.8°C 93% 13.0 mph SW20.9 kmh SW 25.0 mph40.2 kmh 29.91 in1012.9 mb 0.02 in0.5 mm 0.00 in/hr0.0 mm/hr 0.02 in0.5 mm
07:53 PM 51.6°F10.9°C 49.6°F9.8°C 93% 13.0 mph SW20.9 kmh SW 25.0 mph40.2 kmh 29.91 in1012.9 mb 0.02 in0.5 mm 0.00 in/hr0.0 mm/hr 0.02 in0.5 mm
07:52 PM 51.6°F10.9°C 49.6°F9.8°C 93% 13.0 mph SW20.9 kmh SW 25.0 mph40.2 kmh 29.91 in1012.9 mb 0.02 in0.5 mm 0.00 in/hr0.0 mm/hr 0.02 in0.5 mm
07:51 PM 51.6°F10.9°C 49.8°F9.9°C 93% 13.0 mph SW20.9 kmh SW 25.0 mph40.2 kmh 29.91 in1012.9 mb 0.02 in0.5 mm 0.00 in/hr0.0 mm/hr 0.02 in0.5 mm
07:50 PM 51.6°F10.9°C 49.8°F9.9°C 93% 13.0 mph SW20.9 kmh SW 25.0 mph40.2 kmh 29.91 in1012.9 mb 0.02 in0.5 mm 0.00 in/hr0.0 mm/hr 0.02 in0.5 mm
07:49 PM 51.6°F10.9°C 49.8°F9.9°C 93% 13.0 mph SW20.9 kmh SW 25.0 mph40.2 kmh 29.91 in1012.9 mb 0.02 in0.5 mm 0.00 in/hr0.0 mm/hr 0.02 in0.5 mm
07:48 PM 51.6°F10.9°C 49.8°F9.9°C 93% 13.0 mph SW20.9 kmh SW 25.0 mph40.2 kmh 29.91 in1012.9 mb 0.02 in0.5 mm 0.00 in/hr0.0 mm/hr 0.02 in0.5 mm
07:47 PM 51.6°F10.9°C 49.8°F9.9°C 93% 13.0 mph SW20.9 kmh SW 25.0 mph40.2 kmh 29.91 in1012.9 mb 0.02 in0.5 mm 0.00 in/hr0.0 mm/hr 0.02 in0.5 mm
07:46 PM 51.6°F10.9°C 49.8°F9.9°C 93% 13.0 mph SW20.9 kmh SW 25.0 mph40.2 kmh 29.91 in1012.9 mb 0.02 in0.5 mm 0.00 in/hr0.0 mm/hr 0.02 in0.5 mm
07:45 PM 51.8°F11.0°C 49.8°F9.9°C 93% 13.0 mph SW20.9 kmh SW 25.0 mph40.2 kmh 29.91 in1012.9 mb 0.02 in0.5 mm 0.00 in/hr0.0 mm/hr 0.02 in0.5 mm
07:44 PM 51.8°F11.0°C 49.8°F9.9°C 93% 13.0 mph SW20.9 kmh SW 25.0 mph40.2 kmh 29.91 in1012.9 mb 0.02 in0.5 mm 0.00 in/hr0.0 mm/hr 0.02 in0.5 mm
07:43 PM 51.8°F11.0°C 49.8°F9.9°C 93% 13.0 mph SW20.9 kmh SW 25.0 mph40.2 kmh 29.91 in1012.9 mb 0.02 in0.5 mm 0.00 in/hr0.0 mm/hr 0.02 in0.5 mm
07:42 PM 51.8°F11.0°C 49.8°F9.9°C 93% 13.0 mph SW20.9 kmh SW 25.0 mph40.2 kmh 29.91 in1012.9 mb 0.02 in0.5 mm 0.00 in/hr0.0 mm/hr 0.02 in0.5 mm
07:41 PM 51.8°F11.0°C 49.8°F9.9°C 93% 13.0 mph SW20.9 kmh SW 25.0 mph40.2 kmh 29.91 in1012.9 mb 0.02 in0.5 mm 0.00 in/hr0.0 mm/hr 0.02 in0.5 mm
07:40 PM 51.8°F11.0°C 49.8°F9.9°C 93% 13.0 mph SW20.9 kmh SW 25.0 mph40.2 kmh 29.92 in1013.2 mb 0.02 in0.5 mm 0.00 in/hr0.0 mm/hr 0.02 in0.5 mm
07:39 PM 51.8°F11.0°C 49.8°F9.9°C 93% 13.0 mph SW20.9 kmh SW 25.0 mph40.2 kmh 29.91 in1012.9 mb 0.02 in0.5 mm 0.00 in/hr0.0 mm/hr 0.02 in0.5 mm
07:38 PM 51.8°F11.0°C 49.8°F9.9°C 93% 13.0 mph SW20.9 kmh SW 25.0 mph40.2 kmh 29.91 in1012.9 mb 0.02 in0.5 mm 0.00 in/hr0.0 mm/hr 0.02 in0.5 mm
07:37 PM 51.8°F11.0°C 49.8°F9.9°C 93% 13.0 mph SW20.9 kmh SW 27.0 mph43.5 kmh 29.91 in1012.9 mb 0.02 in0.5 mm 0.00 in/hr0.0 mm/hr 0.02 in0.5 mm
07:36 PM 52.0°F11.1°C 50.0°F10.0°C 93% 13.0 mph SW20.9 kmh SW 27.0 mph43.5 kmh 29.91 in1012.9 mb 0.02 in0.5 mm 0.00 in/hr0.0 mm/hr 0.02 in0.5 mm
07:35 PM 52.0°F11.1°C 49.6°F9.8°C 92% 13.0 mph SW20.9 kmh SW 27.0 mph43.5 kmh 29.92 in1013.2 mb 0.02 in0.5 mm 0.00 in/hr0.0 mm/hr 0.02 in0.5 mm
07:34 PM 52.0°F11.1°C 49.6°F9.8°C 92% 13.0 mph SW20.9 kmh SW 27.0 mph43.5 kmh 29.91 in1012.9 mb 0.02 in0.5 mm 0.00 in/hr0.0 mm/hr 0.02 in0.5 mm
07:33 PM 52.0°F11.1°C 49.6°F9.8°C 92% 13.0 mph SW20.9 kmh SW 27.0 mph43.5 kmh 29.91 in1012.9 mb 0.02 in0.5 mm 0.00 in/hr0.0 mm/hr 0.02 in0.5 mm
07:32 PM 52.0°F11.1°C 49.6°F9.8°C 92% 13.0 mph SW20.9 kmh SW 27.0 mph43.5 kmh 29.91 in1012.9 mb 0.02 in0.5 mm 0.00 in/hr0.0 mm/hr 0.02 in0.5 mm
07:31 PM 52.0°F11.1°C 49.6°F9.8°C 92% 13.0 mph SW20.9 kmh SW 27.0 mph43.5 kmh 29.91 in1012.9 mb 0.02 in0.5 mm 0.00 in/hr0.0 mm/hr 0.02 in0.5 mm
07:30 PM 52.0°F11.1°C 49.8°F9.9°C 92% 13.0 mph SW20.9 kmh SW 27.0 mph43.5 kmh 29.91 in1012.9 mb 0.02 in0.5 mm 0.60 in/hr15.2 mm/hr 0.02 in0.5 mm
07:29 PM 52.0°F11.1°C 49.8°F9.9°C 92% 13.0 mph SW20.9 kmh SW 27.0 mph43.5 kmh 29.91 in1012.9 mb 0.01 in0.3 mm 0.00 in/hr0.0 mm/hr 0.01 in0.3 mm
07:28 PM 52.0°F11.1°C 49.8°F9.9°C 92% 13.0 mph SW20.9 kmh SW 27.0 mph43.5 kmh 29.91 in1012.9 mb 0.01 in0.3 mm 0.00 in/hr0.0 mm/hr 0.01 in0.3 mm
07:27 PM 52.0°F11.1°C 49.8°F9.9°C 92% 13.0 mph SW20.9 kmh SW 27.0 mph43.5 kmh 29.91 in1012.9 mb 0.01 in0.3 mm 0.00 in/hr0.0 mm/hr 0.01 in0.3 mm
07:26 PM 52.2°F11.2°C 49.8°F9.9°C 92% 13.0 mph SW20.9 kmh SW 27.0 mph43.5 kmh 29.91 in1012.9 mb 0.01 in0.3 mm 0.00 in/hr0.0 mm/hr 0.01 in0.3 mm
07:25 PM 52.2°F11.2°C 49.8°F9.9°C 92% 13.0 mph SW20.9 kmh SW 24.0 mph38.6 kmh 29.91 in1012.9 mb 0.01 in0.3 mm 0.00 in/hr0.0 mm/hr 0.01 in0.3 mm
07:24 PM 52.2°F11.2°C 49.8°F9.9°C 92% 14.0 mph SW22.5 kmh SW 24.0 mph38.6 kmh 29.91 in1012.9 mb 0.01 in0.3 mm 0.00 in/hr0.0 mm/hr 0.01 in0.3 mm
07:23 PM 52.2°F11.2°C 49.8°F9.9°C 92% 14.0 mph SW22.5 kmh SW 24.0 mph38.6 kmh 29.91 in1012.9 mb 0.01 in0.3 mm 0.00 in/hr0.0 mm/hr 0.01 in0.3 mm
07:22 PM 52.2°F11.2°C 49.8°F9.9°C 92% 14.0 mph SW22.5 kmh SW 24.0 mph38.6 kmh 29.91 in1012.9 mb 0.01 in0.3 mm 0.00 in/hr0.0 mm/hr 0.01 in0.3 mm
07:21 PM 52.2°F11.2°C 50.0°F10.0°C 92% 14.0 mph SW22.5 kmh SW 24.0 mph38.6 kmh 29.91 in1012.9 mb 0.01 in0.3 mm 0.00 in/hr0.0 mm/hr 0.01 in0.3 mm
07:20 PM 52.2°F11.2°C 49.6°F9.8°C 91% 14.0 mph SW22.5 kmh SW 24.0 mph38.6 kmh 29.91 in1012.9 mb 0.01 in0.3 mm 0.00 in/hr0.0 mm/hr 0.01 in0.3 mm
07:19 PM 52.2°F11.2°C 49.6°F9.8°C 91% 14.0 mph SW22.5 kmh SW 24.0 mph38.6 kmh 29.91 in1012.9 mb 0.01 in0.3 mm 0.00 in/hr0.0 mm/hr 0.01 in0.3 mm
07:18 PM 52.2°F11.2°C 49.6°F9.8°C 91% 14.0 mph SW22.5 kmh SW 24.0 mph38.6 kmh 29.91 in1012.9 mb 0.01 in0.3 mm 0.60 in/hr15.2 mm/hr 0.01 in0.3 mm
07:17 PM 52.3°F11.3°C 49.8°F9.9°C 91% 13.0 mph SW20.9 kmh SW 24.0 mph38.6 kmh 29.91 in1012.9 mb 0.00 in0.0 mm 0.00 in/hr0.0 mm/hr 0.00 in0.0 mm
07:16 PM 52.3°F11.3°C 49.8°F9.9°C 91% 13.0 mph SW20.9 kmh SW 23.0 mph37.0 kmh 29.91 in1012.9 mb 0.00 in0.0 mm 0.00 in/hr0.0 mm/hr 0.00 in0.0 mm
07:15 PM 52.3°F11.3°C 49.8°F9.9°C 91% 13.0 mph SW20.9 kmh SW 23.0 mph37.0 kmh 29.91 in1012.9 mb 0.00 in0.0 mm 0.00 in/hr0.0 mm/hr 0.00 in0.0 mm
07:14 PM 52.3°F11.3°C 49.8°F9.9°C 91% 12.0 mph SW19.3 kmh SW 23.0 mph37.0 kmh 29.91 in1012.9 mb 0.00 in0.0 mm 0.00 in/hr0.0 mm/hr 0.00 in0.0 mm
07:13 PM 52.3°F11.3°C 49.8°F9.9°C 91% 12.0 mph SW19.3 kmh SW 23.0 mph37.0 kmh 29.91 in1012.9 mb 0.00 in0.0 mm 0.00 in/hr0.0 mm/hr 0.00 in0.0 mm
07:12 PM 52.3°F11.3°C 49.8°F9.9°C 91% 12.0 mph SW19.3 kmh SW 23.0 mph37.0 kmh 29.91 in1012.9 mb 0.00 in0.0 mm 0.00 in/hr0.0 mm/hr 0.00 in0.0 mm
07:11 PM 52.3°F11.3°C 49.8°F9.9°C 91% 12.0 mph SW19.3 kmh SW 23.0 mph37.0 kmh 29.91 in1012.9 mb 0.00 in0.0 mm 0.00 in/hr0.0 mm/hr 0.00 in0.0 mm
07:10 PM 52.3°F11.3°C 49.8°F9.9°C 91% 13.0 mph SW20.9 kmh SW 23.0 mph37.0 kmh 29.91 in1012.9 mb 0.00 in0.0 mm 0.00 in/hr0.0 mm/hr 0.00 in0.0 mm
07:09 PM 52.3°F11.3°C 49.8°F9.9°C 91% 12.0 mph SW19.3 kmh SW 23.0 mph37.0 kmh 29.91 in1012.9 mb 0.00 in0.0 mm 0.00 in/hr0.0 mm/hr 0.00 in0.0 mm
07:08 PM 52.3°F11.3°C 49.8°F9.9°C 91% 13.0 mph SW20.9 kmh SW 23.0 mph37.0 kmh 29.91 in1012.9 mb 0.00 in0.0 mm 0.00 in/hr0.0 mm/hr 0.00 in0.0 mm
07:07 PM 52.3°F11.3°C 49.8°F9.9°C 91% 13.0 mph SW20.9 kmh SW 23.0 mph37.0 kmh 29.91 in1012.9 mb 0.00 in0.0 mm 0.00 in/hr0.0 mm/hr 0.00 in0.0 mm
07:06 PM 52.3°F11.3°C 49.8°F9.9°C 91% 12.0 mph SW19.3 kmh SW 22.0 mph35.4 kmh 29.91 in1012.9 mb 0.00 in0.0 mm 0.00 in/hr0.0 mm/hr 0.00 in0.0 mm
07:05 PM 52.3°F11.3°C 49.8°F9.9°C 91% 13.0 mph SW20.9 kmh SW 22.0 mph35.4 kmh 29.91 in1012.9 mb 0.00 in0.0 mm 0.00 in/hr0.0 mm/hr 0.00 in0.0 mm
07:04 PM 52.3°F11.3°C 49.8°F9.9°C 91% 13.0 mph SW20.9 kmh SW 22.0 mph35.4 kmh 29.91 in1012.9 mb 0.00 in0.0 mm 0.00 in/hr0.0 mm/hr 0.00 in0.0 mm
07:03 PM 52.3°F11.3°C 49.8°F9.9°C 91% 13.0 mph SW20.9 kmh SW 22.0 mph35.4 kmh 29.91 in1012.9 mb 0.00 in0.0 mm 0.00 in/hr0.0 mm/hr 0.00 in0.0 mm
07:02 PM 52.3°F11.3°C 49.8°F9.9°C 91% 13.0 mph SW20.9 kmh SW 25.0 mph40.2 kmh 29.91 in1012.9 mb 0.00 in0.0 mm 0.00 in/hr0.0 mm/hr 0.00 in0.0 mm
07:01 PM 52.3°F11.3°C 49.8°F9.9°C 91% 13.0 mph SW20.9 kmh SW 29.0 mph46.7 kmh 29.91 in1012.9 mb 0.00 in0.0 mm 0.00 in/hr0.0 mm/hr 0.00 in0.0 mm
07:00 PM 52.3°F11.3°C 49.8°F9.9°C 91% 13.0 mph SW20.9 kmh SW 29.0 mph46.7 kmh 29.91 in1012.9 mb 0.00 in0.0 mm 0.00 in/hr0.0 mm/hr 0.00 in0.0 mm
06:59 PM 52.3°F11.3°C 49.8°F9.9°C 91% 14.0 mph SW22.5 kmh SW 29.0 mph46.7 kmh 29.91 in1012.9 mb 0.00 in0.0 mm 0.00 in/hr0.0 mm/hr 0.00 in0.0 mm
06:58 PM 52.3°F11.3°C 49.8°F9.9°C 91% 13.0 mph SW20.9 kmh SW 35.0 mph56.3 kmh 29.91 in1012.9 mb 0.00 in0.0 mm 0.00 in/hr0.0 mm/hr 0.00 in0.0 mm
06:57 PM 52.3°F11.3°C 49.8°F9.9°C 91% 14.0 mph SW22.5 kmh SW 35.0 mph56.3 kmh 29.91 in1012.9 mb 0.00 in0.0 mm 0.00 in/hr0.0 mm/hr 0.00 in0.0 mm
06:56 PM 52.3°F11.3°C 49.8°F9.9°C 91% 13.0 mph SW20.9 kmh SW 35.0 mph56.3 kmh 29.91 in1012.9 mb 0.00 in0.0 mm 0.00 in/hr0.0 mm/hr 0.00 in0.0 mm
06:55 PM 52.3°F11.3°C 49.8°F9.9°C 91% 13.0 mph SW20.9 kmh SW 35.0 mph56.3 kmh 29.91 in1012.9 mb 0.00 in0.0 mm 0.00 in/hr0.0 mm/hr 0.00 in0.0 mm
06:54 PM 52.3°F11.3°C 49.8°F9.9°C 91% 13.0 mph SW20.9 kmh SW 35.0 mph56.3 kmh 29.91 in1012.9 mb 0.00 in0.0 mm 0.00 in/hr0.0 mm/hr 0.00 in0.0 mm
06:53 PM 52.3°F11.3°C 49.8°F9.9°C 91% 13.0 mph SW20.9 kmh SW 35.0 mph56.3 kmh 29.91 in1012.9 mb 0.00 in0.0 mm 0.00 in/hr0.0 mm/hr 0.00 in0.0 mm
06:52 PM 52.3°F11.3°C 49.8°F9.9°C 91% 13.0 mph SW20.9 kmh SW 35.0 mph56.3 kmh 29.91 in1012.9 mb 0.00 in0.0 mm 0.00 in/hr0.0 mm/hr 0.00 in0.0 mm
06:51 PM 52.3°F11.3°C 49.8°F9.9°C 91% 12.0 mph SW19.3 kmh SW 35.0 mph56.3 kmh 29.91 in1012.9 mb 0.00 in0.0 mm 0.00 in/hr0.0 mm/hr 0.00 in0.0 mm
06:50 PM 52.3°F11.3°C 49.8°F9.9°C 91% 12.0 mph SW19.3 kmh SW 35.0 mph56.3 kmh 29.91 in1012.9 mb 0.00 in0.0 mm 0.00 in/hr0.0 mm/hr 0.00 in0.0 mm
06:49 PM 52.3°F11.3°C 49.8°F9.9°C 91% 12.0 mph SW19.3 kmh SW 35.0 mph56.3 kmh 29.91 in1012.9 mb 0.00 in0.0 mm 0.00 in/hr0.0 mm/hr 0.00 in0.0 mm
06:48 PM 52.3°F11.3°C 49.8°F9.9°C 91% 12.0 mph SW19.3 kmh SW 25.0 mph40.2 kmh 29.91 in1012.9 mb 0.00 in0.0 mm 0.00 in/hr0.0 mm/hr 0.00 in0.0 mm
06:47 PM 52.3°F11.3°C 49.8°F9.9°C 91% 12.0 mph SW19.3 kmh SW 25.0 mph40.2 kmh 29.91 in1012.9 mb 0.00 in0.0 mm 0.00 in/hr0.0 mm/hr 0.00 in0.0 mm
06:46 PM 52.3°F11.3°C 49.8°F9.9°C 91% 12.0 mph SW19.3 kmh SW 25.0 mph40.2 kmh 29.91 in1012.9 mb 0.00 in0.0 mm 0.00 in/hr0.0 mm/hr 0.00 in0.0 mm
06:45 PM 52.3°F11.3°C 49.8°F9.9°C 91% 12.0 mph SW19.3 kmh SW 25.0 mph40.2 kmh 29.91 in1012.9 mb 0.00 in0.0 mm 0.00 in/hr0.0 mm/hr 0.00 in0.0 mm
06:44 PM 52.3°F11.3°C 49.8°F9.9°C 91% 13.0 mph SW20.9 kmh SW 29.0 mph46.7 kmh 29.91 in1012.9 mb 0.00 in0.0 mm 0.00 in/hr0.0 mm/hr 0.00 in0.0 mm
06:43 PM 52.3°F11.3°C 49.8°F9.9°C 91% 13.0 mph SW20.9 kmh SW 29.0 mph46.7 kmh 29.91 in1012.9 mb 0.00 in0.0 mm 0.00 in/hr0.0 mm/hr 0.00 in0.0 mm
06:42 PM 52.3°F11.3°C 49.8°F9.9°C 91% 13.0 mph SW20.9 kmh SW 29.0 mph46.7 kmh 29.91 in1012.9 mb 0.00 in0.0 mm 0.00 in/hr0.0 mm/hr 0.00 in0.0 mm
06:41 PM 52.3°F11.3°C 49.8°F9.9°C 91% 13.0 mph SW20.9 kmh SW 29.0 mph46.7 kmh 29.91 in1012.9 mb 0.00 in0.0 mm 0.00 in/hr0.0 mm/hr 0.00 in0.0 mm
06:40 PM 52.3°F11.3°C 49.8°F9.9°C 91% 14.0 mph SW22.5 kmh SW 29.0 mph46.7 kmh 29.91 in1012.9 mb 0.00 in0.0 mm 0.00 in/hr0.0 mm/hr 0.00 in0.0 mm
06:39 PM 52.3°F11.3°C 49.8°F9.9°C 91% 13.0 mph SW20.9 kmh SW 29.0 mph46.7 kmh 29.91 in1012.9 mb 0.00 in0.0 mm 0.00 in/hr0.0 mm/hr 0.00 in0.0 mm
06:38 PM 52.3°F11.3°C 49.8°F9.9°C 91% 13.0 mph SW20.9 kmh SW 29.0 mph46.7 kmh 29.91 in1012.9 mb 0.00 in0.0 mm 0.00 in/hr0.0 mm/hr 0.00 in0.0 mm
06:37 PM 52.3°F11.3°C 49.8°F9.9°C 91% 13.0 mph SW20.9 kmh SW 29.0 mph46.7 kmh 29.91 in1012.9 mb 0.00 in0.0 mm 0.00 in/hr0.0 mm/hr 0.00 in0.0 mm
06:36 PM 52.3°F11.3°C 49.8°F9.9°C 91% 13.0 mph SW20.9 kmh SW 29.0 mph46.7 kmh 29.91 in1012.9 mb 0.00 in0.0 mm 0.00 in/hr0.0 mm/hr 0.00 in0.0 mm
06:35 PM 52.3°F11.3°C 49.8°F9.9°C 91% 13.0 mph SW20.9 kmh SW 29.0 mph46.7 kmh 29.90 in1012.5 mb 0.00 in0.0 mm 0.00 in/hr0.0 mm/hr 0.00 in0.0 mm
06:34 PM 52.3°F11.3°C 49.8°F9.9°C 91% 13.0 mph SW20.9 kmh SW 29.0 mph46.7 kmh 29.91 in1012.9 mb 0.00 in0.0 mm 0.00 in/hr0.0 mm/hr 0.00 in0.0 mm
06:33 PM 52.3°F11.3°C 49.8°F9.9°C 91% 13.0 mph SW20.9 kmh SW 29.0 mph46.7 kmh 29.90 in1012.5 mb 0.00 in0.0 mm 0.00 in/hr0.0 mm/hr 0.00 in0.0 mm
06:32 PM 52.3°F11.3°C 49.8°F9.9°C 91% 13.0 mph SW20.9 kmh SW 29.0 mph46.7 kmh 29.91 in1012.9 mb 0.00 in0.0 mm 0.00 in/hr0.0 mm/hr 0.00 in0.0 mm
06:31 PM 52.3°F11.3°C 49.5°F9.7°C 90% 13.0 mph SW20.9 kmh SW 29.0 mph46.7 kmh 29.91 in1012.9 mb 0.00 in0.0 mm 0.00 in/hr0.0 mm/hr 0.00 in0.0 mm
06:30 PM 52.3°F11.3°C 49.5°F9.7°C 90% 13.0 mph SW20.9 kmh SW 27.0 mph43.5 kmh 29.90 in1012.5 mb 0.00 in0.0 mm 0.00 in/hr0.0 mm/hr 0.00 in0.0 mm
06:29 PM 52.3°F11.3°C 49.5°F9.7°C 90% 13.0 mph SW20.9 kmh SW 27.0 mph43.5 kmh 29.91 in1012.9 mb 0.00 in0.0 mm 0.00 in/hr0.0 mm/hr 0.00 in0.0 mm
06:28 PM 52.3°F11.3°C 49.6°F9.8°C 90% 14.0 mph SW22.5 kmh SW 27.0 mph43.5 kmh 29.91 in1012.9 mb 0.00 in0.0 mm 0.00 in/hr0.0 mm/hr 0.00 in0.0 mm
06:27 PM 52.3°F11.3°C 49.6°F9.8°C 90% 14.0 mph SW22.5 kmh SW 28.0 mph45.1 kmh 29.90 in1012.5 mb 0.00 in0.0 mm 0.00 in/hr0.0 mm/hr 0.00 in0.0 mm
06:26 PM 52.3°F11.3°C 49.6°F9.8°C 90% 14.0 mph SW22.5 kmh SW 28.0 mph45.1 kmh 29.91 in1012.9 mb 0.00 in0.0 mm 0.00 in/hr0.0 mm/hr 0.00 in0.0 mm
06:25 PM 52.3°F11.3°C 49.6°F9.8°C 90% 14.0 mph SW22.5 kmh SW 28.0 mph45.1 kmh 29.91 in1012.9 mb 0.00 in0.0 mm 0.00 in/hr0.0 mm/hr 0.00 in0.0 mm
06:24 PM 52.3°F11.3°C 49.8°F9.9°C 91% 15.0 mph SW24.1 kmh SW 29.0 mph46.7 kmh 29.91 in1012.9 mb 0.00 in0.0 mm 0.00 in/hr0.0 mm/hr 0.00 in0.0 mm
06:23 PM 52.3°F11.3°C 49.6°F9.8°C 90% 15.0 mph SW24.1 kmh SW 29.0 mph46.7 kmh 29.90 in1012.5 mb 0.00 in0.0 mm 0.00 in/hr0.0 mm/hr 0.00 in0.0 mm
06:22 PM 52.3°F11.3°C 49.6°F9.8°C 90% 14.0 mph SW22.5 kmh SW 29.0 mph46.7 kmh 29.90 in1012.5 mb 0.00 in0.0 mm 0.00 in/hr0.0 mm/hr 0.00 in0.0 mm
06:21 PM 52.3°F11.3°C 49.8°F9.9°C 91% 14.0 mph SW22.5 kmh SW 29.0 mph46.7 kmh 29.90 in1012.5 mb 0.00 in0.0 mm 0.00 in/hr0.0 mm/hr 0.00 in0.0 mm
06:20 PM 52.3°F11.3°C 49.8°F9.9°C 91% 14.0 mph SW22.5 kmh SW 29.0 mph46.7 kmh 29.90 in1012.5 mb 0.00 in0.0 mm 0.00 in/hr0.0 mm/hr 0.00 in0.0 mm
06:19 PM 52.3°F11.3°C 49.8°F9.9°C 91% 15.0 mph SW24.1 kmh SW 29.0 mph46.7 kmh 29.90 in1012.5 mb 0.00 in0.0 mm 0.00 in/hr0.0 mm/hr 0.00 in0.0 mm
06:18 PM 52.3°F11.3°C 49.8°F9.9°C 91% 14.0 mph SW22.5 kmh SW 29.0 mph46.7 kmh 29.90 in1012.5 mb 0.00 in0.0 mm 0.00 in/hr0.0 mm/hr 0.00 in0.0 mm
06:17 PM 52.3°F11.3°C 49.6°F9.8°C 90% 14.0 mph SW22.5 kmh SW 29.0 mph46.7 kmh 29.90 in1012.5 mb 0.00 in0.0 mm 0.00 in/hr0.0 mm/hr 0.00 in0.0 mm
06:16 PM 52.3°F11.3°C 49.6°F9.8°C 90% 14.0 mph SW22.5 kmh SW 29.0 mph46.7 kmh 29.90 in1012.5 mb 0.00 in0.0 mm 0.00 in/hr0.0 mm/hr 0.00 in0.0 mm
06:15 PM 52.3°F11.3°C 49.6°F9.8°C 90% 14.0 mph SW22.5 kmh SW 29.0 mph46.7 kmh 29.90 in1012.5 mb 0.00 in0.0 mm 0.00 in/hr0.0 mm/hr 0.00 in0.0 mm
06:14 PM 52.3°F11.3°C 49.6°F9.8°C 90% 14.0 mph SW22.5 kmh SW 26.0 mph41.8 kmh 29.90 in1012.5 mb 0.00 in0.0 mm 0.00 in/hr0.0 mm/hr 0.00 in0.0 mm
06:13 PM 52.3°F11.3°C 49.6°F9.8°C 90% 14.0 mph SW22.5 kmh SW 26.0 mph41.8 kmh 29.90 in1012.5 mb 0.00 in0.0 mm 0.00 in/hr0.0 mm/hr 0.00 in0.0 mm
06:12 PM 52.3°F11.3°C 49.6°F9.8°C 90% 14.0 mph SW22.5 kmh SW 24.0 mph38.6 kmh 29.90 in1012.5 mb 0.00 in0.0 mm 0.00 in/hr0.0 mm/hr 0.00 in0.0 mm
06:11 PM 52.3°F11.3°C 49.6°F9.8°C 90% 14.0 mph SW22.5 kmh SW 28.0 mph45.1 kmh 29.90 in1012.5 mb 0.00 in0.0 mm 0.00 in/hr0.0 mm/hr 0.00 in0.0 mm
06:10 PM 52.3°F11.3°C 49.6°F9.8°C 90% 14.0 mph SW22.5 kmh SW 28.0 mph45.1 kmh 29.90 in1012.5 mb 0.00 in0.0 mm 0.00 in/hr0.0 mm/hr 0.00 in0.0 mm
06:09 PM 52.3°F11.3°C 49.6°F9.8°C 90% 13.0 mph SW20.9 kmh SW 28.0 mph45.1 kmh 29.90 in1012.5 mb 0.00 in0.0 mm 0.00 in/hr0.0 mm/hr 0.00 in0.0 mm
06:08 PM 52.3°F11.3°C 49.6°F9.8°C 90% 14.0 mph SW22.5 kmh SW 28.0 mph45.1 kmh 29.90 in1012.5 mb 0.00 in0.0 mm 0.00 in/hr0.0 mm/hr 0.00 in0.0 mm
06:07 PM 52.3°F11.3°C 49.6°F9.8°C 90% 14.0 mph SW22.5 kmh SW 28.0 mph45.1 kmh 29.91 in1012.9 mb 0.00 in0.0 mm 0.00 in/hr0.0 mm/hr 0.00 in0.0 mm
06:06 PM 52.3°F11.3°C 49.6°F9.8°C 90% 13.0 mph SW20.9 kmh SW 28.0 mph45.1 kmh 29.90 in1012.5 mb 0.00 in0.0 mm 0.00 in/hr0.0 mm/hr 0.00 in0.0 mm
06:05 PM 52.3°F11.3°C 49.6°F9.8°C 90% 13.0 mph SW20.9 kmh SW 28.0 mph45.1 kmh 29.91 in1012.9 mb 0.00 in0.0 mm 0.00 in/hr0.0 mm/hr 0.00 in0.0 mm
06:04 PM 52.3°F11.3°C 49.6°F9.8°C 90% 13.0 mph SW20.9 kmh SW 28.0 mph45.1 kmh 29.91 in1012.9 mb 0.00 in0.0 mm 0.00 in/hr0.0 mm/hr 0.00 in0.0 mm
06:03 PM 52.3°F11.3°C 49.6°F9.8°C 90% 13.0 mph SW20.9 kmh SW 28.0 mph45.1 kmh 29.90 in1012.5 mb 0.00 in0.0 mm 0.00 in/hr0.0 mm/hr 0.00 in0.0 mm
06:02 PM 52.3°F11.3°C 49.6°F9.8°C 90% 12.0 mph SW19.3 kmh SW 28.0 mph45.1 kmh 29.90 in1012.5 mb 0.00 in0.0 mm 0.00 in/hr0.0 mm/hr 0.00 in0.0 mm
06:01 PM 52.3°F11.3°C 49.6°F9.8°C 90% 13.0 mph SW20.9 kmh SW 24.0 mph38.6 kmh 29.90 in1012.5 mb 0.00 in0.0 mm 0.00 in/hr0.0 mm/hr 0.00 in0.0 mm
06:00 PM 52.3°F11.3°C 49.6°F9.8°C 90% 13.0 mph SW20.9 kmh SW 25.0 mph40.2 kmh 29.90 in1012.5 mb 0.00 in0.0 mm 0.00 in/hr0.0 mm/hr 0.00 in0.0 mm
05:59 PM 52.3°F11.3°C 49.6°F9.8°C 90% 13.0 mph SW20.9 kmh SW 25.0 mph40.2 kmh 29.90 in1012.5 mb 0.00 in0.0 mm 0.00 in/hr0.0 mm/hr 0.00 in0.0 mm
05:58 PM 52.3°F11.3°C 49.6°F9.8°C 90% 12.0 mph SW19.3 kmh SW 25.0 mph40.2 kmh 29.90 in1012.5 mb 0.00 in0.0 mm 0.00 in/hr0.0 mm/hr 0.00 in0.0 mm
05:57 PM 52.3°F11.3°C 49.5°F9.7°C 90% 13.0 mph SW20.9 kmh SW 25.0 mph40.2 kmh 29.90 in1012.5 mb 0.00 in0.0 mm 0.00 in/hr0.0 mm/hr 0.00 in0.0 mm
05:56 PM 52.3°F11.3°C 49.5°F9.7°C 90% 13.0 mph SW20.9 kmh SW 25.0 mph40.2 kmh 29.90 in1012.5 mb 0.00 in0.0 mm 0.00 in/hr0.0 mm/hr 0.00 in0.0 mm
05:55 PM 52.3°F11.3°C 49.6°F9.8°C 90% 13.0 mph SW20.9 kmh SW 25.0 mph40.2 kmh 29.90 in1012.5 mb 0.00 in0.0 mm 0.00 in/hr0.0 mm/hr 0.00 in0.0 mm
05:54 PM 52.3°F11.3°C 49.5°F9.7°C 90% 13.0 mph SW20.9 kmh SW 25.0 mph40.2 kmh 29.90 in1012.5 mb 0.00 in0.0 mm 0.00 in/hr0.0 mm/hr 0.00 in0.0 mm
05:53 PM 52.3°F11.3°C 49.5°F9.7°C 90% 13.0 mph SW20.9 kmh SW 25.0 mph40.2 kmh 29.90 in1012.5 mb 0.00 in0.0 mm 0.00 in/hr0.0 mm/hr 0.00 in0.0 mm
05:52 PM 52.3°F11.3°C 49.5°F9.7°C 90% 13.0 mph SW20.9 kmh SW 25.0 mph40.2 kmh 29.90 in1012.5 mb 0.00 in0.0 mm 0.00 in/hr0.0 mm/hr 0.00 in0.0 mm
05:51 PM 52.3°F11.3°C 49.5°F9.7°C 90% 12.0 mph SW19.3 kmh SW 25.0 mph40.2 kmh 29.90 in1012.5 mb 0.00 in0.0 mm 0.00 in/hr0.0 mm/hr 0.00 in0.0 mm
05:50 PM 52.3°F11.3°C 49.5°F9.7°C 90% 13.0 mph SW20.9 kmh SW 23.0 mph37.0 kmh 29.90 in1012.5 mb 0.00 in0.0 mm 0.00 in/hr0.0 mm/hr 0.00 in0.0 mm
05:49 PM 52.3°F11.3°C 49.5°F9.7°C 90% 13.0 mph SW20.9 kmh SW 23.0 mph37.0 kmh 29.91 in1012.9 mb 0.00 in0.0 mm 0.00 in/hr0.0 mm/hr 0.00 in0.0 mm
05:48 PM 52.3°F11.3°C 49.5°F9.7°C 90% 13.0 mph SW20.9 kmh SW 23.0 mph37.0 kmh 29.90 in1012.5 mb 0.00 in0.0 mm 0.00 in/hr0.0 mm/hr 0.00 in0.0 mm
05:47 PM 52.3°F11.3°C 49.5°F9.7°C 90% 13.0 mph SW20.9 kmh SW 22.0 mph35.4 kmh 29.90 in1012.5 mb 0.00 in0.0 mm 0.00 in/hr0.0 mm/hr 0.00 in0.0 mm
05:46 PM 52.3°F11.3°C 49.5°F9.7°C 90% 14.0 mph SW22.5 kmh SW 27.0 mph43.5 kmh 29.91 in1012.9 mb 0.00 in0.0 mm 0.00 in/hr0.0 mm/hr 0.00 in0.0 mm
05:45 PM 52.3°F11.3°C 49.5°F9.7°C 90% 13.0 mph SW20.9 kmh SW 27.0 mph43.5 kmh 29.91 in1012.9 mb 0.00 in0.0 mm 0.00 in/hr0.0 mm/hr 0.00 in0.0 mm
05:44 PM 52.3°F11.3°C 49.5°F9.7°C 90% 13.0 mph SW20.9 kmh SW 27.0 mph43.5 kmh 29.91 in1012.9 mb 0.00 in0.0 mm 0.00 in/hr0.0 mm/hr 0.00 in0.0 mm
05:43 PM 52.3°F11.3°C 49.5°F9.7°C 90% 13.0 mph SW20.9 kmh SW 27.0 mph43.5 kmh 29.91 in1012.9 mb 0.00 in0.0 mm 0.00 in/hr0.0 mm/hr 0.00 in0.0 mm
05:42 PM 52.3°F11.3°C 49.5°F9.7°C 90% 13.0 mph SW20.9 kmh SW 27.0 mph43.5 kmh 29.91 in1012.9 mb 0.00 in0.0 mm 0.00 in/hr0.0 mm/hr 0.00 in0.0 mm
05:41 PM 52.3°F11.3°C 49.6°F9.8°C 90% 13.0 mph SW20.9 kmh SW 27.0 mph43.5 kmh 29.91 in1012.9 mb 0.00 in0.0 mm 0.00 in/hr0.0 mm/hr 0.00 in0.0 mm
05:40 PM 52.3°F11.3°C 49.5°F9.7°C 90% 13.0 mph SW20.9 kmh SW 27.0 mph43.5 kmh 29.91 in1012.9 mb 0.00 in0.0 mm 0.00 in/hr0.0 mm/hr 0.00 in0.0 mm
05:39 PM 52.3°F11.3°C 49.5°F9.7°C 90% 12.0 mph SW19.3 kmh SW 27.0 mph43.5 kmh 29.91 in1012.9 mb 0.00 in0.0 mm 0.00 in/hr0.0 mm/hr 0.00 in0.0 mm
05:38 PM 52.3°F11.3°C 49.5°F9.7°C 90% 12.0 mph SW19.3 kmh SW 27.0 mph43.5 kmh 29.91 in1012.9 mb 0.00 in0.0 mm 0.00 in/hr0.0 mm/hr 0.00 in0.0 mm
05:37 PM 52.3°F11.3°C 49.5°F9.7°C 90% 12.0 mph SW19.3 kmh SW 27.0 mph43.5 kmh 29.91 in1012.9 mb 0.00 in0.0 mm 0.00 in/hr0.0 mm/hr 0.00 in0.0 mm
05:36 PM 52.3°F11.3°C 49.5°F9.7°C 90% 11.0 mph SW17.7 kmh SW 25.0 mph40.2 kmh 29.91 in1012.9 mb 0.00 in0.0 mm 0.00 in/hr0.0 mm/hr 0.00 in0.0 mm
05:35 PM 52.3°F11.3°C 49.5°F9.7°C 90% 11.0 mph SW17.7 kmh SW 22.0 mph35.4 kmh 29.91 in1012.9 mb 0.00 in0.0 mm 0.00 in/hr0.0 mm/hr 0.00 in0.0 mm
05:34 PM 52.3°F11.3°C 49.5°F9.7°C 90% 11.0 mph SW17.7 kmh SW 22.0 mph35.4 kmh 29.91 in1012.9 mb 0.00 in0.0 mm 0.00 in/hr0.0 mm/hr 0.00 in0.0 mm
05:33 PM 52.3°F11.3°C 49.5°F9.7°C 90% 11.0 mph SW17.7 kmh SW 22.0 mph35.4 kmh 29.91 in1012.9 mb 0.00 in0.0 mm 0.00 in/hr0.0 mm/hr 0.00 in0.0 mm
05:32 PM 52.3°F11.3°C 49.8°F9.9°C 91% 11.0 mph SW17.7 kmh SW 22.0 mph35.4 kmh 29.91 in1012.9 mb 0.00 in0.0 mm 0.00 in/hr0.0 mm/hr 0.00 in0.0 mm
05:31 PM 52.3°F11.3°C 49.8°F9.9°C 91% 11.0 mph SW17.7 kmh SW 22.0 mph35.4 kmh 29.91 in1012.9 mb 0.00 in0.0 mm 0.00 in/hr0.0 mm/hr 0.00 in0.0 mm
05:30 PM 52.3°F11.3°C 49.8°F9.9°C 91% 11.0 mph SW17.7 kmh SW 22.0 mph35.4 kmh 29.91 in1012.9 mb 0.00 in0.0 mm 0.00 in/hr0.0 mm/hr 0.00 in0.0 mm
05:29 PM 52.3°F11.3°C 49.8°F9.9°C 91% 12.0 mph SW19.3 kmh SW 27.0 mph43.5 kmh 29.91 in1012.9 mb 0.00 in0.0 mm 0.00 in/hr0.0 mm/hr 0.00 in0.0 mm
05:28 PM 52.3°F11.3°C 49.8°F9.9°C 91% 12.0 mph SW19.3 kmh SW 27.0 mph43.5 kmh 29.91 in1012.9 mb 0.00 in0.0 mm 0.00 in/hr0.0 mm/hr 0.00 in0.0 mm
05:27 PM 52.3°F11.3°C 49.5°F9.7°C 90% 12.0 mph SW19.3 kmh SW 27.0 mph43.5 kmh 29.91 in1012.9 mb 0.00 in0.0 mm 0.00 in/hr0.0 mm/hr 0.00 in0.0 mm
05:26 PM 52.3°F11.3°C 49.5°F9.7°C 90% 12.0 mph SW19.3 kmh SW 27.0 mph43.5 kmh 29.91 in1012.9 mb 0.00 in0.0 mm 0.00 in/hr0.0 mm/hr 0.00 in0.0 mm
05:25 PM 52.3°F11.3°C 49.5°F9.7°C 90% 13.0 mph SW20.9 kmh SW 27.0 mph43.5 kmh 29.91 in1012.9 mb 0.00 in0.0 mm 0.00 in/hr0.0 mm/hr 0.00 in0.0 mm
05:24 PM 52.3°F11.3°C 49.5°F9.7°C 90% 13.0 mph SW20.9 kmh SW 27.0 mph43.5 kmh 29.91 in1012.9 mb 0.00 in0.0 mm 0.00 in/hr0.0 mm/hr 0.00 in0.0 mm
05:23 PM 52.3°F11.3°C 49.5°F9.7°C 90% 13.0 mph SW20.9 kmh SW 27.0 mph43.5 kmh 29.91 in1012.9 mb 0.00 in0.0 mm 0.00 in/hr0.0 mm/hr 0.00 in0.0 mm
05:22 PM 52.3°F11.3°C 49.5°F9.7°C 90% 13.0 mph SW20.9 kmh SW 27.0 mph43.5 kmh 29.91 in1012.9 mb 0.00 in0.0 mm 0.00 in/hr0.0 mm/hr 0.00 in0.0 mm
05:21 PM 52.3°F11.3°C 49.8°F9.9°C 91% 13.0 mph SW20.9 kmh SW 27.0 mph43.5 kmh 29.91 in1012.9 mb 0.00 in0.0 mm 0.00 in/hr0.0 mm/hr 0.00 in0.0 mm
05:20 PM 52.3°F11.3°C 49.8°F9.9°C 91% 13.0 mph SW20.9 kmh SW 27.0 mph43.5 kmh 29.91 in1012.9 mb 0.00 in0.0 mm 0.00 in/hr0.0 mm/hr 0.00 in0.0 mm
05:19 PM 52.3°F11.3°C 49.8°F9.9°C 91% 13.0 mph SW20.9 kmh SW 26.0 mph41.8 kmh 29.91 in1012.9 mb 0.00 in0.0 mm 0.00 in/hr0.0 mm/hr 0.00 in0.0 mm
05:18 PM 52.3°F11.3°C 49.8°F9.9°C 91% 12.0 mph SW19.3 kmh SW 26.0 mph41.8 kmh 29.91 in1012.9 mb 0.00 in0.0 mm 0.00 in/hr0.0 mm/hr 0.00 in0.0 mm
05:17 PM 52.3°F11.3°C 49.8°F9.9°C 91% 12.0 mph SW19.3 kmh SW 26.0 mph41.8 kmh 29.91 in1012.9 mb 0.00 in0.0 mm 0.00 in/hr0.0 mm/hr 0.00 in0.0 mm
05:16 PM 52.3°F11.3°C 49.8°F9.9°C 91% 12.0 mph SW19.3 kmh SW 26.0 mph41.8 kmh 29.91 in1012.9 mb 0.00 in0.0 mm 0.00 in/hr0.0 mm/hr 0.00 in0.0 mm
05:15 PM 52.3°F11.3°C 49.8°F9.9°C 91% 12.0 mph SW19.3 kmh SW 26.0 mph41.8 kmh 29.91 in1012.9 mb 0.00 in0.0 mm 0.00 in/hr0.0 mm/hr 0.00 in0.0 mm
05:14 PM 52.3°F11.3°C 49.8°F9.9°C 91% 12.0 mph SW19.3 kmh SW 29.0 mph46.7 kmh 29.91 in1012.9 mb 0.00 in0.0 mm 0.00 in/hr0.0 mm/hr 0.00 in0.0 mm
05:13 PM 52.2°F11.2°C 49.6°F9.8°C 91% 12.0 mph SW19.3 kmh SW 29.0 mph46.7 kmh 29.91 in1012.9 mb 0.00 in0.0 mm 0.00 in/hr0.0 mm/hr 0.00 in0.0 mm
05:12 PM 52.2°F11.2°C 49.6°F9.8°C 91% 12.0 mph SW19.3 kmh SW 29.0 mph46.7 kmh 29.91 in1012.9 mb 0.00 in0.0 mm 0.00 in/hr0.0 mm/hr 0.00 in0.0 mm
05:11 PM 52.2°F11.2°C 49.6°F9.8°C 91% 12.0 mph SW19.3 kmh SW 29.0 mph46.7 kmh 29.91 in1012.9 mb 0.00 in0.0 mm 0.00 in/hr0.0 mm/hr 0.00 in0.0 mm
05:10 PM 52.3°F11.3°C 49.8°F9.9°C 91% 12.0 mph SW19.3 kmh SW 29.0 mph46.7 kmh 29.91 in1012.9 mb 0.00 in0.0 mm 0.00 in/hr0.0 mm/hr 0.00 in0.0 mm
05:09 PM 52.2°F11.2°C 49.3°F9.6°C 90% 12.0 mph SW19.3 kmh SW 29.0 mph46.7 kmh 29.91 in1012.9 mb 0.00 in0.0 mm 0.00 in/hr0.0 mm/hr 0.00 in0.0 mm
05:08 PM 52.2°F11.2°C 49.3°F9.6°C 90% 12.0 mph SW19.3 kmh SW 29.0 mph46.7 kmh 29.91 in1012.9 mb 0.00 in0.0 mm 0.00 in/hr0.0 mm/hr 0.00 in0.0 mm
05:07 PM 52.2°F11.2°C 49.3°F9.6°C 90% 12.0 mph SW19.3 kmh SW 29.0 mph46.7 kmh 29.91 in1012.9 mb 0.00 in0.0 mm 0.00 in/hr0.0 mm/hr 0.00 in0.0 mm
05:06 PM 52.2°F11.2°C 49.3°F9.6°C 90% 12.0 mph SW19.3 kmh SW 29.0 mph46.7 kmh 29.91 in1012.9 mb 0.00 in0.0 mm 0.00 in/hr0.0 mm/hr 0.00 in0.0 mm
05:05 PM 52.2°F11.2°C 49.3°F9.6°C 90% 12.0 mph SW19.3 kmh SW 29.0 mph46.7 kmh 29.91 in1012.9 mb 0.00 in0.0 mm 0.00 in/hr0.0 mm/hr 0.00 in0.0 mm
05:04 PM 52.3°F11.3°C 49.5°F9.7°C 90% 12.0 mph SW19.3 kmh SW 23.0 mph37.0 kmh 29.91 in1012.9 mb 0.00 in0.0 mm 0.00 in/hr0.0 mm/hr 0.00 in0.0 mm
05:03 PM 52.3°F11.3°C 49.5°F9.7°C 90% 12.0 mph SW19.3 kmh SW 23.0 mph37.0 kmh 29.91 in1012.9 mb 0.00 in0.0 mm 0.00 in/hr0.0 mm/hr 0.00 in0.0 mm
05:02 PM 52.3°F11.3°C 49.5°F9.7°C 90% 12.0 mph SW19.3 kmh SW 23.0 mph37.0 kmh 29.91 in1012.9 mb 0.00 in0.0 mm 0.00 in/hr0.0 mm/hr 0.00 in0.0 mm
05:01 PM 52.3°F11.3°C 49.5°F9.7°C 90% 12.0 mph SW19.3 kmh SW 21.0 mph33.8 kmh 29.91 in1012.9 mb 0.00 in0.0 mm 0.00 in/hr0.0 mm/hr 0.00 in0.0 mm
05:00 PM 52.3°F11.3°C 49.5°F9.7°C 90% 12.0 mph SW19.3 kmh SW 21.0 mph33.8 kmh 29.91 in1012.9 mb 0.00 in0.0 mm 0.00 in/hr0.0 mm/hr 0.00 in0.0 mm
04:59 PM 52.3°F11.3°C 49.5°F9.7°C 90% 12.0 mph SW19.3 kmh SW 21.0 mph33.8 kmh 29.91 in1012.9 mb 0.00 in0.0 mm 0.00 in/hr0.0 mm/hr 0.00 in0.0 mm
04:58 PM 52.3°F11.3°C 49.5°F9.7°C 90% 12.0 mph SW19.3 kmh SW 22.0 mph35.4 kmh 29.91 in1012.9 mb 0.00 in0.0 mm 0.00 in/hr0.0 mm/hr 0.00 in0.0 mm
04:57 PM 52.3°F11.3°C 49.5°F9.7°C 90% 13.0 mph SW20.9 kmh SW 22.0 mph35.4 kmh 29.91 in1012.9 mb 0.00 in0.0 mm 0.00 in/hr0.0 mm/hr 0.00 in0.0 mm
04:56 PM 52.3°F11.3°C 49.5°F9.7°C 90% 12.0 mph SW19.3 kmh SW 22.0 mph35.4 kmh 29.91 in1012.9 mb 0.00 in0.0 mm 0.00 in/hr0.0 mm/hr 0.00 in0.0 mm
04:55 PM 52.3°F11.3°C 49.5°F9.7°C 90% 13.0 mph SW20.9 kmh SW 23.0 mph37.0 kmh 29.91 in1012.9 mb 0.00 in0.0 mm 0.00 in/hr0.0 mm/hr 0.00 in0.0 mm
04:54 PM 52.3°F11.3°C 49.5°F9.7°C 90% 13.0 mph SW20.9 kmh SW 25.0 mph40.2 kmh 29.91 in1012.9 mb 0.00 in0.0 mm 0.00 in/hr0.0 mm/hr 0.00 in0.0 mm
04:53 PM 52.3°F11.3°C 49.5°F9.7°C 90% 13.0 mph SW20.9 kmh SW 25.0 mph40.2 kmh 29.91 in1012.9 mb 0.00 in0.0 mm 0.00 in/hr0.0 mm/hr 0.00 in0.0 mm
04:52 PM 52.3°F11.3°C 49.5°F9.7°C 90% 13.0 mph SW20.9 kmh SW 25.0 mph40.2 kmh 29.91 in1012.9 mb 0.00 in0.0 mm 0.00 in/hr0.0 mm/hr 0.00 in0.0 mm
04:51 PM 52.3°F11.3°C 49.5°F9.7°C 90% 13.0 mph SW20.9 kmh SW 25.0 mph40.2 kmh 29.91 in1012.9 mb 0.00 in0.0 mm 0.00 in/hr0.0 mm/hr 0.00 in0.0 mm
04:50 PM 52.3°F11.3°C 49.5°F9.7°C 90% 13.0 mph SW20.9 kmh SW 25.0 mph40.2 kmh 29.91 in1012.9 mb 0.00 in0.0 mm 0.00 in/hr0.0 mm/hr 0.00 in0.0 mm
04:49 PM 52.3°F11.3°C 49.5°F9.7°C 90% 12.0 mph SW19.3 kmh SW 25.0 mph40.2 kmh 29.91 in1012.9 mb 0.00 in0.0 mm 0.00 in/hr0.0 mm/hr 0.00 in0.0 mm
04:48 PM 52.3°F11.3°C 49.6°F9.8°C 90% 12.0 mph SW19.3 kmh SW 25.0 mph40.2 kmh 29.91 in1012.9 mb 0.00 in0.0 mm 0.00 in/hr0.0 mm/hr 0.00 in0.0 mm
04:47 PM 52.3°F11.3°C 49.6°F9.8°C 90% 12.0 mph SW19.3 kmh SW 25.0 mph40.2 kmh 29.91 in1012.9 mb 0.00 in0.0 mm 0.00 in/hr0.0 mm/hr 0.00 in0.0 mm
04:46 PM 52.3°F11.3°C 49.3°F9.6°C 89% 12.0 mph SW19.3 kmh SW 25.0 mph40.2 kmh 29.91 in1012.9 mb 0.00 in0.0 mm 0.00 in/hr0.0 mm/hr 0.00 in0.0 mm
04:45 PM 52.3°F11.3°C 49.3°F9.6°C 89% 11.0 mph SW17.7 kmh SW 25.0 mph40.2 kmh 29.91 in1012.9 mb 0.00 in0.0 mm 0.00 in/hr0.0 mm/hr 0.00 in0.0 mm
04:44 PM 52.3°F11.3°C 49.3°F9.6°C 89% 11.0 mph SW17.7 kmh SW 22.0 mph35.4 kmh 29.91 in1012.9 mb 0.00 in0.0 mm 0.00 in/hr0.0 mm/hr 0.00 in0.0 mm
04:43 PM 52.5°F11.4°C 49.3°F9.6°C 89% 11.0 mph SW17.7 kmh SW 22.0 mph35.4 kmh 29.91 in1012.9 mb 0.00 in0.0 mm 0.00 in/hr0.0 mm/hr 0.00 in0.0 mm
04:42 PM 52.5°F11.4°C 49.3°F9.6°C 89% 12.0 mph SW19.3 kmh SW 27.0 mph43.5 kmh 29.91 in1012.9 mb 0.00 in0.0 mm 0.00 in/hr0.0 mm/hr 0.00 in0.0 mm
04:41 PM 52.5°F11.4°C 49.3°F9.6°C 89% 12.0 mph SW19.3 kmh SW 27.0 mph43.5 kmh 29.91 in1012.9 mb 0.00 in0.0 mm 0.00 in/hr0.0 mm/hr 0.00 in0.0 mm
04:40 PM 52.5°F11.4°C 49.3°F9.6°C 89% 12.0 mph SW19.3 kmh SW 27.0 mph43.5 kmh 29.91 in1012.9 mb 0.00 in0.0 mm 0.00 in/hr0.0 mm/hr 0.00 in0.0 mm
04:39 PM 52.5°F11.4°C 49.3°F9.6°C 89% 12.0 mph SW19.3 kmh SW 27.0 mph43.5 kmh 29.91 in1012.9 mb 0.00 in0.0 mm 0.00 in/hr0.0 mm/hr 0.00 in0.0 mm
04:38 PM 52.5°F11.4°C 49.5°F9.7°C 89% 12.0 mph SW19.3 kmh SW 27.0 mph43.5 kmh 29.91 in1012.9 mb 0.00 in0.0 mm 0.00 in/hr0.0 mm/hr 0.00 in0.0 mm
04:37 PM 52.5°F11.4°C 49.5°F9.7°C 89% 12.0 mph SW19.3 kmh SW 27.0 mph43.5 kmh 29.91 in1012.9 mb 0.00 in0.0 mm 0.00 in/hr0.0 mm/hr 0.00 in0.0 mm
04:36 PM 52.5°F11.4°C 49.5°F9.7°C 89% 13.0 mph SW20.9 kmh SW 27.0 mph43.5 kmh 29.91 in1012.9 mb 0.00 in0.0 mm 0.00 in/hr0.0 mm/hr 0.00 in0.0 mm
04:35 PM 52.5°F11.4°C 49.5°F9.7°C 89% 13.0 mph SW20.9 kmh SW 27.0 mph43.5 kmh 29.91 in1012.9 mb 0.00 in0.0 mm 0.00 in/hr0.0 mm/hr 0.00 in0.0 mm
04:34 PM 52.5°F11.4°C 49.5°F9.7°C 89% 13.0 mph SW20.9 kmh SW 27.0 mph43.5 kmh 29.91 in1012.9 mb 0.00 in0.0 mm 0.00 in/hr0.0 mm/hr 0.00 in0.0 mm
04:33 PM 52.5°F11.4°C 49.5°F9.7°C 89% 13.0 mph SW20.9 kmh SW 27.0 mph43.5 kmh 29.91 in1012.9 mb 0.00 in0.0 mm 0.00 in/hr0.0 mm/hr 0.00 in0.0 mm
04:32 PM 52.5°F11.4°C 49.5°F9.7°C 89% 13.0 mph SW20.9 kmh SW 22.0 mph35.4 kmh 29.91 in1012.9 mb 0.00 in0.0 mm 0.00 in/hr0.0 mm/hr 0.00 in0.0 mm
04:31 PM 52.5°F11.4°C 49.5°F9.7°C 89% 12.0 mph SW19.3 kmh SW 22.0 mph35.4 kmh 29.91 in1012.9 mb 0.00 in0.0 mm 0.00 in/hr0.0 mm/hr 0.00 in0.0 mm
04:30 PM 52.5°F11.4°C 49.5°F9.7°C 89% 12.0 mph SW19.3 kmh SW 22.0 mph35.4 kmh 29.91 in1012.9 mb 0.00 in0.0 mm 0.00 in/hr0.0 mm/hr 0.00 in0.0 mm
04:29 PM 52.5°F11.4°C 49.5°F9.7°C 89% 13.0 mph SW20.9 kmh SW 22.0 mph35.4 kmh 29.91 in1012.9 mb 0.00 in0.0 mm 0.00 in/hr0.0 mm/hr 0.00 in0.0 mm
04:28 PM 52.5°F11.4°C 49.5°F9.7°C 89% 13.0 mph SW20.9 kmh SW 22.0 mph35.4 kmh 29.91 in1012.9 mb 0.00 in0.0 mm 0.00 in/hr0.0 mm/hr 0.00 in0.0 mm
04:27 PM 52.5°F11.4°C 49.5°F9.7°C 89% 12.0 mph SW19.3 kmh SW 23.0 mph37.0 kmh 29.91 in1012.9 mb 0.00 in0.0 mm 0.00 in/hr0.0 mm/hr 0.00 in0.0 mm
04:26 PM 52.5°F11.4°C 49.5°F9.7°C 89% 12.0 mph SW19.3 kmh SW 23.0 mph37.0 kmh 29.91 in1012.9 mb 0.00 in0.0 mm 0.00 in/hr0.0 mm/hr 0.00 in0.0 mm
04:25 PM 52.5°F11.4°C 49.8°F9.9°C 90% 12.0 mph SW19.3 kmh SW 23.0 mph37.0 kmh 29.91 in1012.9 mb 0.00 in0.0 mm 0.00 in/hr0.0 mm/hr 0.00 in0.0 mm
04:24 PM 52.7°F11.5°C 49.8°F9.9°C 90% 12.0 mph SW19.3 kmh SW 23.0 mph37.0 kmh 29.91 in1012.9 mb 0.00 in0.0 mm 0.00 in/hr0.0 mm/hr 0.00 in0.0 mm
04:23 PM 52.7°F11.5°C 49.8°F9.9°C 90% 12.0 mph SW19.3 kmh SW 27.0 mph43.5 kmh 29.91 in1012.9 mb 0.00 in0.0 mm 0.00 in/hr0.0 mm/hr 0.00 in0.0 mm
04:22 PM 52.7°F11.5°C 49.8°F9.9°C 90% 12.0 mph SW19.3 kmh SW 27.0 mph43.5 kmh 29.91 in1012.9 mb 0.00 in0.0 mm 0.00 in/hr0.0 mm/hr 0.00 in0.0 mm
04:21 PM 52.7°F11.5°C 49.8°F9.9°C 90% 12.0 mph SW19.3 kmh SW 27.0 mph43.5 kmh 29.91 in1012.9 mb 0.00 in0.0 mm 0.00 in/hr0.0 mm/hr 0.00 in0.0 mm
04:20 PM 52.7°F11.5°C 49.8°F9.9°C 90% 12.0 mph SW19.3 kmh SW 27.0 mph43.5 kmh 29.92 in1013.2 mb 0.00 in0.0 mm 0.00 in/hr0.0 mm/hr 0.00 in0.0 mm
04:19 PM 52.7°F11.5°C 49.8°F9.9°C 90% 12.0 mph SW19.3 kmh SW 27.0 mph43.5 kmh 29.91 in1012.9 mb 0.00 in0.0 mm 0.00 in/hr0.0 mm/hr 0.00 in0.0 mm
04:18 PM 52.7°F11.5°C 49.8°F9.9°C 90% 13.0 mph SW20.9 kmh SW 27.0 mph43.5 kmh 29.91 in1012.9 mb 0.00 in0.0 mm 0.00 in/hr0.0 mm/hr 0.00 in0.0 mm
04:17 PM 52.7°F11.5°C 49.8°F9.9°C 90% 12.0 mph SW19.3 kmh SW 27.0 mph43.5 kmh 29.91 in1012.9 mb 0.00 in0.0 mm 0.00 in/hr0.0 mm/hr 0.00 in0.0 mm
04:16 PM 52.7°F11.5°C 49.8°F9.9°C 90% 12.0 mph SW19.3 kmh SW 27.0 mph43.5 kmh 29.91 in1012.9 mb 0.00 in0.0 mm 0.00 in/hr0.0 mm/hr 0.00 in0.0 mm
04:15 PM 52.7°F11.5°C 49.8°F9.9°C 90% 12.0 mph SW19.3 kmh SW 27.0 mph43.5 kmh 29.91 in1012.9 mb 0.00 in0.0 mm 0.00 in/hr0.0 mm/hr 0.00 in0.0 mm
04:14 PM 52.7°F11.5°C 49.8°F9.9°C 90% 12.0 mph SW19.3 kmh SW 27.0 mph43.5 kmh 29.91 in1012.9 mb 0.00 in0.0 mm 0.00 in/hr0.0 mm/hr 0.00 in0.0 mm
04:13 PM 52.7°F11.5°C 49.8°F9.9°C 90% 13.0 mph SW20.9 kmh SW 27.0 mph43.5 kmh 29.91 in1012.9 mb 0.00 in0.0 mm 0.00 in/hr0.0 mm/hr 0.00 in0.0 mm
04:12 PM 52.7°F11.5°C 49.8°F9.9°C 90% 13.0 mph SW20.9 kmh SW 28.0 mph45.1 kmh 29.91 in1012.9 mb 0.00 in0.0 mm 0.00 in/hr0.0 mm/hr 0.00 in0.0 mm
04:11 PM 52.7°F11.5°C 49.5°F9.7°C 89% 13.0 mph SW20.9 kmh SW 28.0 mph45.1 kmh 29.91 in1012.9 mb 0.00 in0.0 mm 0.00 in/hr0.0 mm/hr 0.00 in0.0 mm
04:10 PM 52.7°F11.5°C 49.5°F9.7°C 89% 13.0 mph SW20.9 kmh SW 28.0 mph45.1 kmh 29.91 in1012.9 mb 0.00 in0.0 mm 0.00 in/hr0.0 mm/hr 0.00 in0.0 mm
04:09 PM 52.7°F11.5°C 49.5°F9.7°C 89% 13.0 mph SW20.9 kmh SW 28.0 mph45.1 kmh 29.91 in1012.9 mb 0.00 in0.0 mm 0.00 in/hr0.0 mm/hr 0.00 in0.0 mm
04:08 PM 52.7°F11.5°C 49.5°F9.7°C 89% 13.0 mph SW20.9 kmh SW 28.0 mph45.1 kmh 29.91 in1012.9 mb 0.00 in0.0 mm 0.00 in/hr0.0 mm/hr 0.00 in0.0 mm
04:07 PM 52.7°F11.5°C 49.5°F9.7°C 89% 13.0 mph SW20.9 kmh SW 28.0 mph45.1 kmh 29.91 in1012.9 mb 0.00 in0.0 mm 0.00 in/hr0.0 mm/hr 0.00 in0.0 mm
04:06 PM 52.7°F11.5°C 49.5°F9.7°C 89% 13.0 mph SW20.9 kmh SW 28.0 mph45.1 kmh 29.91 in1012.9 mb 0.00 in0.0 mm 0.00 in/hr0.0 mm/hr 0.00 in0.0 mm
04:05 PM 52.9°F11.6°C 49.6°F9.8°C 89% 14.0 mph SW22.5 kmh SW 28.0 mph45.1 kmh 29.91 in1012.9 mb 0.00 in0.0 mm 0.00 in/hr0.0 mm/hr 0.00 in0.0 mm
04:04 PM 52.9°F11.6°C 49.6°F9.8°C 89% 14.0 mph SW22.5 kmh SW 30.0 mph48.3 kmh 29.91 in1012.9 mb 0.00 in0.0 mm 0.00 in/hr0.0 mm/hr 0.00 in0.0 mm
04:03 PM 52.9°F11.6°C 49.6°F9.8°C 89% 14.0 mph SW22.5 kmh SW 30.0 mph48.3 kmh 29.91 in1012.9 mb 0.00 in0.0 mm 0.00 in/hr0.0 mm/hr 0.00 in0.0 mm
04:02 PM 52.9°F11.6°C 49.6°F9.8°C 89% 14.0 mph SW22.5 kmh SW 30.0 mph48.3 kmh 29.91 in1012.9 mb 0.00 in0.0 mm 0.00 in/hr0.0 mm/hr 0.00 in0.0 mm
04:01 PM 52.9°F11.6°C 49.6°F9.8°C 89% 13.0 mph SW20.9 kmh SW 30.0 mph48.3 kmh 29.91 in1012.9 mb 0.00 in0.0 mm 0.00 in/hr0.0 mm/hr 0.00 in0.0 mm
04:00 PM 52.9°F11.6°C 49.6°F9.8°C 89% 13.0 mph SW20.9 kmh SW 30.0 mph48.3 kmh 29.91 in1012.9 mb 0.00 in0.0 mm 0.00 in/hr0.0 mm/hr 0.00 in0.0 mm
03:59 PM 52.9°F11.6°C 49.6°F9.8°C 89% 13.0 mph SW20.9 kmh SW 30.0 mph48.3 kmh 29.91 in1012.9 mb 0.00 in0.0 mm 0.00 in/hr0.0 mm/hr 0.00 in0.0 mm
03:58 PM 52.9°F11.6°C 49.6°F9.8°C 89% 13.0 mph SW20.9 kmh SW 30.0 mph48.3 kmh 29.90 in1012.5 mb 0.00 in0.0 mm 0.00 in/hr0.0 mm/hr 0.00 in0.0 mm
03:57 PM 52.9°F11.6°C 49.6°F9.8°C 89% 14.0 mph SW22.5 kmh SW 30.0 mph48.3 kmh 29.91 in1012.9 mb 0.00 in0.0 mm 0.00 in/hr0.0 mm/hr 0.00 in0.0 mm
03:56 PM 52.9°F11.6°C 49.6°F9.8°C 89% 14.0 mph SW22.5 kmh SW 30.0 mph48.3 kmh 29.91 in1012.9 mb 0.00 in0.0 mm 0.00 in/hr0.0 mm/hr 0.00 in0.0 mm
03:55 PM 52.9°F11.6°C 49.6°F9.8°C 89% 14.0 mph SW22.5 kmh SW 30.0 mph48.3 kmh 29.91 in1012.9 mb 0.00 in0.0 mm 0.00 in/hr0.0 mm/hr 0.00 in0.0 mm
03:54 PM 52.9°F11.6°C 49.6°F9.8°C 89% 13.0 mph SW20.9 kmh SW 27.0 mph43.5 kmh 29.90 in1012.5 mb 0.00 in0.0 mm 0.00 in/hr0.0 mm/hr 0.00 in0.0 mm
03:53 PM 52.9°F11.6°C 49.6°F9.8°C 89% 14.0 mph SW22.5 kmh SW 27.0 mph43.5 kmh 29.90 in1012.5 mb 0.00 in0.0 mm 0.00 in/hr0.0 mm/hr 0.00 in0.0 mm
03:52 PM 52.9°F11.6°C 49.6°F9.8°C 89% 14.0 mph SW22.5 kmh SW 30.0 mph48.3 kmh 29.90 in1012.5 mb 0.00 in0.0 mm 0.00 in/hr0.0 mm/hr 0.00 in0.0 mm
03:51 PM 52.7°F11.5°C 49.5°F9.7°C 89% 14.0 mph SW22.5 kmh SW 30.0 mph48.3 kmh 29.90 in1012.5 mb 0.00 in0.0 mm 0.00 in/hr0.0 mm/hr 0.00 in0.0 mm
03:50 PM 52.9°F11.6°C 49.6°F9.8°C 89% 14.0 mph SW22.5 kmh SW 30.0 mph48.3 kmh 29.90 in1012.5 mb 0.00 in0.0 mm 0.00 in/hr0.0 mm/hr 0.00 in0.0 mm
03:49 PM 52.7°F11.5°C 49.5°F9.7°C 89% 14.0 mph WSW22.5 kmh WSW 30.0 mph48.3 kmh 29.90 in1012.5 mb 0.00 in0.0 mm 0.00 in/hr0.0 mm/hr 0.00 in0.0 mm
03:48 PM 52.7°F11.5°C 49.5°F9.7°C 89% 14.0 mph WSW22.5 kmh WSW 30.0 mph48.3 kmh 29.90 in1012.5 mb 0.00 in0.0 mm 0.00 in/hr0.0 mm/hr 0.00 in0.0 mm
03:47 PM 52.7°F11.5°C 49.5°F9.7°C 89% 14.0 mph WSW22.5 kmh WSW 30.0 mph48.3 kmh 29.91 in1012.9 mb 0.00 in0.0 mm 0.00 in/hr0.0 mm/hr 0.00 in0.0 mm
03:46 PM 52.7°F11.5°C 49.5°F9.7°C 89% 14.0 mph SW22.5 kmh SW 30.0 mph48.3 kmh 29.90 in1012.5 mb 0.00 in0.0 mm 0.00 in/hr0.0 mm/hr 0.00 in0.0 mm
03:45 PM 52.7°F11.5°C 49.5°F9.7°C 89% 14.0 mph SW22.5 kmh SW 30.0 mph48.3 kmh 29.90 in1012.5 mb 0.00 in0.0 mm 0.00 in/hr0.0 mm/hr 0.00 in0.0 mm
03:44 PM 52.7°F11.5°C 49.5°F9.7°C 89% 14.0 mph SW22.5 kmh SW 30.0 mph48.3 kmh 29.90 in1012.5 mb 0.00 in0.0 mm 0.00 in/hr0.0 mm/hr 0.00 in0.0 mm
03:43 PM 52.7°F11.5°C 49.5°F9.7°C 89% 14.0 mph SW22.5 kmh SW 30.0 mph48.3 kmh 29.90 in1012.5 mb 0.00 in0.0 mm 0.00 in/hr0.0 mm/hr 0.00 in0.0 mm
03:42 PM 52.5°F11.4°C 49.5°F9.7°C 89% 14.0 mph SW22.5 kmh SW 30.0 mph48.3 kmh 29.91 in1012.9 mb 0.00 in0.0 mm 0.00 in/hr0.0 mm/hr 0.00 in0.0 mm
03:41 PM 52.5°F11.4°C 49.8°F9.9°C 90% 13.0 mph SW20.9 kmh SW 30.0 mph48.3 kmh 29.90 in1012.5 mb 0.00 in0.0 mm 0.00 in/hr0.0 mm/hr 0.00 in0.0 mm
03:40 PM 52.5°F11.4°C 49.8°F9.9°C 90% 13.0 mph SW20.9 kmh SW 30.0 mph48.3 kmh 29.90 in1012.5 mb 0.00 in0.0 mm 0.00 in/hr0.0 mm/hr 0.00 in0.0 mm
03:39 PM 52.5°F11.4°C 49.8°F9.9°C 90% 13.0 mph SW20.9 kmh SW 30.0 mph48.3 kmh 29.90 in1012.5 mb 0.00 in0.0 mm 0.00 in/hr0.0 mm/hr 0.00 in0.0 mm
03:38 PM 52.5°F11.4°C 49.6°F9.8°C 90% 13.0 mph SW20.9 kmh SW 30.0 mph48.3 kmh 29.90 in1012.5 mb 0.00 in0.0 mm 0.00 in/hr0.0 mm/hr 0.00 in0.0 mm
03:37 PM 52.5°F11.4°C 49.6°F9.8°C 90% 12.0 mph SW19.3 kmh SW 30.0 mph48.3 kmh 29.90 in1012.5 mb 0.00 in0.0 mm 0.00 in/hr0.0 mm/hr 0.00 in0.0 mm
03:36 PM 52.5°F11.4°C 49.6°F9.8°C 90% 13.0 mph SW20.9 kmh SW 30.0 mph48.3 kmh 29.90 in1012.5 mb 0.00 in0.0 mm 0.00 in/hr0.0 mm/hr 0.00 in0.0 mm
03:35 PM 52.3°F11.3°C 49.6°F9.8°C 90% 13.0 mph SW20.9 kmh SW 28.0 mph45.1 kmh 29.90 in1012.5 mb 0.00 in0.0 mm 0.00 in/hr0.0 mm/hr 0.00 in0.0 mm
03:34 PM 52.3°F11.3°C 49.6°F9.8°C 90% 13.0 mph SW20.9 kmh SW 28.0 mph45.1 kmh 29.90 in1012.5 mb 0.00 in0.0 mm 0.00 in/hr0.0 mm/hr 0.00 in0.0 mm
03:33 PM 52.3°F11.3°C 49.6°F9.8°C 90% 13.0 mph SW20.9 kmh SW 28.0 mph45.1 kmh 29.90 in1012.5 mb 0.00 in0.0 mm 0.00 in/hr0.0 mm/hr 0.00 in0.0 mm
03:32 PM 52.3°F11.3°C 49.6°F9.8°C 90% 13.0 mph SW20.9 kmh SW 28.0 mph45.1 kmh 29.90 in1012.5 mb 0.00 in0.0 mm 0.00 in/hr0.0 mm/hr 0.00 in0.0 mm
03:31 PM 52.3°F11.3°C 49.6°F9.8°C 90% 13.0 mph SW20.9 kmh SW 28.0 mph45.1 kmh 29.90 in1012.5 mb 0.00 in0.0 mm 0.00 in/hr0.0 mm/hr 0.00 in0.0 mm
03:30 PM 52.3°F11.3°C 49.5°F9.7°C 90% 14.0 mph SW22.5 kmh SW 28.0 mph45.1 kmh 29.90 in1012.5 mb 0.00 in0.0 mm 0.00 in/hr0.0 mm/hr 0.00 in0.0 mm
03:29 PM 52.3°F11.3°C 49.5°F9.7°C 90% 13.0 mph SW20.9 kmh SW 28.0 mph45.1 kmh 29.91 in1012.9 mb 0.00 in0.0 mm 0.00 in/hr0.0 mm/hr 0.00 in0.0 mm
03:28 PM 52.3°F11.3°C 49.8°F9.9°C 91% 14.0 mph SW22.5 kmh SW 28.0 mph45.1 kmh 29.90 in1012.5 mb 0.00 in0.0 mm 0.00 in/hr0.0 mm/hr 0.00 in0.0 mm
03:27 PM 52.3°F11.3°C 49.8°F9.9°C 91% 14.0 mph SW22.5 kmh SW 28.0 mph45.1 kmh 29.90 in1012.5 mb 0.00 in0.0 mm 0.00 in/hr0.0 mm/hr 0.00 in0.0 mm
03:26 PM 52.3°F11.3°C 49.8°F9.9°C 91% 13.0 mph SW20.9 kmh SW 28.0 mph45.1 kmh 29.90 in1012.5 mb 0.00 in0.0 mm 0.00 in/hr0.0 mm/hr 0.00 in0.0 mm
03:25 PM 52.3°F11.3°C 49.8°F9.9°C 91% 13.0 mph SW20.9 kmh SW 26.0 mph41.8 kmh 29.90 in1012.5 mb 0.00 in0.0 mm 0.00 in/hr0.0 mm/hr 0.00 in0.0 mm
03:24 PM 52.3°F11.3°C 49.8°F9.9°C 91% 12.0 mph SW19.3 kmh SW 26.0 mph41.8 kmh 29.90 in1012.5 mb 0.00 in0.0 mm 0.00 in/hr0.0 mm/hr 0.00 in0.0 mm
03:23 PM 52.3°F11.3°C 49.8°F9.9°C 91% 12.0 mph SW19.3 kmh SW 26.0 mph41.8 kmh 29.90 in1012.5 mb 0.00 in0.0 mm 0.00 in/hr0.0 mm/hr 0.00 in0.0 mm
03:22 PM 52.3°F11.3°C 49.8°F9.9°C 91% 12.0 mph SW19.3 kmh SW 26.0 mph41.8 kmh 29.90 in1012.5 mb 0.00 in0.0 mm 0.00 in/hr0.0 mm/hr 0.00 in0.0 mm
03:21 PM 52.2°F11.2°C 49.6°F9.8°C 91% 12.0 mph SW19.3 kmh SW 26.0 mph41.8 kmh 29.90 in1012.5 mb 0.00 in0.0 mm 0.00 in/hr0.0 mm/hr 0.00 in0.0 mm
03:20 PM 52.2°F11.2°C 49.6°F9.8°C 91% 12.0 mph SW19.3 kmh SW 26.0 mph41.8 kmh 29.90 in1012.5 mb 0.00 in0.0 mm 0.00 in/hr0.0 mm/hr 0.00 in0.0 mm
03:19 PM 52.2°F11.2°C 50.0°F10.0°C 92% 12.0 mph SW19.3 kmh SW 22.0 mph35.4 kmh 29.90 in1012.5 mb 0.00 in0.0 mm 0.00 in/hr0.0 mm/hr 0.00 in0.0 mm
03:18 PM 52.2°F11.2°C 50.0°F10.0°C 92% 12.0 mph SW19.3 kmh SW 22.0 mph35.4 kmh 29.90 in1012.5 mb 0.00 in0.0 mm 0.00 in/hr0.0 mm/hr 0.00 in0.0 mm
03:17 PM 52.2°F11.2°C 50.0°F10.0°C 92% 12.0 mph SW19.3 kmh SW 22.0 mph35.4 kmh 29.90 in1012.5 mb 0.00 in0.0 mm 0.00 in/hr0.0 mm/hr 0.00 in0.0 mm
03:16 PM 52.2°F11.2°C 50.0°F10.0°C 92% 12.0 mph SW19.3 kmh SW 27.0 mph43.5 kmh 29.90 in1012.5 mb 0.00 in0.0 mm 0.00 in/hr0.0 mm/hr 0.00 in0.0 mm
03:15 PM 52.2°F11.2°C 50.0°F10.0°C 92% 12.0 mph SW19.3 kmh SW 27.0 mph43.5 kmh 29.90 in1012.5 mb 0.00 in0.0 mm 0.00 in/hr0.0 mm/hr 0.00 in0.0 mm
03:14 PM 52.2°F11.2°C 50.0°F10.0°C 92% 12.0 mph SW19.3 kmh SW 27.0 mph43.5 kmh 29.90 in1012.5 mb 0.00 in0.0 mm 0.00 in/hr0.0 mm/hr 0.00 in0.0 mm
03:13 PM 52.2°F11.2°C 50.0°F10.0°C 92% 12.0 mph SW19.3 kmh SW 27.0 mph43.5 kmh 29.90 in1012.5 mb 0.00 in0.0 mm 0.00 in/hr0.0 mm/hr 0.00 in0.0 mm
03:12 PM 52.2°F11.2°C 50.0°F10.0°C 92% 12.0 mph SW19.3 kmh SW 27.0 mph43.5 kmh 29.89 in1012.2 mb 0.00 in0.0 mm 0.00 in/hr0.0 mm/hr 0.00 in0.0 mm
03:11 PM 52.2°F11.2°C 50.0°F10.0°C 92% 12.0 mph SW19.3 kmh SW 27.0 mph43.5 kmh 29.89 in1012.2 mb 0.00 in0.0 mm 0.00 in/hr0.0 mm/hr 0.00 in0.0 mm
03:10 PM 52.2°F11.2°C 50.0°F10.0°C 92% 12.0 mph SW19.3 kmh SW 27.0 mph43.5 kmh 29.89 in1012.2 mb 0.00 in0.0 mm 0.00 in/hr0.0 mm/hr 0.00 in0.0 mm
03:09 PM 52.2°F11.2°C 50.0°F10.0°C 92% 12.0 mph SW19.3 kmh SW 27.0 mph43.5 kmh 29.90 in1012.5 mb 0.00 in0.0 mm 0.00 in/hr0.0 mm/hr 0.00 in0.0 mm
03:08 PM 52.2°F11.2°C 50.0°F10.0°C 92% 12.0 mph SW19.3 kmh SW 27.0 mph43.5 kmh 29.89 in1012.2 mb 0.00 in0.0 mm 0.00 in/hr0.0 mm/hr 0.00 in0.0 mm
03:07 PM 52.2°F11.2°C 49.8°F9.9°C 92% 12.0 mph SW19.3 kmh SW 27.0 mph43.5 kmh 29.89 in1012.2 mb 0.00 in0.0 mm 0.00 in/hr0.0 mm/hr 0.00 in0.0 mm
03:06 PM 52.2°F11.2°C 50.0°F10.0°C 92% 12.0 mph SW19.3 kmh SW 26.0 mph41.8 kmh 29.89 in1012.2 mb 0.00 in0.0 mm 0.00 in/hr0.0 mm/hr 0.00 in0.0 mm
03:05 PM 52.2°F11.2°C 50.0°F10.0°C 92% 12.0 mph SW19.3 kmh SW 26.0 mph41.8 kmh 29.89 in1012.2 mb 0.00 in0.0 mm 0.00 in/hr0.0 mm/hr 0.00 in0.0 mm
03:04 PM 52.2°F11.2°C 50.0°F10.0°C 92% 12.0 mph SW19.3 kmh SW 26.0 mph41.8 kmh 29.89 in1012.2 mb 0.00 in0.0 mm 0.00 in/hr0.0 mm/hr 0.00 in0.0 mm
03:03 PM 52.2°F11.2°C 50.0°F10.0°C 92% 12.0 mph SW19.3 kmh SW 26.0 mph41.8 kmh 29.89 in1012.2 mb 0.00 in0.0 mm 0.00 in/hr0.0 mm/hr 0.00 in0.0 mm
03:02 PM 52.2°F11.2°C 49.8°F9.9°C 92% 13.0 mph SW20.9 kmh SW 26.0 mph41.8 kmh 29.89 in1012.2 mb 0.00 in0.0 mm 0.00 in/hr0.0 mm/hr 0.00 in0.0 mm
03:01 PM 52.2°F11.2°C 50.0°F10.0°C 92% 13.0 mph SW20.9 kmh SW 26.0 mph41.8 kmh 29.89 in1012.2 mb 0.00 in0.0 mm 0.00 in/hr0.0 mm/hr 0.00 in0.0 mm
03:00 PM 52.2°F11.2°C 49.8°F9.9°C 92% 13.0 mph SW20.9 kmh SW 26.0 mph41.8 kmh 29.89 in1012.2 mb 0.00 in0.0 mm 0.00 in/hr0.0 mm/hr 0.00 in0.0 mm
02:59 PM 52.2°F11.2°C 50.0°F10.0°C 92% 12.0 mph SW19.3 kmh SW 24.0 mph38.6 kmh 29.89 in1012.2 mb 0.00 in0.0 mm 0.00 in/hr0.0 mm/hr 0.00 in0.0 mm
02:58 PM 52.2°F11.2°C 50.0°F10.0°C 92% 12.0 mph SW19.3 kmh SW 24.0 mph38.6 kmh 29.89 in1012.2 mb 0.00 in0.0 mm 0.00 in/hr0.0 mm/hr 0.00 in0.0 mm
02:57 PM 52.2°F11.2°C 49.8°F9.9°C 92% 12.0 mph SW19.3 kmh SW 24.0 mph38.6 kmh 29.89 in1012.2 mb 0.00 in0.0 mm 0.00 in/hr0.0 mm/hr 0.00 in0.0 mm
02:56 PM 52.2°F11.2°C 49.8°F9.9°C 92% 13.0 mph SW20.9 kmh SW 24.0 mph38.6 kmh 29.89 in1012.2 mb 0.00 in0.0 mm 0.00 in/hr0.0 mm/hr 0.00 in0.0 mm
02:55 PM 52.2°F11.2°C 49.8°F9.9°C 92% 13.0 mph SW20.9 kmh SW 24.0 mph38.6 kmh 29.89 in1012.2 mb 0.00 in0.0 mm 0.00 in/hr0.0 mm/hr 0.00 in0.0 mm
02:54 PM 52.2°F11.2°C 49.8°F9.9°C 92% 13.0 mph SW20.9 kmh SW 25.0 mph40.2 kmh 29.89 in1012.2 mb 0.00 in0.0 mm 0.00 in/hr0.0 mm/hr 0.00 in0.0 mm
02:53 PM 52.2°F11.2°C 49.8°F9.9°C 92% 12.0 mph SW19.3 kmh SW 25.0 mph40.2 kmh 29.89 in1012.2 mb 0.00 in0.0 mm 0.00 in/hr0.0 mm/hr 0.00 in0.0 mm
02:52 PM 52.2°F11.2°C 50.2°F10.1°C 93% 12.0 mph SW19.3 kmh SW 25.0 mph40.2 kmh 29.89 in1012.2 mb 0.00 in0.0 mm 0.00 in/hr0.0 mm/hr 0.00 in0.0 mm
02:51 PM 52.2°F11.2°C 50.2°F10.1°C 93% 12.0 mph SW19.3 kmh SW 25.0 mph40.2 kmh 29.89 in1012.2 mb 0.00 in0.0 mm 0.00 in/hr0.0 mm/hr 0.00 in0.0 mm
02:50 PM 52.2°F11.2°C 50.2°F10.1°C 93% 12.0 mph SW19.3 kmh SW 25.0 mph40.2 kmh 29.89 in1012.2 mb 0.00 in0.0 mm 0.00 in/hr0.0 mm/hr 0.00 in0.0 mm
02:49 PM 52.0°F11.1°C 50.0°F10.0°C 93% 13.0 mph SW20.9 kmh SW 25.0 mph40.2 kmh 29.89 in1012.2 mb 0.00 in0.0 mm 0.00 in/hr0.0 mm/hr 0.00 in0.0 mm
02:48 PM 52.0°F11.1°C 50.0°F10.0°C 93% 12.0 mph SW19.3 kmh SW 25.0 mph40.2 kmh 29.90 in1012.5 mb 0.00 in0.0 mm 0.00 in/hr0.0 mm/hr 0.00 in0.0 mm
02:47 PM 52.0°F11.1°C 50.0°F10.0°C 93% 12.0 mph SW19.3 kmh SW 25.0 mph40.2 kmh 29.89 in1012.2 mb 0.00 in0.0 mm 0.00 in/hr0.0 mm/hr 0.00 in0.0 mm
02:46 PM 52.0°F11.1°C 50.0°F10.0°C 93% 12.0 mph SW19.3 kmh SW 25.0 mph40.2 kmh 29.89 in1012.2 mb 0.00 in0.0 mm 0.00 in/hr0.0 mm/hr 0.00 in0.0 mm
02:45 PM 52.0°F11.1°C 50.0°F10.0°C 93% 12.0 mph SW19.3 kmh SW 25.0 mph40.2 kmh 29.89 in1012.2 mb 0.00 in0.0 mm 0.00 in/hr0.0 mm/hr 0.00 in0.0 mm
02:44 PM 52.0°F11.1°C 50.0°F10.0°C 93% 12.0 mph SW19.3 kmh SW 25.0 mph40.2 kmh 29.89 in1012.2 mb 0.00 in0.0 mm 0.00 in/hr0.0 mm/hr 0.00 in0.0 mm
02:43 PM 52.0°F11.1°C 50.0°F10.0°C 93% 12.0 mph SW19.3 kmh SW 25.0 mph40.2 kmh 29.89 in1012.2 mb 0.00 in0.0 mm 0.00 in/hr0.0 mm/hr 0.00 in0.0 mm
02:42 PM 52.0°F11.1°C 50.0°F10.0°C 93% 13.0 mph SW20.9 kmh SW 26.0 mph41.8 kmh 29.89 in1012.2 mb 0.00 in0.0 mm 0.00 in/hr0.0 mm/hr 0.00 in0.0 mm
02:41 PM 52.0°F11.1°C 50.0°F10.0°C 93% 12.0 mph SW19.3 kmh SW 26.0 mph41.8 kmh 29.89 in1012.2 mb 0.00 in0.0 mm 0.00 in/hr0.0 mm/hr 0.00 in0.0 mm
02:40 PM 52.0°F11.1°C 50.0°F10.0°C 93% 12.0 mph SW19.3 kmh SW 26.0 mph41.8 kmh 29.89 in1012.2 mb 0.00 in0.0 mm 0.00 in/hr0.0 mm/hr 0.00 in0.0 mm
02:39 PM 52.0°F11.1°C 50.0°F10.0°C 93% 12.0 mph SW19.3 kmh SW 26.0 mph41.8 kmh 29.89 in1012.2 mb 0.00 in0.0 mm 0.00 in/hr0.0 mm/hr 0.00 in0.0 mm
02:38 PM 52.0°F11.1°C 50.0°F10.0°C 93% 12.0 mph SW19.3 kmh SW 26.0 mph41.8 kmh 29.89 in1012.2 mb 0.00 in0.0 mm 0.00 in/hr0.0 mm/hr 0.00 in0.0 mm
02:37 PM 52.0°F11.1°C 50.0°F10.0°C 93% 12.0 mph SW19.3 kmh SW 26.0 mph41.8 kmh 29.89 in1012.2 mb 0.00 in0.0 mm 0.00 in/hr0.0 mm/hr 0.00 in0.0 mm
02:36 PM 52.0°F11.1°C 50.0°F10.0°C 93% 12.0 mph SW19.3 kmh SW 26.0 mph41.8 kmh 29.89 in1012.2 mb 0.00 in0.0 mm 0.00 in/hr0.0 mm/hr 0.00 in0.0 mm
02:35 PM 52.0°F11.1°C 50.0°F10.0°C 93% 12.0 mph SW19.3 kmh SW 26.0 mph41.8 kmh 29.89 in1012.2 mb 0.00 in0.0 mm 0.00 in/hr0.0 mm/hr 0.00 in0.0 mm
02:34 PM 52.0°F11.1°C 50.0°F10.0°C 93% 12.0 mph SW19.3 kmh SW 26.0 mph41.8 kmh 29.89 in1012.2 mb 0.00 in0.0 mm 0.00 in/hr0.0 mm/hr 0.00 in0.0 mm
02:33 PM 52.0°F11.1°C 50.0°F10.0°C 93% 12.0 mph SW19.3 kmh SW 26.0 mph41.8 kmh 29.89 in1012.2 mb 0.00 in0.0 mm 0.00 in/hr0.0 mm/hr 0.00 in0.0 mm
02:32 PM 52.0°F11.1°C 50.0°F10.0°C 93% 11.0 mph SW17.7 kmh SW 23.0 mph37.0 kmh 29.89 in1012.2 mb 0.00 in0.0 mm 0.00 in/hr0.0 mm/hr 0.00 in0.0 mm
02:31 PM 52.0°F11.1°C 50.0°F10.0°C 93% 12.0 mph SW19.3 kmh SW 22.0 mph35.4 kmh 29.89 in1012.2 mb 0.00 in0.0 mm 0.00 in/hr0.0 mm/hr 0.00 in0.0 mm
02:30 PM 52.0°F11.1°C 50.0°F10.0°C 93% 12.0 mph SW19.3 kmh SW 23.0 mph37.0 kmh 29.89 in1012.2 mb 0.00 in0.0 mm 0.00 in/hr0.0 mm/hr 0.00 in0.0 mm
02:29 PM 52.0°F11.1°C 50.0°F10.0°C 93% 12.0 mph SW19.3 kmh SW 23.0 mph37.0 kmh 29.89 in1012.2 mb 0.00 in0.0 mm 0.00 in/hr0.0 mm/hr 0.00 in0.0 mm
02:28 PM 52.0°F11.1°C 50.0°F10.0°C 93% 12.0 mph SW19.3 kmh SW 23.0 mph37.0 kmh 29.89 in1012.2 mb 0.00 in0.0 mm 0.00 in/hr0.0 mm/hr 0.00 in0.0 mm
02:27 PM 52.0°F11.1°C 50.0°F10.0°C 93% 12.0 mph SW19.3 kmh SW 23.0 mph37.0 kmh 29.89 in1012.2 mb 0.00 in0.0 mm 0.00 in/hr0.0 mm/hr 0.00 in0.0 mm
02:26 PM 52.0°F11.1°C 50.0°F10.0°C 93% 12.0 mph SW19.3 kmh SW 23.0 mph37.0 kmh 29.89 in1012.2 mb 0.00 in0.0 mm 0.00 in/hr0.0 mm/hr 0.00 in0.0 mm
02:25 PM 52.0°F11.1°C 50.0°F10.0°C 93% 12.0 mph SW19.3 kmh SW 23.0 mph37.0 kmh 29.89 in1012.2 mb 0.00 in0.0 mm 0.00 in/hr0.0 mm/hr 0.00 in0.0 mm
02:24 PM 52.0°F11.1°C 50.0°F10.0°C 93% 12.0 mph SW19.3 kmh SW 23.0 mph37.0 kmh 29.89 in1012.2 mb 0.00 in0.0 mm 0.00 in/hr0.0 mm/hr 0.00 in0.0 mm
02:23 PM 52.0°F11.1°C 50.0°F10.0°C 93% 11.0 mph SW17.7 kmh SW 23.0 mph37.0 kmh 29.89 in1012.2 mb 0.00 in0.0 mm 0.00 in/hr0.0 mm/hr 0.00 in0.0 mm
02:22 PM 52.2°F11.2°C 50.2°F10.1°C 93% 11.0 mph SW17.7 kmh SW 23.0 mph37.0 kmh 29.89 in1012.2 mb 0.00 in0.0 mm 0.00 in/hr0.0 mm/hr 0.00 in0.0 mm
02:21 PM 52.2°F11.2°C 50.2°F10.1°C 93% 10.0 mph SW16.1 kmh SW 23.0 mph37.0 kmh 29.90 in1012.5 mb 0.00 in0.0 mm 0.00 in/hr0.0 mm/hr 0.00 in0.0 mm
02:20 PM 52.2°F11.2°C 50.2°F10.1°C 93% 10.0 mph SW16.1 kmh SW 19.0 mph30.6 kmh 29.90 in1012.5 mb 0.00 in0.0 mm 0.00 in/hr0.0 mm/hr 0.00 in0.0 mm
02:19 PM 52.2°F11.2°C 50.2°F10.1°C 93% 10.0 mph SW16.1 kmh SW 19.0 mph30.6 kmh 29.90 in1012.5 mb 0.00 in0.0 mm 0.00 in/hr0.0 mm/hr 0.00 in0.0 mm
02:18 PM 52.2°F11.2°C 50.2°F10.1°C 93% 10.0 mph SW16.1 kmh SW 21.0 mph33.8 kmh 29.90 in1012.5 mb 0.00 in0.0 mm 0.00 in/hr0.0 mm/hr 0.00 in0.0 mm
02:17 PM 52.2°F11.2°C 50.2°F10.1°C 93% 10.0 mph SW16.1 kmh SW 21.0 mph33.8 kmh 29.90 in1012.5 mb 0.00 in0.0 mm 0.00 in/hr0.0 mm/hr 0.00 in0.0 mm
02:16 PM 52.2°F11.2°C 50.2°F10.1°C 93% 10.0 mph SW16.1 kmh SW 21.0 mph33.8 kmh 29.90 in1012.5 mb 0.00 in0.0 mm 0.00 in/hr0.0 mm/hr 0.00 in0.0 mm
02:15 PM 52.2°F11.2°C 50.2°F10.1°C 93% 10.0 mph SW16.1 kmh SW 21.0 mph33.8 kmh 29.90 in1012.5 mb 0.00 in0.0 mm 0.00 in/hr0.0 mm/hr 0.00 in0.0 mm
02:14 PM 52.2°F11.2°C 50.2°F10.1°C 93% 10.0 mph SW16.1 kmh SW 21.0 mph33.8 kmh 29.90 in1012.5 mb 0.00 in0.0 mm 0.00 in/hr0.0 mm/hr 0.00 in0.0 mm
02:13 PM 52.2°F11.2°C 50.2°F10.1°C 93% 10.0 mph SW16.1 kmh SW 21.0 mph33.8 kmh 29.90 in1012.5 mb 0.00 in0.0 mm 0.00 in/hr0.0 mm/hr 0.00 in0.0 mm
02:12 PM 52.2°F11.2°C 50.2°F10.1°C 93% 11.0 mph SW17.7 kmh SW 21.0 mph33.8 kmh 29.90 in1012.5 mb 0.00 in0.0 mm 0.00 in/hr0.0 mm/hr 0.00 in0.0 mm
02:11 PM 52.2°F11.2°C 50.2°F10.1°C 93% 11.0 mph SW17.7 kmh SW 24.0 mph38.6 kmh 29.90 in1012.5 mb 0.00 in0.0 mm 0.00 in/hr0.0 mm/hr 0.00 in0.0 mm
02:10 PM 52.2°F11.2°C 50.2°F10.1°C 93% 11.0 mph SW17.7 kmh SW 24.0 mph38.6 kmh 29.90 in1012.5 mb 0.00 in0.0 mm 0.00 in/hr0.0 mm/hr 0.00 in0.0 mm
02:09 PM 52.2°F11.2°C 50.2°F10.1°C 93% 11.0 mph SW17.7 kmh SW 24.0 mph38.6 kmh 29.89 in1012.2 mb 0.00 in0.0 mm 0.00 in/hr0.0 mm/hr 0.00 in0.0 mm
02:08 PM 52.2°F11.2°C 50.2°F10.1°C 93% 11.0 mph SW17.7 kmh SW 24.0 mph38.6 kmh 29.90 in1012.5 mb 0.00 in0.0 mm 0.00 in/hr0.0 mm/hr 0.00 in0.0 mm
02:07 PM 52.2°F11.2°C 50.2°F10.1°C 93% 11.0 mph SW17.7 kmh SW 24.0 mph38.6 kmh 29.90 in1012.5 mb 0.00 in0.0 mm 0.00 in/hr0.0 mm/hr 0.00 in0.0 mm
02:06 PM 52.2°F11.2°C 50.2°F10.1°C 93% 12.0 mph SW19.3 kmh SW 24.0 mph38.6 kmh 29.90 in1012.5 mb 0.00 in0.0 mm 0.00 in/hr0.0 mm/hr 0.00 in0.0 mm
02:05 PM 52.3°F11.3°C 50.4°F10.2°C 93% 12.0 mph SW19.3 kmh SW 24.0 mph38.6 kmh 29.90 in1012.5 mb 0.00 in0.0 mm 0.00 in/hr0.0 mm/hr 0.00 in0.0 mm
02:04 PM 52.3°F11.3°C 50.4°F10.2°C 93% 12.0 mph SW19.3 kmh SW 24.0 mph38.6 kmh 29.90 in1012.5 mb 0.00 in0.0 mm 0.00 in/hr0.0 mm/hr 0.00 in0.0 mm
02:03 PM 52.3°F11.3°C 50.4°F10.2°C 93% 11.0 mph SW17.7 kmh SW 24.0 mph38.6 kmh 29.90 in1012.5 mb 0.00 in0.0 mm 0.00 in/hr0.0 mm/hr 0.00 in0.0 mm
02:02 PM 52.3°F11.3°C 50.4°F10.2°C 93% 11.0 mph SW17.7 kmh SW 24.0 mph38.6 kmh 29.91 in1012.9 mb 0.00 in0.0 mm 0.00 in/hr0.0 mm/hr 0.00 in0.0 mm
02:01 PM 52.3°F11.3°C 50.4°F10.2°C 93% 11.0 mph SW17.7 kmh SW 22.0 mph35.4 kmh 29.91 in1012.9 mb 0.00 in0.0 mm 0.00 in/hr0.0 mm/hr 0.00 in0.0 mm
02:00 PM 52.3°F11.3°C 50.4°F10.2°C 93% 11.0 mph SW17.7 kmh SW 22.0 mph35.4 kmh 29.91 in1012.9 mb 0.00 in0.0 mm 0.00 in/hr0.0 mm/hr 0.00 in0.0 mm
01:59 PM 52.3°F11.3°C 50.5°F10.3°C 94% 11.0 mph SW17.7 kmh SW 22.0 mph35.4 kmh 29.91 in1012.9 mb 0.00 in0.0 mm 0.00 in/hr0.0 mm/hr 0.00 in0.0 mm
01:58 PM 52.3°F11.3°C 50.4°F10.2°C 93% 11.0 mph SW17.7 kmh SW 22.0 mph35.4 kmh 29.91 in1012.9 mb 0.00 in0.0 mm 0.00 in/hr0.0 mm/hr 0.00 in0.0 mm
01:57 PM 52.3°F11.3°C 50.4°F10.2°C 93% 11.0 mph SW17.7 kmh SW 22.0 mph35.4 kmh 29.91 in1012.9 mb 0.00 in0.0 mm 0.00 in/hr0.0 mm/hr 0.00 in0.0 mm
01:56 PM 52.3°F11.3°C 50.4°F10.2°C 93% 11.0 mph SW17.7 kmh SW 22.0 mph35.4 kmh 29.91 in1012.9 mb 0.00 in0.0 mm 0.00 in/hr0.0 mm/hr 0.00 in0.0 mm
01:55 PM 52.3°F11.3°C 50.4°F10.2°C 93% 11.0 mph SW17.7 kmh SW 23.0 mph37.0 kmh 29.91 in1012.9 mb 0.00 in0.0 mm 0.00 in/hr0.0 mm/hr 0.00 in0.0 mm
01:54 PM 52.3°F11.3°C 50.4°F10.2°C 93% 11.0 mph SW17.7 kmh SW 23.0 mph37.0 kmh 29.91 in1012.9 mb 0.00 in0.0 mm 0.00 in/hr0.0 mm/hr 0.00 in0.0 mm
01:53 PM 52.3°F11.3°C 50.4°F10.2°C 93% 11.0 mph SW17.7 kmh SW 23.0 mph37.0 kmh 29.91 in1012.9 mb 0.00 in0.0 mm 0.00 in/hr0.0 mm/hr 0.00 in0.0 mm
01:52 PM 52.3°F11.3°C 50.4°F10.2°C 93% 11.0 mph SW17.7 kmh SW 23.0 mph37.0 kmh 29.91 in1012.9 mb 0.00 in0.0 mm 0.00 in/hr0.0 mm/hr 0.00 in0.0 mm
01:51 PM 52.3°F11.3°C 50.4°F10.2°C 93% 11.0 mph SW17.7 kmh SW 24.0 mph38.6 kmh 29.91 in1012.9 mb 0.00 in0.0 mm 0.00 in/hr0.0 mm/hr 0.00 in0.0 mm
01:50 PM 52.3°F11.3°C 50.4°F10.2°C 93% 12.0 mph SW19.3 kmh SW 24.0 mph38.6 kmh 29.91 in1012.9 mb 0.00 in0.0 mm 0.00 in/hr0.0 mm/hr 0.00 in0.0 mm
01:49 PM 52.3°F11.3°C 50.4°F10.2°C 93% 12.0 mph SW19.3 kmh SW 26.0 mph41.8 kmh 29.91 in1012.9 mb 0.00 in0.0 mm 0.00 in/hr0.0 mm/hr 0.00 in0.0 mm
01:48 PM 52.3°F11.3°C 50.4°F10.2°C 93% 12.0 mph SW19.3 kmh SW 26.0 mph41.8 kmh 29.91 in1012.9 mb 0.00 in0.0 mm 0.00 in/hr0.0 mm/hr 0.00 in0.0 mm
01:47 PM 52.3°F11.3°C 50.4°F10.2°C 93% 12.0 mph SW19.3 kmh SW 26.0 mph41.8 kmh 29.91 in1012.9 mb 0.00 in0.0 mm 0.00 in/hr0.0 mm/hr 0.00 in0.0 mm
01:46 PM 52.3°F11.3°C 50.4°F10.2°C 93% 12.0 mph SW19.3 kmh SW 26.0 mph41.8 kmh 29.90 in1012.5 mb 0.00 in0.0 mm 0.00 in/hr0.0 mm/hr 0.00 in0.0 mm
01:45 PM 52.3°F11.3°C 50.4°F10.2°C 93% 11.0 mph SW17.7 kmh SW 26.0 mph41.8 kmh 29.91 in1012.9 mb 0.00 in0.0 mm 0.00 in/hr0.0 mm/hr 0.00 in0.0 mm
01:44 PM 52.3°F11.3°C 50.4°F10.2°C 93% 11.0 mph SW17.7 kmh SW 26.0 mph41.8 kmh 29.91 in1012.9 mb 0.00 in0.0 mm 0.00 in/hr0.0 mm/hr 0.00 in0.0 mm
01:43 PM 52.3°F11.3°C 50.4°F10.2°C 93% 12.0 mph SW19.3 kmh SW 26.0 mph41.8 kmh 29.91 in1012.9 mb 0.00 in0.0 mm 0.00 in/hr0.0 mm/hr 0.00 in0.0 mm
01:42 PM 52.3°F11.3°C 50.4°F10.2°C 93% 12.0 mph SW19.3 kmh SW 26.0 mph41.8 kmh 29.91 in1012.9 mb 0.00 in0.0 mm 0.00 in/hr0.0 mm/hr 0.00 in0.0 mm
01:41 PM 52.3°F11.3°C 50.4°F10.2°C 93% 11.0 mph SW17.7 kmh SW 26.0 mph41.8 kmh 29.91 in1012.9 mb 0.00 in0.0 mm 0.00 in/hr0.0 mm/hr 0.00 in0.0 mm
01:40 PM 52.3°F11.3°C 50.4°F10.2°C 93% 11.0 mph SW17.7 kmh SW 26.0 mph41.8 kmh 29.91 in1012.9 mb 0.00 in0.0 mm 0.00 in/hr0.0 mm/hr 0.00 in0.0 mm
01:39 PM 52.3°F11.3°C 50.4°F10.2°C 93% 11.0 mph SW17.7 kmh SW 24.0 mph38.6 kmh 29.91 in1012.9 mb 0.00 in0.0 mm 0.00 in/hr0.0 mm/hr 0.00 in0.0 mm
01:38 PM 52.3°F11.3°C 50.4°F10.2°C 93% 11.0 mph SW17.7 kmh SW 24.0 mph38.6 kmh 29.91 in1012.9 mb 0.00 in0.0 mm 0.00 in/hr0.0 mm/hr 0.00 in0.0 mm
01:37 PM 52.3°F11.3°C 50.4°F10.2°C 93% 11.0 mph SW17.7 kmh SW 24.0 mph38.6 kmh 29.91 in1012.9 mb 0.00 in0.0 mm 0.00 in/hr0.0 mm/hr 0.00 in0.0 mm
01:36 PM 52.3°F11.3°C 50.4°F10.2°C 93% 11.0 mph SW17.7 kmh SW 24.0 mph38.6 kmh 29.91 in1012.9 mb 0.00 in0.0 mm 0.00 in/hr0.0 mm/hr 0.00 in0.0 mm
01:35 PM 52.3°F11.3°C 50.4°F10.2°C 93% 11.0 mph SW17.7 kmh SW 24.0 mph38.6 kmh 29.91 in1012.9 mb 0.00 in0.0 mm 0.00 in/hr0.0 mm/hr 0.00 in0.0 mm
01:34 PM 52.3°F11.3°C 50.4°F10.2°C 93% 11.0 mph SW17.7 kmh SW 24.0 mph38.6 kmh 29.91 in1012.9 mb 0.00 in0.0 mm 0.00 in/hr0.0 mm/hr 0.00 in0.0 mm
01:33 PM 52.3°F11.3°C 50.4°F10.2°C 93% 10.0 mph SW16.1 kmh SW 24.0 mph38.6 kmh 29.91 in1012.9 mb 0.00 in0.0 mm 0.00 in/hr0.0 mm/hr 0.00 in0.0 mm
01:32 PM 52.3°F11.3°C 50.4°F10.2°C 93% 11.0 mph SW17.7 kmh SW 24.0 mph38.6 kmh 29.91 in1012.9 mb 0.00 in0.0 mm 0.00 in/hr0.0 mm/hr 0.00 in0.0 mm
01:31 PM 52.3°F11.3°C 50.4°F10.2°C 93% 11.0 mph SW17.7 kmh SW 25.0 mph40.2 kmh 29.91 in1012.9 mb 0.00 in0.0 mm 0.00 in/hr0.0 mm/hr 0.00 in0.0 mm
01:30 PM 52.3°F11.3°C 50.4°F10.2°C 93% 10.0 mph SW16.1 kmh SW 25.0 mph40.2 kmh 29.91 in1012.9 mb 0.00 in0.0 mm 0.00 in/hr0.0 mm/hr 0.00 in0.0 mm
01:29 PM 52.3°F11.3°C 50.4°F10.2°C 93% 10.0 mph SW16.1 kmh SW 25.0 mph40.2 kmh 29.91 in1012.9 mb 0.00 in0.0 mm 0.00 in/hr0.0 mm/hr 0.00 in0.0 mm
01:28 PM 52.3°F11.3°C 50.4°F10.2°C 93% 10.0 mph SW16.1 kmh SW 25.0 mph40.2 kmh 29.91 in1012.9 mb 0.00 in0.0 mm 0.00 in/hr0.0 mm/hr 0.00 in0.0 mm
01:27 PM 52.3°F11.3°C 50.4°F10.2°C 93% 10.0 mph SW16.1 kmh SW 25.0 mph40.2 kmh 29.91 in1012.9 mb 0.00 in0.0 mm 0.00 in/hr0.0 mm/hr 0.00 in0.0 mm
01:26 PM 52.3°F11.3°C 50.4°F10.2°C 93% 11.0 mph SW17.7 kmh SW 25.0 mph40.2 kmh 29.91 in1012.9 mb 0.00 in0.0 mm 0.00 in/hr0.0 mm/hr 0.00 in0.0 mm
01:25 PM 52.3°F11.3°C 50.4°F10.2°C 93% 11.0 mph SW17.7 kmh SW 25.0 mph40.2 kmh 29.91 in1012.9 mb 0.00 in0.0 mm 0.00 in/hr0.0 mm/hr 0.00 in0.0 mm
01:24 PM 52.3°F11.3°C 50.4°F10.2°C 93% 11.0 mph SW17.7 kmh SW 25.0 mph40.2 kmh 29.91 in1012.9 mb 0.00 in0.0 mm 0.00 in/hr0.0 mm/hr 0.00 in0.0 mm
01:23 PM 52.3°F11.3°C 50.4°F10.2°C 93% 11.0 mph SW17.7 kmh SW 25.0 mph40.2 kmh 29.91 in1012.9 mb 0.00 in0.0 mm 0.00 in/hr0.0 mm/hr 0.00 in0.0 mm
01:22 PM 52.3°F11.3°C 50.4°F10.2°C 93% 11.0 mph WSW17.7 kmh WSW 25.0 mph40.2 kmh 29.91 in1012.9 mb 0.00 in0.0 mm 0.00 in/hr0.0 mm/hr 0.00 in0.0 mm
01:21 PM 52.3°F11.3°C 50.4°F10.2°C 93% 11.0 mph WSW17.7 kmh WSW 22.0 mph35.4 kmh 29.91 in1012.9 mb 0.00 in0.0 mm 0.00 in/hr0.0 mm/hr 0.00 in0.0 mm
01:20 PM 52.3°F11.3°C 50.4°F10.2°C 93% 11.0 mph WSW17.7 kmh WSW 24.0 mph38.6 kmh 29.91 in1012.9 mb 0.00 in0.0 mm 0.00 in/hr0.0 mm/hr 0.00 in0.0 mm
01:19 PM 52.3°F11.3°C 50.4°F10.2°C 93% 11.0 mph WSW17.7 kmh WSW 24.0 mph38.6 kmh 29.91 in1012.9 mb 0.00 in0.0 mm 0.00 in/hr0.0 mm/hr 0.00 in0.0 mm
01:18 PM 52.3°F11.3°C 50.4°F10.2°C 93% 11.0 mph WSW17.7 kmh WSW 24.0 mph38.6 kmh 29.91 in1012.9 mb 0.00 in0.0 mm 0.00 in/hr0.0 mm/hr 0.00 in0.0 mm
01:17 PM 52.3°F11.3°C 50.4°F10.2°C 93% 12.0 mph WSW19.3 kmh WSW 24.0 mph38.6 kmh 29.91 in1012.9 mb 0.00 in0.0 mm 0.00 in/hr0.0 mm/hr 0.00 in0.0 mm
01:16 PM 52.3°F11.3°C 50.4°F10.2°C 93% 12.0 mph WSW19.3 kmh WSW 24.0 mph38.6 kmh 29.91 in1012.9 mb 0.00 in0.0 mm 0.00 in/hr0.0 mm/hr 0.00 in0.0 mm
01:15 PM 52.3°F11.3°C 50.4°F10.2°C 93% 12.0 mph SW19.3 kmh SW 24.0 mph38.6 kmh 29.91 in1012.9 mb 0.00 in0.0 mm 0.00 in/hr0.0 mm/hr 0.00 in0.0 mm
01:14 PM 52.3°F11.3°C 50.4°F10.2°C 93% 12.0 mph SW19.3 kmh SW 25.0 mph40.2 kmh 29.91 in1012.9 mb 0.00 in0.0 mm 0.00 in/hr0.0 mm/hr 0.00 in0.0 mm
01:13 PM 52.3°F11.3°C 50.4°F10.2°C 93% 13.0 mph SW20.9 kmh SW 27.0 mph43.5 kmh 29.91 in1012.9 mb 0.00 in0.0 mm 0.00 in/hr0.0 mm/hr 0.00 in0.0 mm
01:12 PM 52.3°F11.3°C 50.4°F10.2°C 93% 13.0 mph SW20.9 kmh SW 27.0 mph43.5 kmh 29.91 in1012.9 mb 0.00 in0.0 mm 0.00 in/hr0.0 mm/hr 0.00 in0.0 mm
01:11 PM 52.3°F11.3°C 50.4°F10.2°C 93% 13.0 mph SW20.9 kmh SW 27.0 mph43.5 kmh 29.91 in1012.9 mb 0.00 in0.0 mm 0.00 in/hr0.0 mm/hr 0.00 in0.0 mm
01:10 PM 52.3°F11.3°C 50.4°F10.2°C 93% 13.0 mph SW20.9 kmh SW 27.0 mph43.5 kmh 29.90 in1012.5 mb 0.00 in0.0 mm 0.00 in/hr0.0 mm/hr 0.00 in0.0 mm
01:09 PM 52.3°F11.3°C 50.4°F10.2°C 93% 14.0 mph SW22.5 kmh SW 27.0 mph43.5 kmh 29.91 in1012.9 mb 0.00 in0.0 mm 0.00 in/hr0.0 mm/hr 0.00 in0.0 mm
01:08 PM 52.3°F11.3°C 50.4°F10.2°C 93% 14.0 mph SW22.5 kmh SW 27.0 mph43.5 kmh 29.91 in1012.9 mb 0.00 in0.0 mm 0.00 in/hr0.0 mm/hr 0.00 in0.0 mm
01:07 PM 52.3°F11.3°C 50.4°F10.2°C 93% 14.0 mph SW22.5 kmh SW 27.0 mph43.5 kmh 29.91 in1012.9 mb 0.00 in0.0 mm 0.00 in/hr0.0 mm/hr 0.00 in0.0 mm
01:06 PM 52.5°F11.4°C 50.5°F10.3°C 93% 14.0 mph SW22.5 kmh SW 27.0 mph43.5 kmh 29.91 in1012.9 mb 0.00 in0.0 mm 0.00 in/hr0.0 mm/hr 0.00 in0.0 mm
01:05 PM 52.5°F11.4°C 50.5°F10.3°C 93% 14.0 mph SW22.5 kmh SW 27.0 mph43.5 kmh 29.91 in1012.9 mb 0.00 in0.0 mm 0.00 in/hr0.0 mm/hr 0.00 in0.0 mm
01:04 PM 52.5°F11.4°C 50.5°F10.3°C 93% 14.0 mph SW22.5 kmh SW 27.0 mph43.5 kmh 29.91 in1012.9 mb 0.00 in0.0 mm 0.00 in/hr0.0 mm/hr 0.00 in0.0 mm
01:03 PM 52.5°F11.4°C 50.5°F10.3°C 93% 13.0 mph SW20.9 kmh SW 24.0 mph38.6 kmh 29.91 in1012.9 mb 0.00 in0.0 mm 0.00 in/hr0.0 mm/hr 0.00 in0.0 mm
01:02 PM 52.5°F11.4°C 50.5°F10.3°C 93% 13.0 mph SW20.9 kmh SW 24.0 mph38.6 kmh 29.91 in1012.9 mb 0.00 in0.0 mm 0.00 in/hr0.0 mm/hr 0.00 in0.0 mm
01:01 PM 52.5°F11.4°C 50.5°F10.3°C 93% 13.0 mph SW20.9 kmh SW 24.0 mph38.6 kmh 29.91 in1012.9 mb 0.00 in0.0 mm 0.00 in/hr0.0 mm/hr 0.00 in0.0 mm
01:00 PM 52.5°F11.4°C 50.5°F10.3°C 93% 13.0 mph SW20.9 kmh SW 24.0 mph38.6 kmh 29.92 in1013.2 mb 0.00 in0.0 mm 0.00 in/hr0.0 mm/hr 0.00 in0.0 mm
12:59 PM 52.5°F11.4°C 50.5°F10.3°C 93% 13.0 mph SW20.9 kmh SW 24.0 mph38.6 kmh 29.92 in1013.2 mb 0.00 in0.0 mm 0.00 in/hr0.0 mm/hr 0.00 in0.0 mm
12:58 PM 52.5°F11.4°C 50.7°F10.4°C 93% 13.0 mph SW20.9 kmh SW 24.0 mph38.6 kmh 29.92 in1013.2 mb 0.00 in0.0 mm 0.00 in/hr0.0 mm/hr 0.00 in0.0 mm
12:57 PM 52.5°F11.4°C 50.7°F10.4°C 93% 13.0 mph SW20.9 kmh SW 24.0 mph38.6 kmh 29.92 in1013.2 mb 0.00 in0.0 mm 0.00 in/hr0.0 mm/hr 0.00 in0.0 mm
12:56 PM 52.5°F11.4°C 50.7°F10.4°C 93% 13.0 mph SW20.9 kmh SW 24.0 mph38.6 kmh 29.92 in1013.2 mb 0.00 in0.0 mm 0.00 in/hr0.0 mm/hr 0.00 in0.0 mm
12:55 PM 52.5°F11.4°C 50.7°F10.4°C 93% 13.0 mph SW20.9 kmh SW 24.0 mph38.6 kmh 29.91 in1012.9 mb 0.00 in0.0 mm 0.00 in/hr0.0 mm/hr 0.00 in0.0 mm
12:54 PM 52.5°F11.4°C 50.7°F10.4°C 93% 13.0 mph SW20.9 kmh SW 24.0 mph38.6 kmh 29.91 in1012.9 mb 0.00 in0.0 mm 0.00 in/hr0.0 mm/hr 0.00 in0.0 mm
12:53 PM 52.5°F11.4°C 50.7°F10.4°C 93% 13.0 mph SW20.9 kmh SW 24.0 mph38.6 kmh 29.91 in1012.9 mb 0.00 in0.0 mm 0.00 in/hr0.0 mm/hr 0.00 in0.0 mm
12:52 PM 52.5°F11.4°C 50.7°F10.4°C 93% 13.0 mph SW20.9 kmh SW 24.0 mph38.6 kmh 29.92 in1013.2 mb 0.00 in0.0 mm 0.00 in/hr0.0 mm/hr 0.00 in0.0 mm
12:51 PM 52.5°F11.4°C 50.7°F10.4°C 93% 13.0 mph SW20.9 kmh SW 24.0 mph38.6 kmh 29.92 in1013.2 mb 0.00 in0.0 mm 0.00 in/hr0.0 mm/hr 0.00 in0.0 mm
12:50 PM 52.5°F11.4°C 50.7°F10.4°C 93% 13.0 mph SW20.9 kmh SW 24.0 mph38.6 kmh 29.92 in1013.2 mb 0.00 in0.0 mm 0.00 in/hr0.0 mm/hr 0.00 in0.0 mm
12:49 PM 52.5°F11.4°C 50.7°F10.4°C 93% 13.0 mph SW20.9 kmh SW 24.0 mph38.6 kmh 29.91 in1012.9 mb 0.00 in0.0 mm 0.00 in/hr0.0 mm/hr 0.00 in0.0 mm
12:48 PM 52.5°F11.4°C 50.7°F10.4°C 93% 12.0 mph SW19.3 kmh SW 24.0 mph38.6 kmh 29.92 in1013.2 mb 0.00 in0.0 mm 0.00 in/hr0.0 mm/hr 0.00 in0.0 mm
12:47 PM 52.5°F11.4°C 50.7°F10.4°C 93% 12.0 mph SW19.3 kmh SW 24.0 mph38.6 kmh 29.92 in1013.2 mb 0.00 in0.0 mm 0.00 in/hr0.0 mm/hr 0.00 in0.0 mm
12:46 PM 52.5°F11.4°C 50.7°F10.4°C 93% 13.0 mph SW20.9 kmh SW 22.0 mph35.4 kmh 29.91 in1012.9 mb 0.00 in0.0 mm 0.00 in/hr0.0 mm/hr 0.00 in0.0 mm
12:45 PM 52.7°F11.5°C 50.7°F10.4°C 93% 13.0 mph SW20.9 kmh SW 22.0 mph35.4 kmh 29.91 in1012.9 mb 0.00 in0.0 mm 0.00 in/hr0.0 mm/hr 0.00 in0.0 mm
12:44 PM 52.7°F11.5°C 50.7°F10.4°C 93% 13.0 mph SW20.9 kmh SW 22.0 mph35.4 kmh 29.92 in1013.2 mb 0.00 in0.0 mm 0.00 in/hr0.0 mm/hr 0.00 in0.0 mm
12:43 PM 52.7°F11.5°C 50.7°F10.4°C 93% 13.0 mph SW20.9 kmh SW 22.0 mph35.4 kmh 29.91 in1012.9 mb 0.00 in0.0 mm 0.00 in/hr0.0 mm/hr 0.00 in0.0 mm
12:42 PM 52.7°F11.5°C 50.7°F10.4°C 93% 13.0 mph SW20.9 kmh SW 23.0 mph37.0 kmh 29.91 in1012.9 mb 0.00 in0.0 mm 0.00 in/hr0.0 mm/hr 0.00 in0.0 mm
12:41 PM 52.7°F11.5°C 50.7°F10.4°C 93% 13.0 mph SW20.9 kmh SW 23.0 mph37.0 kmh 29.91 in1012.9 mb 0.00 in0.0 mm 0.00 in/hr0.0 mm/hr 0.00 in0.0 mm
12:40 PM 52.7°F11.5°C 50.7°F10.4°C 93% 14.0 mph SW22.5 kmh SW 23.0 mph37.0 kmh 29.91 in1012.9 mb 0.00 in0.0 mm 0.00 in/hr0.0 mm/hr 0.00 in0.0 mm
12:39 PM 52.7°F11.5°C 50.7°F10.4°C 93% 14.0 mph SW22.5 kmh SW 31.0 mph49.9 kmh 29.92 in1013.2 mb 0.00 in0.0 mm 0.00 in/hr0.0 mm/hr 0.00 in0.0 mm
12:38 PM 52.7°F11.5°C 50.7°F10.4°C 93% 14.0 mph SW22.5 kmh SW 31.0 mph49.9 kmh 29.92 in1013.2 mb 0.00 in0.0 mm 0.00 in/hr0.0 mm/hr 0.00 in0.0 mm
12:37 PM 52.7°F11.5°C 50.7°F10.4°C 93% 14.0 mph SW22.5 kmh SW 31.0 mph49.9 kmh 29.92 in1013.2 mb 0.00 in0.0 mm 0.00 in/hr0.0 mm/hr 0.00 in0.0 mm
12:36 PM 52.7°F11.5°C 50.7°F10.4°C 93% 14.0 mph SW22.5 kmh SW 31.0 mph49.9 kmh 29.92 in1013.2 mb 0.00 in0.0 mm 0.00 in/hr0.0 mm/hr 0.00 in0.0 mm
12:35 PM 52.7°F11.5°C 50.7°F10.4°C 93% 14.0 mph SW22.5 kmh SW 31.0 mph49.9 kmh 29.92 in1013.2 mb 0.00 in0.0 mm 0.00 in/hr0.0 mm/hr 0.00 in0.0 mm
12:34 PM 52.5°F11.4°C 50.7°F10.4°C 93% 14.0 mph SW22.5 kmh SW 31.0 mph49.9 kmh 29.92 in1013.2 mb 0.00 in0.0 mm 0.00 in/hr0.0 mm/hr 0.00 in0.0 mm
12:33 PM 52.7°F11.5°C 50.7°F10.4°C 93% 14.0 mph SW22.5 kmh SW 31.0 mph49.9 kmh 29.91 in1012.9 mb 0.00 in0.0 mm 0.00 in/hr0.0 mm/hr 0.00 in0.0 mm
12:32 PM 52.7°F11.5°C 50.7°F10.4°C 93% 14.0 mph SW22.5 kmh SW 31.0 mph49.9 kmh 29.91 in1012.9 mb 0.00 in0.0 mm 0.00 in/hr0.0 mm/hr 0.00 in0.0 mm
12:31 PM 52.7°F11.5°C 50.7°F10.4°C 93% 14.0 mph SW22.5 kmh SW 31.0 mph49.9 kmh 29.91 in1012.9 mb 0.00 in0.0 mm 0.00 in/hr0.0 mm/hr 0.00 in0.0 mm
12:30 PM 52.7°F11.5°C 50.7°F10.4°C 93% 14.0 mph SW22.5 kmh SW 31.0 mph49.9 kmh 29.92 in1013.2 mb 0.00 in0.0 mm 0.00 in/hr0.0 mm/hr 0.00 in0.0 mm
12:29 PM 52.7°F11.5°C 50.7°F10.4°C 93% 14.0 mph SW22.5 kmh SW 27.0 mph43.5 kmh 29.92 in1013.2 mb 0.00 in0.0 mm 0.00 in/hr0.0 mm/hr 0.00 in0.0 mm
12:28 PM 52.7°F11.5°C 50.7°F10.4°C 93% 14.0 mph SW22.5 kmh SW 27.0 mph43.5 kmh 29.91 in1012.9 mb 0.00 in0.0 mm 0.00 in/hr0.0 mm/hr 0.00 in0.0 mm
12:27 PM 52.5°F11.4°C 50.7°F10.4°C 93% 15.0 mph SW24.1 kmh SW 27.0 mph43.5 kmh 29.92 in1013.2 mb 0.00 in0.0 mm 0.00 in/hr0.0 mm/hr 0.00 in0.0 mm
12:26 PM 52.7°F11.5°C 50.7°F10.4°C 93% 15.0 mph SW24.1 kmh SW 27.0 mph43.5 kmh 29.92 in1013.2 mb 0.00 in0.0 mm 0.00 in/hr0.0 mm/hr 0.00 in0.0 mm
12:25 PM 52.7°F11.5°C 50.7°F10.4°C 93% 15.0 mph SW24.1 kmh SW 27.0 mph43.5 kmh 29.92 in1013.2 mb 0.00 in0.0 mm 0.00 in/hr0.0 mm/hr 0.00 in0.0 mm
12:24 PM 52.5°F11.4°C 50.7°F10.4°C 93% 15.0 mph SW24.1 kmh SW 27.0 mph43.5 kmh 29.92 in1013.2 mb 0.00 in0.0 mm 0.00 in/hr0.0 mm/hr 0.00 in0.0 mm
12:23 PM 52.5°F11.4°C 50.7°F10.4°C 93% 15.0 mph SW24.1 kmh SW 32.0 mph51.5 kmh 29.92 in1013.2 mb 0.00 in0.0 mm 0.00 in/hr0.0 mm/hr 0.00 in0.0 mm
12:22 PM 52.5°F11.4°C 50.7°F10.4°C 93% 15.0 mph SW24.1 kmh SW 32.0 mph51.5 kmh 29.92 in1013.2 mb 0.00 in0.0 mm 0.00 in/hr0.0 mm/hr 0.00 in0.0 mm
12:21 PM 52.5°F11.4°C 50.7°F10.4°C 93% 15.0 mph SW24.1 kmh SW 32.0 mph51.5 kmh 29.92 in1013.2 mb 0.00 in0.0 mm 0.00 in/hr0.0 mm/hr 0.00 in0.0 mm
12:20 PM 52.5°F11.4°C 50.7°F10.4°C 93% 15.0 mph SW24.1 kmh SW 32.0 mph51.5 kmh 29.92 in1013.2 mb 0.00 in0.0 mm 0.00 in/hr0.0 mm/hr 0.00 in0.0 mm
12:19 PM 52.5°F11.4°C 50.7°F10.4°C 93% 15.0 mph SW24.1 kmh SW 32.0 mph51.5 kmh 29.92 in1013.2 mb 0.00 in0.0 mm 0.00 in/hr0.0 mm/hr 0.00 in0.0 mm
12:18 PM 52.5°F11.4°C 50.7°F10.4°C 93% 15.0 mph SW24.1 kmh SW 32.0 mph51.5 kmh 29.91 in1012.9 mb 0.00 in0.0 mm 0.00 in/hr0.0 mm/hr 0.00 in0.0 mm
12:17 PM 52.5°F11.4°C 50.7°F10.4°C 93% 15.0 mph SW24.1 kmh SW 32.0 mph51.5 kmh 29.92 in1013.2 mb 0.00 in0.0 mm 0.00 in/hr0.0 mm/hr 0.00 in0.0 mm
12:16 PM 52.5°F11.4°C 50.7°F10.4°C 93% 16.0 mph SW25.7 kmh SW 32.0 mph51.5 kmh 29.92 in1013.2 mb 0.00 in0.0 mm 0.00 in/hr0.0 mm/hr 0.00 in0.0 mm
12:15 PM 52.5°F11.4°C 50.5°F10.3°C 93% 16.0 mph SW25.7 kmh SW 32.0 mph51.5 kmh 29.91 in1012.9 mb 0.00 in0.0 mm 0.00 in/hr0.0 mm/hr 0.00 in0.0 mm
12:14 PM 52.5°F11.4°C 50.7°F10.4°C 93% 15.0 mph SW24.1 kmh SW 32.0 mph51.5 kmh 29.91 in1012.9 mb 0.00 in0.0 mm 0.00 in/hr0.0 mm/hr 0.00 in0.0 mm
12:13 PM 52.5°F11.4°C 50.7°F10.4°C 93% 15.0 mph SW24.1 kmh SW 30.0 mph48.3 kmh 29.92 in1013.2 mb 0.00 in0.0 mm 0.00 in/hr0.0 mm/hr 0.00 in0.0 mm
12:12 PM 52.5°F11.4°C 50.7°F10.4°C 93% 14.0 mph SW22.5 kmh SW 30.0 mph48.3 kmh 29.91 in1012.9 mb 0.00 in0.0 mm 0.00 in/hr0.0 mm/hr 0.00 in0.0 mm
12:11 PM 52.5°F11.4°C 50.7°F10.4°C 93% 14.0 mph SW22.5 kmh SW 30.0 mph48.3 kmh 29.91 in1012.9 mb 0.00 in0.0 mm 0.00 in/hr0.0 mm/hr 0.00 in0.0 mm
12:10 PM 52.5°F11.4°C 50.5°F10.3°C 93% 14.0 mph SW22.5 kmh SW 30.0 mph48.3 kmh 29.91 in1012.9 mb 0.00 in0.0 mm 0.00 in/hr0.0 mm/hr 0.00 in0.0 mm
12:09 PM 52.5°F11.4°C 50.7°F10.4°C 93% 14.0 mph SW22.5 kmh SW 30.0 mph48.3 kmh 29.91 in1012.9 mb 0.00 in0.0 mm 0.00 in/hr0.0 mm/hr 0.00 in0.0 mm
12:08 PM 52.5°F11.4°C 50.7°F10.4°C 93% 14.0 mph SW22.5 kmh SW 30.0 mph48.3 kmh 29.91 in1012.9 mb 0.00 in0.0 mm 0.00 in/hr0.0 mm/hr 0.00 in0.0 mm
12:07 PM 52.5°F11.4°C 50.7°F10.4°C 93% 14.0 mph SW22.5 kmh SW 27.0 mph43.5 kmh 29.91 in1012.9 mb 0.00 in0.0 mm 0.00 in/hr0.0 mm/hr 0.00 in0.0 mm
12:06 PM 52.5°F11.4°C 50.7°F10.4°C 93% 13.0 mph SW20.9 kmh SW 27.0 mph43.5 kmh 29.91 in1012.9 mb 0.00 in0.0 mm 0.00 in/hr0.0 mm/hr 0.00 in0.0 mm
12:05 PM 52.5°F11.4°C 50.7°F10.4°C 93% 14.0 mph SW22.5 kmh SW 29.0 mph46.7 kmh 29.91 in1012.9 mb 0.00 in0.0 mm 0.00 in/hr0.0 mm/hr 0.00 in0.0 mm
12:04 PM 52.5°F11.4°C 50.7°F10.4°C 93% 14.0 mph SW22.5 kmh SW 29.0 mph46.7 kmh 29.91 in1012.9 mb 0.00 in0.0 mm 0.00 in/hr0.0 mm/hr 0.00 in0.0 mm
12:03 PM 52.5°F11.4°C 50.7°F10.4°C 93% 13.0 mph SW20.9 kmh SW 29.0 mph46.7 kmh 29.91 in1012.9 mb 0.00 in0.0 mm 0.00 in/hr0.0 mm/hr 0.00 in0.0 mm
12:02 PM 52.5°F11.4°C 50.7°F10.4°C 93% 13.0 mph SW20.9 kmh SW 29.0 mph46.7 kmh 29.91 in1012.9 mb 0.00 in0.0 mm 0.00 in/hr0.0 mm/hr 0.00 in0.0 mm
12:01 PM 52.5°F11.4°C 50.7°F10.4°C 93% 14.0 mph SW22.5 kmh SW 29.0 mph46.7 kmh 29.91 in1012.9 mb 0.00 in0.0 mm 0.00 in/hr0.0 mm/hr 0.00 in0.0 mm
12:00 PM 52.5°F11.4°C 50.7°F10.4°C 93% 14.0 mph SW22.5 kmh SW 29.0 mph46.7 kmh 29.91 in1012.9 mb 0.00 in0.0 mm 0.00 in/hr0.0 mm/hr 0.00 in0.0 mm
11:59 AM 52.5°F11.4°C 50.7°F10.4°C 93% 14.0 mph SW22.5 kmh SW 29.0 mph46.7 kmh 29.91 in1012.9 mb 0.00 in0.0 mm 0.00 in/hr0.0 mm/hr 0.00 in0.0 mm
11:58 AM 52.5°F11.4°C 50.7°F10.4°C 93% 15.0 mph SW24.1 kmh SW 29.0 mph46.7 kmh 29.91 in1012.9 mb 0.00 in0.0 mm 0.00 in/hr0.0 mm/hr 0.00 in0.0 mm
11:57 AM 52.5°F11.4°C 50.7°F10.4°C 93% 15.0 mph SW24.1 kmh SW 29.0 mph46.7 kmh 29.91 in1012.9 mb 0.00 in0.0 mm 0.00 in/hr0.0 mm/hr 0.00 in0.0 mm
11:56 AM 52.5°F11.4°C 50.5°F10.3°C 93% 15.0 mph SW24.1 kmh SW 29.0 mph46.7 kmh 29.91 in1012.9 mb 0.00 in0.0 mm 0.00 in/hr0.0 mm/hr 0.00 in0.0 mm
11:55 AM 52.5°F11.4°C 50.7°F10.4°C 93% 15.0 mph SW24.1 kmh SW 31.0 mph49.9 kmh 29.91 in1012.9 mb 0.00 in0.0 mm 0.00 in/hr0.0 mm/hr 0.00 in0.0 mm
11:54 AM 52.5°F11.4°C 50.7°F10.4°C 93% 15.0 mph SW24.1 kmh SW 31.0 mph49.9 kmh 29.91 in1012.9 mb 0.00 in0.0 mm 0.00 in/hr0.0 mm/hr 0.00 in0.0 mm
11:53 AM 52.5°F11.4°C 50.7°F10.4°C 93% 16.0 mph SW25.7 kmh SW 31.0 mph49.9 kmh 29.91 in1012.9 mb 0.00 in0.0 mm 0.00 in/hr0.0 mm/hr 0.00 in0.0 mm
11:52 AM 52.5°F11.4°C 50.7°F10.4°C 93% 16.0 mph SW25.7 kmh SW 31.0 mph49.9 kmh 29.91 in1012.9 mb 0.00 in0.0 mm 0.00 in/hr0.0 mm/hr 0.00 in0.0 mm
11:51 AM 52.5°F11.4°C 50.7°F10.4°C 93% 17.0 mph SW27.4 kmh SW 31.0 mph49.9 kmh 29.92 in1013.2 mb 0.00 in0.0 mm 0.00 in/hr0.0 mm/hr 0.00 in0.0 mm
11:50 AM 52.5°F11.4°C 50.7°F10.4°C 93% 16.0 mph SW25.7 kmh SW 31.0 mph49.9 kmh 29.91 in1012.9 mb 0.00 in0.0 mm 0.00 in/hr0.0 mm/hr 0.00 in0.0 mm
11:49 AM 52.5°F11.4°C 50.7°F10.4°C 93% 16.0 mph SW25.7 kmh SW 31.0 mph49.9 kmh 29.91 in1012.9 mb 0.00 in0.0 mm 0.00 in/hr0.0 mm/hr 0.00 in0.0 mm
11:48 AM 52.5°F11.4°C 50.7°F10.4°C 93% 16.0 mph SW25.7 kmh SW 31.0 mph49.9 kmh 29.91 in1012.9 mb 0.00 in0.0 mm 0.00 in/hr0.0 mm/hr 0.00 in0.0 mm
11:47 AM 52.5°F11.4°C 50.7°F10.4°C 93% 16.0 mph SW25.7 kmh SW 31.0 mph49.9 kmh 29.92 in1013.2 mb 0.00 in0.0 mm 0.00 in/hr0.0 mm/hr 0.00 in0.0 mm
11:46 AM 52.5°F11.4°C 50.7°F10.4°C 93% 16.0 mph SW25.7 kmh SW 31.0 mph49.9 kmh 29.91 in1012.9 mb 0.00 in0.0 mm 0.00 in/hr0.0 mm/hr 0.00 in0.0 mm
11:45 AM 52.5°F11.4°C 50.7°F10.4°C 93% 15.0 mph SW24.1 kmh SW 31.0 mph49.9 kmh 29.92 in1013.2 mb 0.00 in0.0 mm 0.00 in/hr0.0 mm/hr 0.00 in0.0 mm
11:44 AM 52.5°F11.4°C 50.7°F10.4°C 93% 15.0 mph SW24.1 kmh SW 31.0 mph49.9 kmh 29.91 in1012.9 mb 0.00 in0.0 mm 0.00 in/hr0.0 mm/hr 0.00 in0.0 mm
11:43 AM 52.5°F11.4°C 50.7°F10.4°C 93% 15.0 mph SW24.1 kmh SW 29.0 mph46.7 kmh 29.92 in1013.2 mb 0.00 in0.0 mm 0.00 in/hr0.0 mm/hr 0.00 in0.0 mm
11:42 AM 52.5°F11.4°C 50.7°F10.4°C 93% 14.0 mph SW22.5 kmh SW 29.0 mph46.7 kmh 29.91 in1012.9 mb 0.00 in0.0 mm 0.00 in/hr0.0 mm/hr 0.00 in0.0 mm
11:41 AM 52.5°F11.4°C 50.7°F10.4°C 93% 14.0 mph SW22.5 kmh SW 29.0 mph46.7 kmh 29.92 in1013.2 mb 0.00 in0.0 mm 0.00 in/hr0.0 mm/hr 0.00 in0.0 mm
11:40 AM 52.5°F11.4°C 50.7°F10.4°C 93% 14.0 mph SW22.5 kmh SW 29.0 mph46.7 kmh 29.92 in1013.2 mb 0.00 in0.0 mm 0.00 in/hr0.0 mm/hr 0.00 in0.0 mm
11:39 AM 52.5°F11.4°C 50.7°F10.4°C 93% 14.0 mph SW22.5 kmh SW 29.0 mph46.7 kmh 29.92 in1013.2 mb 0.00 in0.0 mm 0.00 in/hr0.0 mm/hr 0.00 in0.0 mm
11:38 AM 52.5°F11.4°C 50.7°F10.4°C 93% 13.0 mph SW20.9 kmh SW 29.0 mph46.7 kmh 29.91 in1012.9 mb 0.00 in0.0 mm 0.00 in/hr0.0 mm/hr 0.00 in0.0 mm
11:37 AM 52.5°F11.4°C 50.5°F10.3°C 93% 13.0 mph SW20.9 kmh SW 29.0 mph46.7 kmh 29.91 in1012.9 mb 0.00 in0.0 mm 0.00 in/hr0.0 mm/hr 0.00 in0.0 mm
11:36 AM 52.5°F11.4°C 50.5°F10.3°C 93% 13.0 mph SW20.9 kmh SW 29.0 mph46.7 kmh 29.92 in1013.2 mb 0.00 in0.0 mm 0.00 in/hr0.0 mm/hr 0.00 in0.0 mm
11:35 AM 52.5°F11.4°C 50.5°F10.3°C 93% 13.0 mph SW20.9 kmh SW 29.0 mph46.7 kmh 29.91 in1012.9 mb 0.00 in0.0 mm 0.00 in/hr0.0 mm/hr 0.00 in0.0 mm
11:34 AM 52.5°F11.4°C 50.5°F10.3°C 93% 13.0 mph SW20.9 kmh SW 29.0 mph46.7 kmh 29.91 in1012.9 mb 0.00 in0.0 mm 0.00 in/hr0.0 mm/hr 0.00 in0.0 mm
11:33 AM 52.5°F11.4°C 50.5°F10.3°C 93% 13.0 mph SW20.9 kmh SW 29.0 mph46.7 kmh 29.92 in1013.2 mb 0.00 in0.0 mm 0.00 in/hr0.0 mm/hr 0.00 in0.0 mm
11:32 AM 52.5°F11.4°C 50.5°F10.3°C 93% 13.0 mph SW20.9 kmh SW 29.0 mph46.7 kmh 29.91 in1012.9 mb 0.00 in0.0 mm 0.00 in/hr0.0 mm/hr 0.00 in0.0 mm
11:31 AM 52.5°F11.4°C 50.5°F10.3°C 93% 13.0 mph SW20.9 kmh SW 23.0 mph37.0 kmh 29.91 in1012.9 mb 0.00 in0.0 mm 0.00 in/hr0.0 mm/hr 0.00 in0.0 mm
11:30 AM 52.5°F11.4°C 50.5°F10.3°C 93% 13.0 mph SW20.9 kmh SW 25.0 mph40.2 kmh 29.91 in1012.9 mb 0.00 in0.0 mm 0.00 in/hr0.0 mm/hr 0.00 in0.0 mm
11:29 AM 52.5°F11.4°C 50.5°F10.3°C 93% 13.0 mph SW20.9 kmh SW 25.0 mph40.2 kmh 29.91 in1012.9 mb 0.00 in0.0 mm 0.00 in/hr0.0 mm/hr 0.00 in0.0 mm
11:28 AM 52.5°F11.4°C 50.5°F10.3°C 93% 13.0 mph SW20.9 kmh SW 25.0 mph40.2 kmh 29.91 in1012.9 mb 0.00 in0.0 mm 0.00 in/hr0.0 mm/hr 0.00 in0.0 mm
11:27 AM 52.5°F11.4°C 50.7°F10.4°C 93% 14.0 mph SW22.5 kmh SW 25.0 mph40.2 kmh 29.92 in1013.2 mb 0.00 in0.0 mm 0.00 in/hr0.0 mm/hr 0.00 in0.0 mm
11:26 AM 52.5°F11.4°C 50.5°F10.3°C 93% 14.0 mph SW22.5 kmh SW 25.0 mph40.2 kmh 29.91 in1012.9 mb 0.00 in0.0 mm 0.00 in/hr0.0 mm/hr 0.00 in0.0 mm
11:25 AM 52.5°F11.4°C 50.7°F10.4°C 93% 14.0 mph SW22.5 kmh SW 25.0 mph40.2 kmh 29.91 in1012.9 mb 0.00 in0.0 mm 0.00 in/hr0.0 mm/hr 0.00 in0.0 mm
11:24 AM 52.5°F11.4°C 50.5°F10.3°C 93% 14.0 mph SW22.5 kmh SW 26.0 mph41.8 kmh 29.91 in1012.9 mb 0.00 in0.0 mm 0.00 in/hr0.0 mm/hr 0.00 in0.0 mm
11:23 AM 52.5°F11.4°C 50.5°F10.3°C 93% 15.0 mph SW24.1 kmh SW 26.0 mph41.8 kmh 29.91 in1012.9 mb 0.00 in0.0 mm 0.00 in/hr0.0 mm/hr 0.00 in0.0 mm
11:22 AM 52.5°F11.4°C 50.5°F10.3°C 93% 15.0 mph SW24.1 kmh SW 28.0 mph45.1 kmh 29.91 in1012.9 mb 0.00 in0.0 mm 0.00 in/hr0.0 mm/hr 0.00 in0.0 mm
11:21 AM 52.5°F11.4°C 50.5°F10.3°C 93% 14.0 mph SW22.5 kmh SW 28.0 mph45.1 kmh 29.91 in1012.9 mb 0.00 in0.0 mm 0.00 in/hr0.0 mm/hr 0.00 in0.0 mm
11:20 AM 52.5°F11.4°C 50.5°F10.3°C 93% 14.0 mph SW22.5 kmh SW 28.0 mph45.1 kmh 29.91 in1012.9 mb 0.00 in0.0 mm 0.00 in/hr0.0 mm/hr 0.00 in0.0 mm
11:19 AM 52.5°F11.4°C 50.5°F10.3°C 93% 14.0 mph SW22.5 kmh SW 28.0 mph45.1 kmh 29.91 in1012.9 mb 0.00 in0.0 mm 0.00 in/hr0.0 mm/hr 0.00 in0.0 mm
11:18 AM 52.5°F11.4°C 50.7°F10.4°C 93% 14.0 mph SW22.5 kmh SW 28.0 mph45.1 kmh 29.91 in1012.9 mb 0.00 in0.0 mm 0.00 in/hr0.0 mm/hr 0.00 in0.0 mm
11:17 AM 52.5°F11.4°C 50.7°F10.4°C 93% 15.0 mph SW24.1 kmh SW 28.0 mph45.1 kmh 29.91 in1012.9 mb 0.00 in0.0 mm 0.00 in/hr0.0 mm/hr 0.00 in0.0 mm
11:16 AM 52.5°F11.4°C 50.5°F10.3°C 93% 14.0 mph SW22.5 kmh SW 28.0 mph45.1 kmh 29.91 in1012.9 mb 0.00 in0.0 mm 0.00 in/hr0.0 mm/hr 0.00 in0.0 mm
11:15 AM 52.5°F11.4°C 50.7°F10.4°C 93% 15.0 mph SW24.1 kmh SW 28.0 mph45.1 kmh 29.91 in1012.9 mb 0.00 in0.0 mm 0.00 in/hr0.0 mm/hr 0.00 in0.0 mm
11:14 AM 52.5°F11.4°C 50.7°F10.4°C 93% 15.0 mph SW24.1 kmh SW 28.0 mph45.1 kmh 29.90 in1012.5 mb 0.00 in0.0 mm 0.00 in/hr0.0 mm/hr 0.00 in0.0 mm
11:13 AM 52.5°F11.4°C 50.7°F10.4°C 93% 15.0 mph SW24.1 kmh SW 28.0 mph45.1 kmh 29.91 in1012.9 mb 0.00 in0.0 mm 0.00 in/hr0.0 mm/hr 0.00 in0.0 mm
11:12 AM 52.5°F11.4°C 50.7°F10.4°C 93% 15.0 mph SW24.1 kmh SW 28.0 mph45.1 kmh 29.91 in1012.9 mb 0.00 in0.0 mm 0.00 in/hr0.0 mm/hr 0.00 in0.0 mm
11:11 AM 52.5°F11.4°C 50.7°F10.4°C 93% 15.0 mph SW24.1 kmh SW 28.0 mph45.1 kmh 29.91 in1012.9 mb 0.00 in0.0 mm 0.00 in/hr0.0 mm/hr 0.00 in0.0 mm
11:10 AM 52.5°F11.4°C 50.7°F10.4°C 93% 15.0 mph SW24.1 kmh SW 28.0 mph45.1 kmh 29.91 in1012.9 mb 0.00 in0.0 mm 0.00 in/hr0.0 mm/hr 0.00 in0.0 mm
11:09 AM 52.5°F11.4°C 50.7°F10.4°C 93% 15.0 mph SW24.1 kmh SW 28.0 mph45.1 kmh 29.91 in1012.9 mb 0.00 in0.0 mm 0.00 in/hr0.0 mm/hr 0.00 in0.0 mm
11:08 AM 52.5°F11.4°C 50.7°F10.4°C 93% 15.0 mph SW24.1 kmh SW 28.0 mph45.1 kmh 29.91 in1012.9 mb 0.00 in0.0 mm 0.00 in/hr0.0 mm/hr 0.00 in0.0 mm
11:07 AM 52.5°F11.4°C 50.7°F10.4°C 93% 14.0 mph SW22.5 kmh SW 28.0 mph45.1 kmh 29.92 in1013.2 mb 0.00 in0.0 mm 0.00 in/hr0.0 mm/hr 0.00 in0.0 mm
11:06 AM 52.5°F11.4°C 50.7°F10.4°C 93% 14.0 mph SW22.5 kmh SW 27.0 mph43.5 kmh 29.91 in1012.9 mb 0.00 in0.0 mm 0.00 in/hr0.0 mm/hr 0.00 in0.0 mm
11:05 AM 52.5°F11.4°C 50.7°F10.4°C 93% 13.0 mph SW20.9 kmh SW 27.0 mph43.5 kmh 29.91 in1012.9 mb 0.00 in0.0 mm 0.00 in/hr0.0 mm/hr 0.00 in0.0 mm
11:04 AM 52.5°F11.4°C 50.7°F10.4°C 93% 14.0 mph SW22.5 kmh SW 27.0 mph43.5 kmh 29.91 in1012.9 mb 0.00 in0.0 mm 0.00 in/hr0.0 mm/hr 0.00 in0.0 mm
11:03 AM 52.5°F11.4°C 50.4°F10.2°C 92% 13.0 mph SW20.9 kmh SW 27.0 mph43.5 kmh 29.91 in1012.9 mb 0.00 in0.0 mm 0.00 in/hr0.0 mm/hr 0.00 in0.0 mm
11:02 AM 52.5°F11.4°C 50.4°F10.2°C 92% 13.0 mph SW20.9 kmh SW 27.0 mph43.5 kmh 29.91 in1012.9 mb 0.00 in0.0 mm 0.00 in/hr0.0 mm/hr 0.00 in0.0 mm
11:01 AM 52.5°F11.4°C 50.4°F10.2°C 92% 13.0 mph SW20.9 kmh SW 26.0 mph41.8 kmh 29.91 in1012.9 mb 0.00 in0.0 mm 0.00 in/hr0.0 mm/hr 0.00 in0.0 mm
11:00 AM 52.5°F11.4°C 50.7°F10.4°C 93% 13.0 mph SW20.9 kmh SW 26.0 mph41.8 kmh 29.91 in1012.9 mb 0.00 in0.0 mm 0.00 in/hr0.0 mm/hr 0.00 in0.0 mm
10:59 AM 52.5°F11.4°C 50.4°F10.2°C 92% 14.0 mph SW22.5 kmh SW 26.0 mph41.8 kmh 29.92 in1013.2 mb 0.00 in0.0 mm 0.00 in/hr0.0 mm/hr 0.00 in0.0 mm
10:58 AM 52.5°F11.4°C 50.4°F10.2°C 92% 14.0 mph SW22.5 kmh SW 26.0 mph41.8 kmh 29.91 in1012.9 mb 0.00 in0.0 mm 0.00 in/hr0.0 mm/hr 0.00 in0.0 mm
10:57 AM 52.5°F11.4°C 50.4°F10.2°C 92% 14.0 mph SW22.5 kmh SW 25.0 mph40.2 kmh 29.91 in1012.9 mb 0.00 in0.0 mm 0.00 in/hr0.0 mm/hr 0.00 in0.0 mm
10:56 AM 52.5°F11.4°C 50.4°F10.2°C 92% 14.0 mph SW22.5 kmh SW 25.0 mph40.2 kmh 29.91 in1012.9 mb 0.00 in0.0 mm 0.00 in/hr0.0 mm/hr 0.00 in0.0 mm
10:55 AM 52.5°F11.4°C 50.4°F10.2°C 92% 15.0 mph SW24.1 kmh SW 25.0 mph40.2 kmh 29.91 in1012.9 mb 0.00 in0.0 mm 0.00 in/hr0.0 mm/hr 0.00 in0.0 mm
10:54 AM 52.5°F11.4°C 50.4°F10.2°C 92% 14.0 mph SW22.5 kmh SW 28.0 mph45.1 kmh 29.90 in1012.5 mb 0.00 in0.0 mm 0.00 in/hr0.0 mm/hr 0.00 in0.0 mm
10:53 AM 52.5°F11.4°C 50.4°F10.2°C 92% 14.0 mph SW22.5 kmh SW 28.0 mph45.1 kmh 29.90 in1012.5 mb 0.00 in0.0 mm 0.00 in/hr0.0 mm/hr 0.00 in0.0 mm
10:52 AM 52.5°F11.4°C 50.4°F10.2°C 92% 14.0 mph SW22.5 kmh SW 28.0 mph45.1 kmh 29.90 in1012.5 mb 0.00 in0.0 mm 0.00 in/hr0.0 mm/hr 0.00 in0.0 mm
10:51 AM 52.5°F11.4°C 50.4°F10.2°C 92% 14.0 mph SW22.5 kmh SW 28.0 mph45.1 kmh 29.91 in1012.9 mb 0.00 in0.0 mm 0.00 in/hr0.0 mm/hr 0.00 in0.0 mm
10:50 AM 52.5°F11.4°C 50.4°F10.2°C 92% 14.0 mph SW22.5 kmh SW 28.0 mph45.1 kmh 29.91 in1012.9 mb 0.00 in0.0 mm 0.00 in/hr0.0 mm/hr 0.00 in0.0 mm
10:49 AM 52.5°F11.4°C 50.4°F10.2°C 92% 13.0 mph SW20.9 kmh SW 28.0 mph45.1 kmh 29.91 in1012.9 mb 0.00 in0.0 mm 0.00 in/hr0.0 mm/hr 0.00 in0.0 mm
10:48 AM 52.5°F11.4°C 50.4°F10.2°C 92% 13.0 mph SW20.9 kmh SW 28.0 mph45.1 kmh 29.91 in1012.9 mb 0.00 in0.0 mm 0.00 in/hr0.0 mm/hr 0.00 in0.0 mm
10:47 AM 52.7°F11.5°C 50.4°F10.2°C 92% 13.0 mph SW20.9 kmh SW 28.0 mph45.1 kmh 29.91 in1012.9 mb 0.00 in0.0 mm 0.00 in/hr0.0 mm/hr 0.00 in0.0 mm
10:46 AM 52.7°F11.5°C 50.4°F10.2°C 92% 13.0 mph SW20.9 kmh SW 28.0 mph45.1 kmh 29.91 in1012.9 mb 0.00 in0.0 mm 0.00 in/hr0.0 mm/hr 0.00 in0.0 mm
10:45 AM 52.7°F11.5°C 50.4°F10.2°C 92% 12.0 mph SW19.3 kmh SW 28.0 mph45.1 kmh 29.91 in1012.9 mb 0.00 in0.0 mm 0.00 in/hr0.0 mm/hr 0.00 in0.0 mm
10:44 AM 52.7°F11.5°C 50.4°F10.2°C 92% 12.0 mph SW19.3 kmh SW 21.0 mph33.8 kmh 29.91 in1012.9 mb 0.00 in0.0 mm 0.00 in/hr0.0 mm/hr 0.00 in0.0 mm
10:43 AM 52.7°F11.5°C 50.4°F10.2°C 92% 12.0 mph SW19.3 kmh SW 21.0 mph33.8 kmh 29.91 in1012.9 mb 0.00 in0.0 mm 0.00 in/hr0.0 mm/hr 0.00 in0.0 mm
10:42 AM 52.7°F11.5°C 50.4°F10.2°C 92% 13.0 mph SW20.9 kmh SW 28.0 mph45.1 kmh 29.91 in1012.9 mb 0.00 in0.0 mm 0.00 in/hr0.0 mm/hr 0.00 in0.0 mm
10:41 AM 52.7°F11.5°C 50.4°F10.2°C 92% 13.0 mph SW20.9 kmh SW 28.0 mph45.1 kmh 29.90 in1012.5 mb 0.00 in0.0 mm 0.00 in/hr0.0 mm/hr 0.00 in0.0 mm
10:40 AM 52.7°F11.5°C 50.4°F10.2°C 92% 13.0 mph SW20.9 kmh SW 28.0 mph45.1 kmh 29.90 in1012.5 mb 0.00 in0.0 mm 0.00 in/hr0.0 mm/hr 0.00 in0.0 mm
10:39 AM 52.7°F11.5°C 50.4°F10.2°C 92% 13.0 mph SW20.9 kmh SW 28.0 mph45.1 kmh 29.91 in1012.9 mb 0.00 in0.0 mm 0.00 in/hr0.0 mm/hr 0.00 in0.0 mm
10:38 AM 52.5°F11.4°C 50.4°F10.2°C 92% 14.0 mph SW22.5 kmh SW 28.0 mph45.1 kmh 29.91 in1012.9 mb 0.00 in0.0 mm 0.00 in/hr0.0 mm/hr 0.00 in0.0 mm
10:37 AM 52.7°F11.5°C 50.4°F10.2°C 92% 14.0 mph SW22.5 kmh SW 28.0 mph45.1 kmh 29.91 in1012.9 mb 0.00 in0.0 mm 0.00 in/hr0.0 mm/hr 0.00 in0.0 mm
10:36 AM 52.7°F11.5°C 50.4°F10.2°C 92% 14.0 mph SW22.5 kmh SW 28.0 mph45.1 kmh 29.91 in1012.9 mb 0.00 in0.0 mm 0.00 in/hr0.0 mm/hr 0.00 in0.0 mm
10:35 AM 52.7°F11.5°C 50.4°F10.2°C 92% 15.0 mph SW24.1 kmh SW 28.0 mph45.1 kmh 29.91 in1012.9 mb 0.00 in0.0 mm 0.00 in/hr0.0 mm/hr 0.00 in0.0 mm
10:34 AM 52.7°F11.5°C 50.4°F10.2°C 92% 15.0 mph SW24.1 kmh SW 30.0 mph48.3 kmh 29.91 in1012.9 mb 0.00 in0.0 mm 0.00 in/hr0.0 mm/hr 0.00 in0.0 mm
10:33 AM 52.7°F11.5°C 50.4°F10.2°C 92% 15.0 mph SW24.1 kmh SW 30.0 mph48.3 kmh 29.91 in1012.9 mb 0.00 in0.0 mm 0.00 in/hr0.0 mm/hr 0.00 in0.0 mm
10:32 AM 52.7°F11.5°C 50.4°F10.2°C 92% 15.0 mph SW24.1 kmh SW 30.0 mph48.3 kmh 29.91 in1012.9 mb 0.00 in0.0 mm 0.00 in/hr0.0 mm/hr 0.00 in0.0 mm
10:31 AM 52.7°F11.5°C 50.4°F10.2°C 92% 14.0 mph SW22.5 kmh SW 30.0 mph48.3 kmh 29.91 in1012.9 mb 0.00 in0.0 mm 0.00 in/hr0.0 mm/hr 0.00 in0.0 mm
10:30 AM 52.7°F11.5°C 50.4°F10.2°C 92% 15.0 mph SW24.1 kmh SW 30.0 mph48.3 kmh 29.91 in1012.9 mb 0.00 in0.0 mm 0.00 in/hr0.0 mm/hr 0.00 in0.0 mm
10:29 AM 52.7°F11.5°C 50.4°F10.2°C 92% 14.0 mph SW22.5 kmh SW 30.0 mph48.3 kmh 29.91 in1012.9 mb 0.00 in0.0 mm 0.00 in/hr0.0 mm/hr 0.00 in0.0 mm
10:28 AM 52.7°F11.5°C 50.4°F10.2°C 92% 14.0 mph SW22.5 kmh SW 30.0 mph48.3 kmh 29.91 in1012.9 mb 0.00 in0.0 mm 0.00 in/hr0.0 mm/hr 0.00 in0.0 mm
10:27 AM 52.7°F11.5°C 50.4°F10.2°C 92% 14.0 mph SW22.5 kmh SW 30.0 mph48.3 kmh 29.91 in1012.9 mb 0.00 in0.0 mm 0.00 in/hr0.0 mm/hr 0.00 in0.0 mm
10:26 AM 52.7°F11.5°C 50.4°F10.2°C 92% 14.0 mph SW22.5 kmh SW 30.0 mph48.3 kmh 29.91 in1012.9 mb 0.00 in0.0 mm 0.00 in/hr0.0 mm/hr 0.00 in0.0 mm
10:25 AM 52.7°F11.5°C 50.4°F10.2°C 92% 14.0 mph SW22.5 kmh SW 30.0 mph48.3 kmh 29.91 in1012.9 mb 0.00 in0.0 mm 0.00 in/hr0.0 mm/hr 0.00 in0.0 mm
10:24 AM 52.7°F11.5°C 50.4°F10.2°C 92% 14.0 mph SW22.5 kmh SW 25.0 mph40.2 kmh 29.91 in1012.9 mb 0.00 in0.0 mm 0.00 in/hr0.0 mm/hr 0.00 in0.0 mm
10:23 AM 52.7°F11.5°C 50.4°F10.2°C 92% 14.0 mph SW22.5 kmh SW 25.0 mph40.2 kmh 29.90 in1012.5 mb 0.00 in0.0 mm 0.00 in/hr0.0 mm/hr 0.00 in0.0 mm
10:22 AM 52.7°F11.5°C 50.4°F10.2°C 92% 14.0 mph SW22.5 kmh SW 26.0 mph41.8 kmh 29.90 in1012.5 mb 0.00 in0.0 mm 0.00 in/hr0.0 mm/hr 0.00 in0.0 mm
10:21 AM 52.7°F11.5°C 50.4°F10.2°C 92% 14.0 mph SW22.5 kmh SW 26.0 mph41.8 kmh 29.90 in1012.5 mb 0.00 in0.0 mm 0.00 in/hr0.0 mm/hr 0.00 in0.0 mm
10:20 AM 52.7°F11.5°C 50.4°F10.2°C 92% 14.0 mph SW22.5 kmh SW 26.0 mph41.8 kmh 29.90 in1012.5 mb 0.00 in0.0 mm 0.00 in/hr0.0 mm/hr 0.00 in0.0 mm
10:19 AM 52.7°F11.5°C 50.4°F10.2°C 92% 14.0 mph SW22.5 kmh SW 26.0 mph41.8 kmh 29.89 in1012.2 mb 0.00 in0.0 mm 0.00 in/hr0.0 mm/hr 0.00 in0.0 mm
10:18 AM 52.7°F11.5°C 50.4°F10.2°C 92% 15.0 mph SW24.1 kmh SW 26.0 mph41.8 kmh 29.90 in1012.5 mb 0.00 in0.0 mm 0.00 in/hr0.0 mm/hr 0.00 in0.0 mm
10:17 AM 52.7°F11.5°C 50.4°F10.2°C 92% 14.0 mph SW22.5 kmh SW 26.0 mph41.8 kmh 29.90 in1012.5 mb 0.00 in0.0 mm 0.00 in/hr0.0 mm/hr 0.00 in0.0 mm
10:16 AM 52.7°F11.5°C 50.4°F10.2°C 92% 14.0 mph SW22.5 kmh SW 26.0 mph41.8 kmh 29.90 in1012.5 mb 0.00 in0.0 mm 0.00 in/hr0.0 mm/hr 0.00 in0.0 mm
10:15 AM 52.7°F11.5°C 50.4°F10.2°C 92% 14.0 mph SW22.5 kmh SW 26.0 mph41.8 kmh 29.91 in1012.9 mb 0.00 in0.0 mm 0.00 in/hr0.0 mm/hr 0.00 in0.0 mm
10:14 AM 52.7°F11.5°C 50.4°F10.2°C 92% 14.0 mph SW22.5 kmh SW 26.0 mph41.8 kmh 29.91 in1012.9 mb 0.00 in0.0 mm 0.00 in/hr0.0 mm/hr 0.00 in0.0 mm
10:13 AM 52.7°F11.5°C 50.4°F10.2°C 92% 14.0 mph SW22.5 kmh SW 26.0 mph41.8 kmh 29.91 in1012.9 mb 0.00 in0.0 mm 0.00 in/hr0.0 mm/hr 0.00 in0.0 mm
10:12 AM 52.7°F11.5°C 50.4°F10.2°C 92% 14.0 mph SW22.5 kmh SW 26.0 mph41.8 kmh 29.91 in1012.9 mb 0.00 in0.0 mm 0.00 in/hr0.0 mm/hr 0.00 in0.0 mm
10:11 AM 52.7°F11.5°C 50.7°F10.4°C 93% 14.0 mph SW22.5 kmh SW 26.0 mph41.8 kmh 29.91 in1012.9 mb 0.00 in0.0 mm 0.00 in/hr0.0 mm/hr 0.00 in0.0 mm
10:10 AM 52.7°F11.5°C 50.7°F10.4°C 93% 14.0 mph SW22.5 kmh SW 26.0 mph41.8 kmh 29.91 in1012.9 mb 0.00 in0.0 mm 0.00 in/hr0.0 mm/hr 0.00 in0.0 mm
10:09 AM 52.7°F11.5°C 50.7°F10.4°C 93% 14.0 mph SW22.5 kmh SW 26.0 mph41.8 kmh 29.91 in1012.9 mb 0.00 in0.0 mm 0.00 in/hr0.0 mm/hr 0.00 in0.0 mm
10:08 AM 52.5°F11.4°C 50.7°F10.4°C 93% 14.0 mph SW22.5 kmh SW 24.0 mph38.6 kmh 29.91 in1012.9 mb 0.00 in0.0 mm 0.00 in/hr0.0 mm/hr 0.00 in0.0 mm
10:07 AM 52.5°F11.4°C 50.7°F10.4°C 93% 14.0 mph SW22.5 kmh SW 23.0 mph37.0 kmh 29.91 in1012.9 mb 0.00 in0.0 mm 0.00 in/hr0.0 mm/hr 0.00 in0.0 mm
10:06 AM 52.5°F11.4°C 50.7°F10.4°C 93% 14.0 mph SW22.5 kmh SW 23.0 mph37.0 kmh 29.91 in1012.9 mb 0.00 in0.0 mm 0.00 in/hr0.0 mm/hr 0.00 in0.0 mm
10:05 AM 52.5°F11.4°C 50.7°F10.4°C 93% 14.0 mph SW22.5 kmh SW 24.0 mph38.6 kmh 29.91 in1012.9 mb 0.00 in0.0 mm 0.00 in/hr0.0 mm/hr 0.00 in0.0 mm
10:04 AM 52.7°F11.5°C 50.7°F10.4°C 93% 14.0 mph SW22.5 kmh SW 24.0 mph38.6 kmh 29.91 in1012.9 mb 0.00 in0.0 mm 0.00 in/hr0.0 mm/hr 0.00 in0.0 mm
10:03 AM 52.5°F11.4°C 50.7°F10.4°C 93% 14.0 mph SW22.5 kmh SW 24.0 mph38.6 kmh 29.91 in1012.9 mb 0.00 in0.0 mm 0.00 in/hr0.0 mm/hr 0.00 in0.0 mm
10:02 AM 52.7°F11.5°C 50.7°F10.4°C 93% 14.0 mph SW22.5 kmh SW 24.0 mph38.6 kmh 29.90 in1012.5 mb 0.00 in0.0 mm 0.00 in/hr0.0 mm/hr 0.00 in0.0 mm
10:01 AM 52.7°F11.5°C 50.7°F10.4°C 93% 15.0 mph SW24.1 kmh SW 26.0 mph41.8 kmh 29.91 in1012.9 mb 0.00 in0.0 mm 0.00 in/hr0.0 mm/hr 0.00 in0.0 mm
10:00 AM 52.7°F11.5°C 50.7°F10.4°C 93% 15.0 mph SW24.1 kmh SW 27.0 mph43.5 kmh 29.91 in1012.9 mb 0.00 in0.0 mm 0.00 in/hr0.0 mm/hr 0.00 in0.0 mm
09:59 AM 52.5°F11.4°C 50.7°F10.4°C 93% 14.0 mph SW22.5 kmh SW 27.0 mph43.5 kmh 29.91 in1012.9 mb 0.00 in0.0 mm 0.00 in/hr0.0 mm/hr 0.00 in0.0 mm
09:58 AM 52.5°F11.4°C 50.7°F10.4°C 93% 14.0 mph SW22.5 kmh SW 27.0 mph43.5 kmh 29.91 in1012.9 mb 0.00 in0.0 mm 0.00 in/hr0.0 mm/hr 0.00 in0.0 mm
09:57 AM 52.7°F11.5°C 50.7°F10.4°C 93% 14.0 mph SW22.5 kmh SW 27.0 mph43.5 kmh 29.91 in1012.9 mb 0.00 in0.0 mm 0.00 in/hr0.0 mm/hr 0.00 in0.0 mm
09:56 AM 52.5°F11.4°C 50.7°F10.4°C 93% 14.0 mph SW22.5 kmh SW 27.0 mph43.5 kmh 29.91 in1012.9 mb 0.00 in0.0 mm 0.00 in/hr0.0 mm/hr 0.00 in0.0 mm
09:55 AM 52.5°F11.4°C 50.7°F10.4°C 93% 15.0 mph SW24.1 kmh SW 27.0 mph43.5 kmh 29.91 in1012.9 mb 0.00 in0.0 mm 0.00 in/hr0.0 mm/hr 0.00 in0.0 mm
09:54 AM 52.5°F11.4°C 50.7°F10.4°C 93% 14.0 mph SW22.5 kmh SW 29.0 mph46.7 kmh 29.91 in1012.9 mb 0.00 in0.0 mm 0.00 in/hr0.0 mm/hr 0.00 in0.0 mm
09:53 AM 52.5°F11.4°C 50.7°F10.4°C 93% 15.0 mph SW24.1 kmh SW 29.0 mph46.7 kmh 29.91 in1012.9 mb 0.00 in0.0 mm 0.00 in/hr0.0 mm/hr 0.00 in0.0 mm
09:52 AM 52.5°F11.4°C 50.7°F10.4°C 93% 15.0 mph SW24.1 kmh SW 29.0 mph46.7 kmh 29.91 in1012.9 mb 0.00 in0.0 mm 0.00 in/hr0.0 mm/hr 0.00 in0.0 mm
09:51 AM 52.5°F11.4°C 50.7°F10.4°C 93% 14.0 mph SW22.5 kmh SW 29.0 mph46.7 kmh 29.91 in1012.9 mb 0.00 in0.0 mm 0.00 in/hr0.0 mm/hr 0.00 in0.0 mm
09:50 AM 52.5°F11.4°C 50.7°F10.4°C 93% 14.0 mph SW22.5 kmh SW 29.0 mph46.7 kmh 29.91 in1012.9 mb 0.00 in0.0 mm 0.00 in/hr0.0 mm/hr 0.00 in0.0 mm
09:49 AM 52.5°F11.4°C 50.7°F10.4°C 93% 14.0 mph SW22.5 kmh SW 29.0 mph46.7 kmh 29.91 in1012.9 mb 0.00 in0.0 mm 0.00 in/hr0.0 mm/hr 0.00 in0.0 mm
09:48 AM 52.5°F11.4°C 50.7°F10.4°C 93% 15.0 mph SW24.1 kmh SW 29.0 mph46.7 kmh 29.91 in1012.9 mb 0.00 in0.0 mm 0.00 in/hr0.0 mm/hr 0.00 in0.0 mm
09:47 AM 52.5°F11.4°C 50.7°F10.4°C 93% 15.0 mph SW24.1 kmh SW 29.0 mph46.7 kmh 29.91 in1012.9 mb 0.00 in0.0 mm 0.00 in/hr0.0 mm/hr 0.00 in0.0 mm
09:46 AM 52.5°F11.4°C 50.7°F10.4°C 93% 15.0 mph SW24.1 kmh SW 29.0 mph46.7 kmh 29.91 in1012.9 mb 0.00 in0.0 mm 0.00 in/hr0.0 mm/hr 0.00 in0.0 mm
09:45 AM 52.5°F11.4°C 50.7°F10.4°C 93% 15.0 mph SW24.1 kmh SW 29.0 mph46.7 kmh 29.91 in1012.9 mb 0.00 in0.0 mm 0.00 in/hr0.0 mm/hr 0.00 in0.0 mm
09:44 AM 52.5°F11.4°C 50.7°F10.4°C 93% 15.0 mph SW24.1 kmh SW 27.0 mph43.5 kmh 29.90 in1012.5 mb 0.00 in0.0 mm 0.00 in/hr0.0 mm/hr 0.00 in0.0 mm
09:43 AM 52.5°F11.4°C 50.7°F10.4°C 93% 15.0 mph SW24.1 kmh SW 27.0 mph43.5 kmh 29.90 in1012.5 mb 0.00 in0.0 mm 0.00 in/hr0.0 mm/hr 0.00 in0.0 mm
09:42 AM 52.5°F11.4°C 50.7°F10.4°C 93% 15.0 mph SW24.1 kmh SW 27.0 mph43.5 kmh 29.90 in1012.5 mb 0.00 in0.0 mm 0.00 in/hr0.0 mm/hr 0.00 in0.0 mm
09:41 AM 52.5°F11.4°C 50.7°F10.4°C 93% 16.0 mph SW25.7 kmh SW 32.0 mph51.5 kmh 29.90 in1012.5 mb 0.00 in0.0 mm 0.00 in/hr0.0 mm/hr 0.00 in0.0 mm
09:40 AM 52.5°F11.4°C 50.7°F10.4°C 93% 16.0 mph SW25.7 kmh SW 32.0 mph51.5 kmh 29.89 in1012.2 mb 0.00 in0.0 mm 0.00 in/hr0.0 mm/hr 0.00 in0.0 mm
09:39 AM 52.5°F11.4°C 50.7°F10.4°C 93% 15.0 mph SW24.1 kmh SW 32.0 mph51.5 kmh 29.89 in1012.2 mb 0.00 in0.0 mm 0.00 in/hr0.0 mm/hr 0.00 in0.0 mm
09:38 AM 52.5°F11.4°C 50.7°F10.4°C 93% 15.0 mph SW24.1 kmh SW 32.0 mph51.5 kmh 29.89 in1012.2 mb 0.00 in0.0 mm 0.00 in/hr0.0 mm/hr 0.00 in0.0 mm
09:37 AM 52.5°F11.4°C 50.7°F10.4°C 93% 15.0 mph SW24.1 kmh SW 32.0 mph51.5 kmh 29.89 in1012.2 mb 0.00 in0.0 mm 0.00 in/hr0.0 mm/hr 0.00 in0.0 mm
09:36 AM 52.5°F11.4°C 50.7°F10.4°C 93% 15.0 mph SW24.1 kmh SW 32.0 mph51.5 kmh 29.89 in1012.2 mb 0.00 in0.0 mm 0.00 in/hr0.0 mm/hr 0.00 in0.0 mm
09:35 AM 52.5°F11.4°C 50.7°F10.4°C 93% 15.0 mph SW24.1 kmh SW 32.0 mph51.5 kmh 29.89 in1012.2 mb 0.00 in0.0 mm 0.00 in/hr0.0 mm/hr 0.00 in0.0 mm
09:34 AM 52.5°F11.4°C 50.7°F10.4°C 93% 15.0 mph SW24.1 kmh SW 32.0 mph51.5 kmh 29.89 in1012.2 mb 0.00 in0.0 mm 0.00 in/hr0.0 mm/hr 0.00 in0.0 mm
09:33 AM 52.5°F11.4°C 50.7°F10.4°C 93% 14.0 mph SW22.5 kmh SW 32.0 mph51.5 kmh 29.89 in1012.2 mb 0.00 in0.0 mm 0.00 in/hr0.0 mm/hr 0.00 in0.0 mm
09:32 AM 52.5°F11.4°C 50.7°F10.4°C 93% 14.0 mph SW22.5 kmh SW 32.0 mph51.5 kmh 29.89 in1012.2 mb 0.00 in0.0 mm 0.00 in/hr0.0 mm/hr 0.00 in0.0 mm
09:31 AM 52.5°F11.4°C 50.7°F10.4°C 93% 14.0 mph SW22.5 kmh SW 28.0 mph45.1 kmh 29.89 in1012.2 mb 0.00 in0.0 mm 0.00 in/hr0.0 mm/hr 0.00 in0.0 mm
09:30 AM 52.5°F11.4°C 50.7°F10.4°C 93% 15.0 mph SW24.1 kmh SW 26.0 mph41.8 kmh 29.89 in1012.2 mb 0.00 in0.0 mm 0.00 in/hr0.0 mm/hr 0.00 in0.0 mm
09:29 AM 52.5°F11.4°C 50.7°F10.4°C 93% 15.0 mph SW24.1 kmh SW 26.0 mph41.8 kmh 29.89 in1012.2 mb 0.00 in0.0 mm 0.00 in/hr0.0 mm/hr 0.00 in0.0 mm
09:28 AM 52.5°F11.4°C 50.7°F10.4°C 93% 15.0 mph SW24.1 kmh SW 26.0 mph41.8 kmh 29.89 in1012.2 mb 0.00 in0.0 mm 0.00 in/hr0.0 mm/hr 0.00 in0.0 mm
09:27 AM 52.5°F11.4°C 50.7°F10.4°C 93% 15.0 mph SW24.1 kmh SW 26.0 mph41.8 kmh 29.89 in1012.2 mb 0.00 in0.0 mm 0.00 in/hr0.0 mm/hr 0.00 in0.0 mm
09:26 AM 52.5°F11.4°C 50.7°F10.4°C 93% 14.0 mph SW22.5 kmh SW 26.0 mph41.8 kmh 29.89 in1012.2 mb 0.00 in0.0 mm 0.00 in/hr0.0 mm/hr 0.00 in0.0 mm
09:25 AM 52.5°F11.4°C 50.7°F10.4°C 93% 14.0 mph SW22.5 kmh SW 26.0 mph41.8 kmh 29.89 in1012.2 mb 0.00 in0.0 mm 0.00 in/hr0.0 mm/hr 0.00 in0.0 mm
09:24 AM 52.5°F11.4°C 50.4°F10.2°C 92% 14.0 mph SW22.5 kmh SW 30.0 mph48.3 kmh 29.90 in1012.5 mb 0.00 in0.0 mm 0.00 in/hr0.0 mm/hr 0.00 in0.0 mm
09:23 AM 52.5°F11.4°C 50.4°F10.2°C 92% 15.0 mph SW24.1 kmh SW 30.0 mph48.3 kmh 29.89 in1012.2 mb 0.00 in0.0 mm 0.00 in/hr0.0 mm/hr 0.00 in0.0 mm
09:22 AM 52.5°F11.4°C 50.4°F10.2°C 92% 14.0 mph SW22.5 kmh SW 30.0 mph48.3 kmh 29.90 in1012.5 mb 0.00 in0.0 mm 0.00 in/hr0.0 mm/hr 0.00 in0.0 mm
09:21 AM 52.7°F11.5°C 50.4°F10.2°C 92% 14.0 mph SW22.5 kmh SW 30.0 mph48.3 kmh 29.89 in1012.2 mb 0.00 in0.0 mm 0.00 in/hr0.0 mm/hr 0.00 in0.0 mm
09:20 AM 52.7°F11.5°C 50.4°F10.2°C 92% 13.0 mph SW20.9 kmh SW 30.0 mph48.3 kmh 29.90 in1012.5 mb 0.00 in0.0 mm 0.00 in/hr0.0 mm/hr 0.00 in0.0 mm
09:19 AM 52.7°F11.5°C 50.4°F10.2°C 92% 13.0 mph SW20.9 kmh SW 30.0 mph48.3 kmh 29.89 in1012.2 mb 0.00 in0.0 mm 0.00 in/hr0.0 mm/hr 0.00 in0.0 mm
09:18 AM 52.7°F11.5°C 50.4°F10.2°C 92% 13.0 mph SW20.9 kmh SW 30.0 mph48.3 kmh 29.89 in1012.2 mb 0.00 in0.0 mm 0.00 in/hr0.0 mm/hr 0.00 in0.0 mm
09:17 AM 52.7°F11.5°C 50.4°F10.2°C 92% 13.0 mph SW20.9 kmh SW 30.0 mph48.3 kmh 29.89 in1012.2 mb 0.00 in0.0 mm 0.00 in/hr0.0 mm/hr 0.00 in0.0 mm
09:16 AM 52.7°F11.5°C 50.4°F10.2°C 92% 13.0 mph SW20.9 kmh SW 30.0 mph48.3 kmh 29.90 in1012.5 mb 0.00 in0.0 mm 0.00 in/hr0.0 mm/hr 0.00 in0.0 mm
09:15 AM 52.7°F11.5°C 50.4°F10.2°C 92% 13.0 mph SW20.9 kmh SW 30.0 mph48.3 kmh 29.90 in1012.5 mb 0.00 in0.0 mm 0.00 in/hr0.0 mm/hr 0.00 in0.0 mm
09:14 AM 52.7°F11.5°C 50.4°F10.2°C 92% 13.0 mph SW20.9 kmh SW 26.0 mph41.8 kmh 29.90 in1012.5 mb 0.00 in0.0 mm 0.00 in/hr0.0 mm/hr 0.00 in0.0 mm
09:13 AM 52.7°F11.5°C 50.4°F10.2°C 92% 13.0 mph SW20.9 kmh SW 26.0 mph41.8 kmh 29.90 in1012.5 mb 0.00 in0.0 mm 0.00 in/hr0.0 mm/hr 0.00 in0.0 mm
09:12 AM 52.7°F11.5°C 50.4°F10.2°C 92% 13.0 mph SW20.9 kmh SW 26.0 mph41.8 kmh 29.90 in1012.5 mb 0.00 in0.0 mm 0.00 in/hr0.0 mm/hr 0.00 in0.0 mm
09:11 AM 52.7°F11.5°C 50.4°F10.2°C 92% 13.0 mph SW20.9 kmh SW 26.0 mph41.8 kmh 29.90 in1012.5 mb 0.00 in0.0 mm 0.00 in/hr0.0 mm/hr 0.00 in0.0 mm
09:10 AM 52.7°F11.5°C 50.4°F10.2°C 92% 14.0 mph SW22.5 kmh SW 26.0 mph41.8 kmh 29.90 in1012.5 mb 0.00 in0.0 mm 0.00 in/hr0.0 mm/hr 0.00 in0.0 mm
09:09 AM 52.7°F11.5°C 50.4°F10.2°C 92% 14.0 mph SW22.5 kmh SW 26.0 mph41.8 kmh 29.90 in1012.5 mb 0.00 in0.0 mm 0.00 in/hr0.0 mm/hr 0.00 in0.0 mm
09:08 AM 52.7°F11.5°C 50.4°F10.2°C 92% 14.0 mph SW22.5 kmh SW 26.0 mph41.8 kmh 29.90 in1012.5 mb 0.00 in0.0 mm 0.00 in/hr0.0 mm/hr 0.00 in0.0 mm
09:07 AM 52.7°F11.5°C 50.4°F10.2°C 92% 15.0 mph SW24.1 kmh SW 32.0 mph51.5 kmh 29.90 in1012.5 mb 0.00 in0.0 mm 0.00 in/hr0.0 mm/hr 0.00 in0.0 mm
09:06 AM 52.9°F11.6°C 50.5°F10.3°C 92% 15.0 mph SW24.1 kmh SW 32.0 mph51.5 kmh 29.90 in1012.5 mb 0.00 in0.0 mm 0.00 in/hr0.0 mm/hr 0.00 in0.0 mm
09:05 AM 52.7°F11.5°C 50.4°F10.2°C 92% 15.0 mph SW24.1 kmh SW 32.0 mph51.5 kmh 29.90 in1012.5 mb 0.00 in0.0 mm 0.00 in/hr0.0 mm/hr 0.00 in0.0 mm
09:04 AM 52.7°F11.5°C 50.4°F10.2°C 92% 15.0 mph SW24.1 kmh SW 32.0 mph51.5 kmh 29.90 in1012.5 mb 0.00 in0.0 mm 0.00 in/hr0.0 mm/hr 0.00 in0.0 mm
09:03 AM 52.9°F11.6°C 50.5°F10.3°C 92% 15.0 mph SW24.1 kmh SW 32.0 mph51.5 kmh 29.90 in1012.5 mb 0.00 in0.0 mm 0.00 in/hr0.0 mm/hr 0.00 in0.0 mm
09:02 AM 52.9°F11.6°C 50.5°F10.3°C 92% 15.0 mph SW24.1 kmh SW 32.0 mph51.5 kmh 29.90 in1012.5 mb 0.00 in0.0 mm 0.00 in/hr0.0 mm/hr 0.00 in0.0 mm
09:01 AM 52.9°F11.6°C 50.5°F10.3°C 92% 15.0 mph SW24.1 kmh SW 32.0 mph51.5 kmh 29.91 in1012.9 mb 0.00 in0.0 mm 0.00 in/hr0.0 mm/hr 0.00 in0.0 mm
09:00 AM 52.9°F11.6°C 50.5°F10.3°C 92% 15.0 mph SW24.1 kmh SW 32.0 mph51.5 kmh 29.91 in1012.9 mb 0.00 in0.0 mm 0.00 in/hr0.0 mm/hr 0.00 in0.0 mm
08:59 AM 52.9°F11.6°C 50.5°F10.3°C 92% 15.0 mph SW24.1 kmh SW 32.0 mph51.5 kmh 29.90 in1012.5 mb 0.00 in0.0 mm 0.00 in/hr0.0 mm/hr 0.00 in0.0 mm
08:58 AM 52.9°F11.6°C 50.5°F10.3°C 92% 15.0 mph SW24.1 kmh SW 32.0 mph51.5 kmh 29.90 in1012.5 mb 0.00 in0.0 mm 0.00 in/hr0.0 mm/hr 0.00 in0.0 mm
08:57 AM 52.9°F11.6°C 50.5°F10.3°C 92% 15.0 mph SW24.1 kmh SW 27.0 mph43.5 kmh 29.90 in1012.5 mb 0.00 in0.0 mm 0.00 in/hr0.0 mm/hr 0.00 in0.0 mm
08:56 AM 52.9°F11.6°C 50.5°F10.3°C 92% 15.0 mph SW24.1 kmh SW 27.0 mph43.5 kmh 29.90 in1012.5 mb 0.00 in0.0 mm 0.00 in/hr0.0 mm/hr 0.00 in0.0 mm
08:55 AM 52.9°F11.6°C 50.7°F10.4°C 92% 15.0 mph SW24.1 kmh SW 27.0 mph43.5 kmh 29.90 in1012.5 mb 0.00 in0.0 mm 0.00 in/hr0.0 mm/hr 0.00 in0.0 mm
08:54 AM 52.9°F11.6°C 50.7°F10.4°C 92% 15.0 mph SW24.1 kmh SW 27.0 mph43.5 kmh 29.90 in1012.5 mb 0.00 in0.0 mm 0.00 in/hr0.0 mm/hr 0.00 in0.0 mm
08:53 AM 52.9°F11.6°C 50.7°F10.4°C 92% 15.0 mph SW24.1 kmh SW 33.0 mph53.1 kmh 29.90 in1012.5 mb 0.00 in0.0 mm 0.00 in/hr0.0 mm/hr 0.00 in0.0 mm
08:52 AM 52.9°F11.6°C 50.7°F10.4°C 92% 16.0 mph SW25.7 kmh SW 33.0 mph53.1 kmh 29.90 in1012.5 mb 0.00 in0.0 mm 0.00 in/hr0.0 mm/hr 0.00 in0.0 mm
08:51 AM 53.1°F11.7°C 50.7°F10.4°C 92% 16.0 mph SW25.7 kmh SW 33.0 mph53.1 kmh 29.90 in1012.5 mb 0.00 in0.0 mm 0.00 in/hr0.0 mm/hr 0.00 in0.0 mm
08:50 AM 53.1°F11.7°C 50.7°F10.4°C 92% 16.0 mph SW25.7 kmh SW 33.0 mph53.1 kmh 29.91 in1012.9 mb 0.00 in0.0 mm 0.00 in/hr0.0 mm/hr 0.00 in0.0 mm
08:49 AM 53.1°F11.7°C 50.7°F10.4°C 92% 16.0 mph SW25.7 kmh SW 33.0 mph53.1 kmh 29.90 in1012.5 mb 0.00 in0.0 mm 0.00 in/hr0.0 mm/hr 0.00 in0.0 mm
08:48 AM 53.1°F11.7°C 50.7°F10.4°C 92% 15.0 mph SW24.1 kmh SW 33.0 mph53.1 kmh 29.91 in1012.9 mb 0.00 in0.0 mm 0.00 in/hr0.0 mm/hr 0.00 in0.0 mm
08:47 AM 53.1°F11.7°C 50.7°F10.4°C 92% 15.0 mph SW24.1 kmh SW 33.0 mph53.1 kmh 29.90 in1012.5 mb 0.00 in0.0 mm 0.00 in/hr0.0 mm/hr 0.00 in0.0 mm
08:46 AM 53.1°F11.7°C 50.7°F10.4°C 92% 15.0 mph SW24.1 kmh SW 33.0 mph53.1 kmh 29.90 in1012.5 mb 0.00 in0.0 mm 0.00 in/hr0.0 mm/hr 0.00 in0.0 mm
08:45 AM 52.9°F11.6°C 50.7°F10.4°C 92% 15.0 mph SW24.1 kmh SW 33.0 mph53.1 kmh 29.91 in1012.9 mb 0.00 in0.0 mm 0.00 in/hr0.0 mm/hr 0.00 in0.0 mm
08:44 AM 52.9°F11.6°C 50.7°F10.4°C 92% 15.0 mph SW24.1 kmh SW 33.0 mph53.1 kmh 29.91 in1012.9 mb 0.00 in0.0 mm 0.00 in/hr0.0 mm/hr 0.00 in0.0 mm
08:43 AM 52.9°F11.6°C 50.7°F10.4°C 92% 14.0 mph SW22.5 kmh SW 30.0 mph48.3 kmh 29.91 in1012.9 mb 0.00 in0.0 mm 0.00 in/hr0.0 mm/hr 0.00 in0.0 mm
08:42 AM 52.9°F11.6°C 50.7°F10.4°C 92% 14.0 mph SW22.5 kmh SW 30.0 mph48.3 kmh 29.91 in1012.9 mb 0.00 in0.0 mm 0.00 in/hr0.0 mm/hr 0.00 in0.0 mm
08:41 AM 52.9°F11.6°C 50.7°F10.4°C 92% 14.0 mph SW22.5 kmh SW 30.0 mph48.3 kmh 29.90 in1012.5 mb 0.00 in0.0 mm 0.00 in/hr0.0 mm/hr 0.00 in0.0 mm
08:40 AM 52.9°F11.6°C 50.7°F10.4°C 92% 14.0 mph SW22.5 kmh SW 30.0 mph48.3 kmh 29.90 in1012.5 mb 0.00 in0.0 mm 0.00 in/hr0.0 mm/hr 0.00 in0.0 mm
08:39 AM 52.9°F11.6°C 50.7°F10.4°C 92% 14.0 mph SW22.5 kmh SW 30.0 mph48.3 kmh 29.90 in1012.5 mb 0.00 in0.0 mm 0.00 in/hr0.0 mm/hr 0.00 in0.0 mm
08:38 AM 52.9°F11.6°C 50.7°F10.4°C 92% 15.0 mph SW24.1 kmh SW 27.0 mph43.5 kmh 29.90 in1012.5 mb 0.00 in0.0 mm 0.00 in/hr0.0 mm/hr 0.00 in0.0 mm
08:37 AM 52.9°F11.6°C 50.7°F10.4°C 92% 15.0 mph SW24.1 kmh SW 27.0 mph43.5 kmh 29.90 in1012.5 mb 0.00 in0.0 mm 0.00 in/hr0.0 mm/hr 0.00 in0.0 mm
08:36 AM 52.9°F11.6°C 50.7°F10.4°C 92% 15.0 mph SW24.1 kmh SW 27.0 mph43.5 kmh 29.91 in1012.9 mb 0.00 in0.0 mm 0.00 in/hr0.0 mm/hr 0.00 in0.0 mm
08:35 AM 52.9°F11.6°C 50.7°F10.4°C 92% 15.0 mph SW24.1 kmh SW 27.0 mph43.5 kmh 29.91 in1012.9 mb 0.00 in0.0 mm 0.00 in/hr0.0 mm/hr 0.00 in0.0 mm
08:34 AM 52.9°F11.6°C 50.7°F10.4°C 92% 15.0 mph SW24.1 kmh SW 27.0 mph43.5 kmh 29.91 in1012.9 mb 0.00 in0.0 mm 0.00 in/hr0.0 mm/hr 0.00 in0.0 mm
08:33 AM 52.9°F11.6°C 50.7°F10.4°C 92% 15.0 mph SW24.1 kmh SW 27.0 mph43.5 kmh 29.91 in1012.9 mb 0.00 in0.0 mm 0.00 in/hr0.0 mm/hr 0.00 in0.0 mm
08:32 AM 52.9°F11.6°C 50.7°F10.4°C 92% 15.0 mph SW24.1 kmh SW 27.0 mph43.5 kmh 29.91 in1012.9 mb 0.00 in0.0 mm 0.00 in/hr0.0 mm/hr 0.00 in0.0 mm
08:31 AM 52.9°F11.6°C 50.7°F10.4°C 92% 15.0 mph SW24.1 kmh SW 27.0 mph43.5 kmh 29.91 in1012.9 mb 0.00 in0.0 mm 0.00 in/hr0.0 mm/hr 0.00 in0.0 mm
08:30 AM 52.9°F11.6°C 50.7°F10.4°C 92% 15.0 mph SW24.1 kmh SW 27.0 mph43.5 kmh 29.91 in1012.9 mb 0.00 in0.0 mm 0.00 in/hr0.0 mm/hr 0.00 in0.0 mm
08:29 AM 52.9°F11.6°C 50.7°F10.4°C 92% 15.0 mph SW24.1 kmh SW 27.0 mph43.5 kmh 29.91 in1012.9 mb 0.00 in0.0 mm 0.00 in/hr0.0 mm/hr 0.00 in0.0 mm
08:28 AM 52.9°F11.6°C 50.7°F10.4°C 92% 15.0 mph SW24.1 kmh SW 31.0 mph49.9 kmh 29.91 in1012.9 mb 0.00 in0.0 mm 0.00 in/hr0.0 mm/hr 0.00 in0.0 mm
08:27 AM 52.9°F11.6°C 50.5°F10.3°C 92% 15.0 mph SW24.1 kmh SW 31.0 mph49.9 kmh 29.91 in1012.9 mb 0.00 in0.0 mm 0.00 in/hr0.0 mm/hr 0.00 in0.0 mm
08:26 AM 52.9°F11.6°C 50.5°F10.3°C 92% 15.0 mph SW24.1 kmh SW 31.0 mph49.9 kmh 29.91 in1012.9 mb 0.00 in0.0 mm 0.00 in/hr0.0 mm/hr 0.00 in0.0 mm
08:25 AM 52.9°F11.6°C 50.5°F10.3°C 92% 15.0 mph SW24.1 kmh SW 31.0 mph49.9 kmh 29.91 in1012.9 mb 0.00 in0.0 mm 0.00 in/hr0.0 mm/hr 0.00 in0.0 mm
08:24 AM 52.9°F11.6°C 50.5°F10.3°C 92% 15.0 mph SW24.1 kmh SW 31.0 mph49.9 kmh 29.91 in1012.9 mb 0.00 in0.0 mm 0.00 in/hr0.0 mm/hr 0.00 in0.0 mm
08:23 AM 52.9°F11.6°C 50.5°F10.3°C 92% 15.0 mph SW24.1 kmh SW 31.0 mph49.9 kmh 29.91 in1012.9 mb 0.00 in0.0 mm 0.00 in/hr0.0 mm/hr 0.00 in0.0 mm
08:22 AM 52.9°F11.6°C 50.5°F10.3°C 92% 15.0 mph SW24.1 kmh SW 31.0 mph49.9 kmh 29.91 in1012.9 mb 0.00 in0.0 mm 0.00 in/hr0.0 mm/hr 0.00 in0.0 mm
08:21 AM 52.9°F11.6°C 50.5°F10.3°C 92% 15.0 mph SW24.1 kmh SW 31.0 mph49.9 kmh 29.91 in1012.9 mb 0.00 in0.0 mm 0.00 in/hr0.0 mm/hr 0.00 in0.0 mm
08:20 AM 52.9°F11.6°C 50.5°F10.3°C 92% 15.0 mph SW24.1 kmh SW 31.0 mph49.9 kmh 29.91 in1012.9 mb 0.00 in0.0 mm 0.00 in/hr0.0 mm/hr 0.00 in0.0 mm
08:19 AM 52.9°F11.6°C 50.5°F10.3°C 92% 15.0 mph SW24.1 kmh SW 31.0 mph49.9 kmh 29.90 in1012.5 mb 0.00 in0.0 mm 0.00 in/hr0.0 mm/hr 0.00 in0.0 mm
08:18 AM 52.9°F11.6°C 50.5°F10.3°C 92% 14.0 mph SW22.5 kmh SW 27.0 mph43.5 kmh 29.90 in1012.5 mb 0.00 in0.0 mm 0.00 in/hr0.0 mm/hr 0.00 in0.0 mm
08:17 AM 52.9°F11.6°C 50.5°F10.3°C 92% 14.0 mph SW22.5 kmh SW 27.0 mph43.5 kmh 29.90 in1012.5 mb 0.00 in0.0 mm 0.00 in/hr0.0 mm/hr 0.00 in0.0 mm
08:16 AM 52.9°F11.6°C 50.5°F10.3°C 92% 14.0 mph SW22.5 kmh SW 27.0 mph43.5 kmh 29.91 in1012.9 mb 0.00 in0.0 mm 0.00 in/hr0.0 mm/hr 0.00 in0.0 mm
08:15 AM 52.9°F11.6°C 50.7°F10.4°C 92% 14.0 mph SW22.5 kmh SW 27.0 mph43.5 kmh 29.91 in1012.9 mb 0.00 in0.0 mm 0.00 in/hr0.0 mm/hr 0.00 in0.0 mm
08:14 AM 52.9°F11.6°C 50.7°F10.4°C 92% 14.0 mph SW22.5 kmh SW 27.0 mph43.5 kmh 29.90 in1012.5 mb 0.00 in0.0 mm 0.00 in/hr0.0 mm/hr 0.00 in0.0 mm
08:13 AM 52.9°F11.6°C 50.5°F10.3°C 92% 13.0 mph SW20.9 kmh SW 27.0 mph43.5 kmh 29.91 in1012.9 mb 0.00 in0.0 mm 0.00 in/hr0.0 mm/hr 0.00 in0.0 mm
08:12 AM 52.9°F11.6°C 50.5°F10.3°C 92% 13.0 mph SW20.9 kmh SW 27.0 mph43.5 kmh 29.91 in1012.9 mb 0.00 in0.0 mm 0.00 in/hr0.0 mm/hr 0.00 in0.0 mm
08:11 AM 52.9°F11.6°C 50.5°F10.3°C 92% 14.0 mph SW22.5 kmh SW 27.0 mph43.5 kmh 29.91 in1012.9 mb 0.00 in0.0 mm 0.00 in/hr0.0 mm/hr 0.00 in0.0 mm
08:10 AM 52.9°F11.6°C 50.5°F10.3°C 92% 13.0 mph SW20.9 kmh SW 29.0 mph46.7 kmh 29.91 in1012.9 mb 0.00 in0.0 mm 0.00 in/hr0.0 mm/hr 0.00 in0.0 mm
08:09 AM 52.9°F11.6°C 50.5°F10.3°C 92% 13.0 mph SW20.9 kmh SW 29.0 mph46.7 kmh 29.90 in1012.5 mb 0.00 in0.0 mm 0.00 in/hr0.0 mm/hr 0.00 in0.0 mm
08:08 AM 52.9°F11.6°C 50.5°F10.3°C 92% 14.0 mph SW22.5 kmh SW 29.0 mph46.7 kmh 29.90 in1012.5 mb 0.00 in0.0 mm 0.00 in/hr0.0 mm/hr 0.00 in0.0 mm
08:07 AM 52.9°F11.6°C 50.5°F10.3°C 92% 15.0 mph SW24.1 kmh SW 29.0 mph46.7 kmh 29.90 in1012.5 mb 0.00 in0.0 mm 0.00 in/hr0.0 mm/hr 0.00 in0.0 mm
08:06 AM 52.9°F11.6°C 50.5°F10.3°C 92% 15.0 mph SW24.1 kmh SW 29.0 mph46.7 kmh 29.90 in1012.5 mb 0.00 in0.0 mm 0.00 in/hr0.0 mm/hr 0.00 in0.0 mm
08:05 AM 52.9°F11.6°C 50.5°F10.3°C 92% 15.0 mph SW24.1 kmh SW 29.0 mph46.7 kmh 29.91 in1012.9 mb 0.00 in0.0 mm 0.00 in/hr0.0 mm/hr 0.00 in0.0 mm
08:04 AM 52.9°F11.6°C 50.5°F10.3°C 92% 15.0 mph SW24.1 kmh SW 29.0 mph46.7 kmh 29.91 in1012.9 mb 0.00 in0.0 mm 0.00 in/hr0.0 mm/hr 0.00 in0.0 mm
08:03 AM 52.9°F11.6°C 50.5°F10.3°C 92% 15.0 mph SW24.1 kmh SW 29.0 mph46.7 kmh 29.91 in1012.9 mb 0.00 in0.0 mm 0.00 in/hr0.0 mm/hr 0.00 in0.0 mm
08:02 AM 52.9°F11.6°C 50.5°F10.3°C 92% 15.0 mph SW24.1 kmh SW 29.0 mph46.7 kmh 29.91 in1012.9 mb 0.00 in0.0 mm 0.00 in/hr0.0 mm/hr 0.00 in0.0 mm
08:01 AM 52.9°F11.6°C 50.5°F10.3°C 92% 15.0 mph SW24.1 kmh SW 29.0 mph46.7 kmh 29.90 in1012.5 mb 0.00 in0.0 mm 0.00 in/hr0.0 mm/hr 0.00 in0.0 mm
08:00 AM 52.9°F11.6°C 50.5°F10.3°C 92% 15.0 mph SW24.1 kmh SW 26.0 mph41.8 kmh 29.90 in1012.5 mb 0.00 in0.0 mm 0.00 in/hr0.0 mm/hr 0.00 in0.0 mm
07:59 AM 52.9°F11.6°C 50.5°F10.3°C 92% 14.0 mph SW22.5 kmh SW 26.0 mph41.8 kmh 29.91 in1012.9 mb 0.00 in0.0 mm 0.00 in/hr0.0 mm/hr 0.00 in0.0 mm
07:58 AM 52.7°F11.5°C 50.4°F10.2°C 92% 14.0 mph SW22.5 kmh SW 26.0 mph41.8 kmh 29.91 in1012.9 mb 0.00 in0.0 mm 0.00 in/hr0.0 mm/hr 0.00 in0.0 mm
07:57 AM 52.7°F11.5°C 50.4°F10.2°C 92% 14.0 mph SW22.5 kmh SW 26.0 mph41.8 kmh 29.91 in1012.9 mb 0.00 in0.0 mm 0.00 in/hr0.0 mm/hr 0.00 in0.0 mm
07:56 AM 52.7°F11.5°C 50.4°F10.2°C 92% 14.0 mph SW22.5 kmh SW 26.0 mph41.8 kmh 29.91 in1012.9 mb 0.00 in0.0 mm 0.00 in/hr0.0 mm/hr 0.00 in0.0 mm
07:55 AM 52.7°F11.5°C 50.4°F10.2°C 92% 14.0 mph SW22.5 kmh SW 26.0 mph41.8 kmh 29.91 in1012.9 mb 0.00 in0.0 mm 0.00 in/hr0.0 mm/hr 0.00 in0.0 mm
07:54 AM 52.7°F11.5°C 50.4°F10.2°C 92% 14.0 mph SW22.5 kmh SW 26.0 mph41.8 kmh 29.90 in1012.5 mb 0.00 in0.0 mm 0.00 in/hr0.0 mm/hr 0.00 in0.0 mm
07:53 AM 52.7°F11.5°C 50.4°F10.2°C 92% 14.0 mph SW22.5 kmh SW 26.0 mph41.8 kmh 29.91 in1012.9 mb 0.00 in0.0 mm 0.00 in/hr0.0 mm/hr 0.00 in0.0 mm
07:52 AM 52.5°F11.4°C 50.4°F10.2°C 92% 14.0 mph SW22.5 kmh SW 26.0 mph41.8 kmh 29.91 in1012.9 mb 0.00 in0.0 mm 0.00 in/hr0.0 mm/hr 0.00 in0.0 mm
07:51 AM 52.5°F11.4°C 50.4°F10.2°C 92% 15.0 mph SW24.1 kmh SW 26.0 mph41.8 kmh 29.90 in1012.5 mb 0.00 in0.0 mm 0.00 in/hr0.0 mm/hr 0.00 in0.0 mm
07:50 AM 52.5°F11.4°C 50.4°F10.2°C 92% 15.0 mph SW24.1 kmh SW 29.0 mph46.7 kmh 29.90 in1012.5 mb 0.00 in0.0 mm 0.00 in/hr0.0 mm/hr 0.00 in0.0 mm
07:49 AM 52.5°F11.4°C 50.4°F10.2°C 92% 15.0 mph SW24.1 kmh SW 29.0 mph46.7 kmh 29.91 in1012.9 mb 0.00 in0.0 mm 0.00 in/hr0.0 mm/hr 0.00 in0.0 mm
07:48 AM 52.5°F11.4°C 50.4°F10.2°C 92% 15.0 mph SW24.1 kmh SW 33.0 mph53.1 kmh 29.90 in1012.5 mb 0.00 in0.0 mm 0.00 in/hr0.0 mm/hr 0.00 in0.0 mm
07:47 AM 52.5°F11.4°C 50.4°F10.2°C 92% 15.0 mph SW24.1 kmh SW 33.0 mph53.1 kmh 29.90 in1012.5 mb 0.00 in0.0 mm 0.00 in/hr0.0 mm/hr 0.00 in0.0 mm
07:46 AM 52.5°F11.4°C 50.4°F10.2°C 92% 15.0 mph SW24.1 kmh SW 33.0 mph53.1 kmh 29.90 in1012.5 mb 0.00 in0.0 mm 0.00 in/hr0.0 mm/hr 0.00 in0.0 mm
07:45 AM 52.5°F11.4°C 50.4°F10.2°C 92% 15.0 mph SW24.1 kmh SW 33.0 mph53.1 kmh 29.90 in1012.5 mb 0.00 in0.0 mm 0.00 in/hr0.0 mm/hr 0.00 in0.0 mm
07:44 AM 52.5°F11.4°C 50.2°F10.1°C 92% 15.0 mph SW24.1 kmh SW 33.0 mph53.1 kmh 29.90 in1012.5 mb 0.00 in0.0 mm 0.00 in/hr0.0 mm/hr 0.00 in0.0 mm
07:43 AM 52.5°F11.4°C 50.2°F10.1°C 92% 15.0 mph SW24.1 kmh SW 33.0 mph53.1 kmh 29.90 in1012.5 mb 0.00 in0.0 mm 0.00 in/hr0.0 mm/hr 0.00 in0.0 mm
07:42 AM 52.5°F11.4°C 50.2°F10.1°C 92% 15.0 mph SW24.1 kmh SW 33.0 mph53.1 kmh 29.90 in1012.5 mb 0.00 in0.0 mm 0.00 in/hr0.0 mm/hr 0.00 in0.0 mm
07:41 AM 52.5°F11.4°C 50.2°F10.1°C 92% 14.0 mph SW22.5 kmh SW 33.0 mph53.1 kmh 29.90 in1012.5 mb 0.00 in0.0 mm 0.00 in/hr0.0 mm/hr 0.00 in0.0 mm
07:40 AM 52.5°F11.4°C 50.2°F10.1°C 92% 14.0 mph SW22.5 kmh SW 33.0 mph53.1 kmh 29.90 in1012.5 mb 0.00 in0.0 mm 0.00 in/hr0.0 mm/hr 0.00 in0.0 mm
07:39 AM 52.5°F11.4°C 50.2°F10.1°C 92% 14.0 mph SW22.5 kmh SW 33.0 mph53.1 kmh 29.90 in1012.5 mb 0.00 in0.0 mm 0.00 in/hr0.0 mm/hr 0.00 in0.0 mm
07:38 AM 52.5°F11.4°C 50.2°F10.1°C 92% 13.0 mph SW20.9 kmh SW 27.0 mph43.5 kmh 29.90 in1012.5 mb 0.00 in0.0 mm 0.00 in/hr0.0 mm/hr 0.00 in0.0 mm
07:37 AM 52.5°F11.4°C 50.2°F10.1°C 92% 14.0 mph SW22.5 kmh SW 27.0 mph43.5 kmh 29.91 in1012.9 mb 0.00 in0.0 mm 0.00 in/hr0.0 mm/hr 0.00 in0.0 mm
07:36 AM 52.5°F11.4°C 50.2°F10.1°C 92% 14.0 mph SW22.5 kmh SW 27.0 mph43.5 kmh 29.91 in1012.9 mb 0.00 in0.0 mm 0.00 in/hr0.0 mm/hr 0.00 in0.0 mm
07:35 AM 52.5°F11.4°C 50.2°F10.1°C 92% 13.0 mph SW20.9 kmh SW 27.0 mph43.5 kmh 29.91 in1012.9 mb 0.00 in0.0 mm 0.00 in/hr0.0 mm/hr 0.00 in0.0 mm
07:34 AM 52.5°F11.4°C 50.2°F10.1°C 92% 13.0 mph SW20.9 kmh SW 24.0 mph38.6 kmh 29.91 in1012.9 mb 0.00 in0.0 mm 0.00 in/hr0.0 mm/hr 0.00 in0.0 mm
07:33 AM 52.5°F11.4°C 50.2°F10.1°C 92% 13.0 mph SW20.9 kmh SW 24.0 mph38.6 kmh 29.91 in1012.9 mb 0.00 in0.0 mm 0.00 in/hr0.0 mm/hr 0.00 in0.0 mm
07:32 AM 52.5°F11.4°C 50.2°F10.1°C 92% 13.0 mph SW20.9 kmh SW 24.0 mph38.6 kmh 29.91 in1012.9 mb 0.00 in0.0 mm 0.00 in/hr0.0 mm/hr 0.00 in0.0 mm
07:31 AM 52.5°F11.4°C 50.2°F10.1°C 92% 13.0 mph SW20.9 kmh SW 24.0 mph38.6 kmh 29.90 in1012.5 mb 0.00 in0.0 mm 0.00 in/hr0.0 mm/hr 0.00 in0.0 mm
07:30 AM 52.5°F11.4°C 50.2°F10.1°C 92% 13.0 mph SW20.9 kmh SW 24.0 mph38.6 kmh 29.91 in1012.9 mb 0.00 in0.0 mm 0.00 in/hr0.0 mm/hr 0.00 in0.0 mm
07:29 AM 52.5°F11.4°C 50.2°F10.1°C 92% 13.0 mph SW20.9 kmh SW 23.0 mph37.0 kmh 29.91 in1012.9 mb 0.00 in0.0 mm 0.00 in/hr0.0 mm/hr 0.00 in0.0 mm
07:28 AM 52.5°F11.4°C 50.5°F10.3°C 93% 13.0 mph SW20.9 kmh SW 23.0 mph37.0 kmh 29.91 in1012.9 mb 0.00 in0.0 mm 0.00 in/hr0.0 mm/hr 0.00 in0.0 mm
07:27 AM 52.5°F11.4°C 50.2°F10.1°C 92% 13.0 mph SW20.9 kmh SW 24.0 mph38.6 kmh 29.90 in1012.5 mb 0.00 in0.0 mm 0.00 in/hr0.0 mm/hr 0.00 in0.0 mm
07:26 AM 52.3°F11.3°C 50.4°F10.2°C 93% 12.0 mph SW19.3 kmh SW 24.0 mph38.6 kmh 29.91 in1012.9 mb 0.00 in0.0 mm 0.00 in/hr0.0 mm/hr 0.00 in0.0 mm
07:25 AM 52.3°F11.3°C 50.4°F10.2°C 93% 12.0 mph SW19.3 kmh SW 24.0 mph38.6 kmh 29.91 in1012.9 mb 0.00 in0.0 mm 0.00 in/hr0.0 mm/hr 0.00 in0.0 mm
07:24 AM 52.3°F11.3°C 50.4°F10.2°C 93% 12.0 mph SW19.3 kmh SW 24.0 mph38.6 kmh 29.91 in1012.9 mb 0.00 in0.0 mm 0.00 in/hr0.0 mm/hr 0.00 in0.0 mm
07:23 AM 52.3°F11.3°C 50.4°F10.2°C 93% 12.0 mph SW19.3 kmh SW 24.0 mph38.6 kmh 29.91 in1012.9 mb 0.00 in0.0 mm 0.00 in/hr0.0 mm/hr 0.00 in0.0 mm
07:22 AM 52.3°F11.3°C 50.4°F10.2°C 93% 12.0 mph SW19.3 kmh SW 24.0 mph38.6 kmh 29.91 in1012.9 mb 0.00 in0.0 mm 0.00 in/hr0.0 mm/hr 0.00 in0.0 mm
07:21 AM 52.3°F11.3°C 50.2°F10.1°C 92% 13.0 mph SW20.9 kmh SW 24.0 mph38.6 kmh 29.91 in1012.9 mb 0.00 in0.0 mm 0.00 in/hr0.0 mm/hr 0.00 in0.0 mm
07:20 AM 52.3°F11.3°C 50.2°F10.1°C 92% 12.0 mph SW19.3 kmh SW 26.0 mph41.8 kmh 29.91 in1012.9 mb 0.00 in0.0 mm 0.00 in/hr0.0 mm/hr 0.00 in0.0 mm
07:19 AM 52.3°F11.3°C 50.2°F10.1°C 92% 13.0 mph SW20.9 kmh SW 26.0 mph41.8 kmh 29.91 in1012.9 mb 0.00 in0.0 mm 0.00 in/hr0.0 mm/hr 0.00 in0.0 mm
07:18 AM 52.3°F11.3°C 50.2°F10.1°C 92% 13.0 mph SW20.9 kmh SW 26.0 mph41.8 kmh 29.91 in1012.9 mb 0.00 in0.0 mm 0.00 in/hr0.0 mm/hr 0.00 in0.0 mm
07:17 AM 52.3°F11.3°C 50.2°F10.1°C 92% 13.0 mph SW20.9 kmh SW 27.0 mph43.5 kmh 29.91 in1012.9 mb 0.00 in0.0 mm 0.00 in/hr0.0 mm/hr 0.00 in0.0 mm
07:16 AM 52.3°F11.3°C 50.2°F10.1°C 92% 14.0 mph SW22.5 kmh SW 27.0 mph43.5 kmh 29.91 in1012.9 mb 0.00 in0.0 mm 0.00 in/hr0.0 mm/hr 0.00 in0.0 mm
07:15 AM 52.3°F11.3°C 50.2°F10.1°C 92% 14.0 mph SW22.5 kmh SW 27.0 mph43.5 kmh 29.91 in1012.9 mb 0.00 in0.0 mm 0.00 in/hr0.0 mm/hr 0.00 in0.0 mm
07:14 AM 52.5°F11.4°C 50.2°F10.1°C 92% 15.0 mph SW24.1 kmh SW 27.0 mph43.5 kmh 29.91 in1012.9 mb 0.00 in0.0 mm 0.00 in/hr0.0 mm/hr 0.00 in0.0 mm
07:13 AM 52.5°F11.4°C 50.2°F10.1°C 92% 14.0 mph SW22.5 kmh SW 27.0 mph43.5 kmh 29.91 in1012.9 mb 0.00 in0.0 mm 0.00 in/hr0.0 mm/hr 0.00 in0.0 mm
07:12 AM 52.5°F11.4°C 50.2°F10.1°C 92% 15.0 mph SW24.1 kmh SW 27.0 mph43.5 kmh 29.91 in1012.9 mb 0.00 in0.0 mm 0.00 in/hr0.0 mm/hr 0.00 in0.0 mm
07:11 AM 52.5°F11.4°C 50.2°F10.1°C 92% 14.0 mph SW22.5 kmh SW 27.0 mph43.5 kmh 29.91 in1012.9 mb 0.00 in0.0 mm 0.00 in/hr0.0 mm/hr 0.00 in0.0 mm
07:10 AM 52.5°F11.4°C 50.2°F10.1°C 92% 15.0 mph SW24.1 kmh SW 27.0 mph43.5 kmh 29.91 in1012.9 mb 0.00 in0.0 mm 0.00 in/hr0.0 mm/hr 0.00 in0.0 mm
07:09 AM 52.5°F11.4°C 50.2°F10.1°C 92% 15.0 mph SW24.1 kmh SW 27.0 mph43.5 kmh 29.91 in1012.9 mb 0.00 in0.0 mm 0.00 in/hr0.0 mm/hr 0.00 in0.0 mm
07:08 AM 52.5°F11.4°C 50.2°F10.1°C 92% 15.0 mph SW24.1 kmh SW 27.0 mph43.5 kmh 29.91 in1012.9 mb 0.00 in0.0 mm 0.00 in/hr0.0 mm/hr 0.00 in0.0 mm
07:07 AM 52.5°F11.4°C 50.2°F10.1°C 92% 15.0 mph SW24.1 kmh SW 30.0 mph48.3 kmh 29.91 in1012.9 mb 0.00 in0.0 mm 0.00 in/hr0.0 mm/hr 0.00 in0.0 mm
07:06 AM 52.5°F11.4°C 50.2°F10.1°C 92% 15.0 mph SW24.1 kmh SW 30.0 mph48.3 kmh 29.91 in1012.9 mb 0.00 in0.0 mm 0.00 in/hr0.0 mm/hr 0.00 in0.0 mm
07:05 AM 52.5°F11.4°C 50.2°F10.1°C 92% 15.0 mph SW24.1 kmh SW 30.0 mph48.3 kmh 29.91 in1012.9 mb 0.00 in0.0 mm 0.00 in/hr0.0 mm/hr 0.00 in0.0 mm
07:04 AM 52.5°F11.4°C 50.2°F10.1°C 92% 15.0 mph SW24.1 kmh SW 30.0 mph48.3 kmh 29.91 in1012.9 mb 0.00 in0.0 mm 0.00 in/hr0.0 mm/hr 0.00 in0.0 mm
07:03 AM 52.5°F11.4°C 50.2°F10.1°C 92% 14.0 mph SW22.5 kmh SW 30.0 mph48.3 kmh 29.91 in1012.9 mb 0.00 in0.0 mm 0.00 in/hr0.0 mm/hr 0.00 in0.0 mm
07:02 AM 52.5°F11.4°C 50.2°F10.1°C 92% 14.0 mph SW22.5 kmh SW 30.0 mph48.3 kmh 29.91 in1012.9 mb 0.00 in0.0 mm 0.00 in/hr0.0 mm/hr 0.00 in0.0 mm
07:01 AM 52.5°F11.4°C 50.2°F10.1°C 92% 14.0 mph SW22.5 kmh SW 30.0 mph48.3 kmh 29.91 in1012.9 mb 0.00 in0.0 mm 0.00 in/hr0.0 mm/hr 0.00 in0.0 mm
07:00 AM 52.5°F11.4°C 50.2°F10.1°C 92% 14.0 mph SW22.5 kmh SW 30.0 mph48.3 kmh 29.91 in1012.9 mb 0.00 in0.0 mm 0.00 in/hr0.0 mm/hr 0.00 in0.0 mm
06:59 AM 52.5°F11.4°C 50.2°F10.1°C 92% 14.0 mph SW22.5 kmh SW 30.0 mph48.3 kmh 29.91 in1012.9 mb 0.00 in0.0 mm 0.00 in/hr0.0 mm/hr 0.00 in0.0 mm
06:58 AM 52.5°F11.4°C 50.2°F10.1°C 92% 14.0 mph SW22.5 kmh SW 30.0 mph48.3 kmh 29.91 in1012.9 mb 0.00 in0.0 mm 0.00 in/hr0.0 mm/hr 0.00 in0.0 mm
06:57 AM 52.5°F11.4°C 50.5°F10.3°C 93% 14.0 mph SW22.5 kmh SW 27.0 mph43.5 kmh 29.91 in1012.9 mb 0.00 in0.0 mm 0.00 in/hr0.0 mm/hr 0.00 in0.0 mm
06:56 AM 52.5°F11.4°C 50.5°F10.3°C 93% 14.0 mph SW22.5 kmh SW 27.0 mph43.5 kmh 29.91 in1012.9 mb 0.00 in0.0 mm 0.00 in/hr0.0 mm/hr 0.00 in0.0 mm
06:55 AM 52.5°F11.4°C 50.5°F10.3°C 93% 14.0 mph SW22.5 kmh SW 27.0 mph43.5 kmh 29.91 in1012.9 mb 0.00 in0.0 mm 0.00 in/hr0.0 mm/hr 0.00 in0.0 mm
06:54 AM 52.3°F11.3°C 50.4°F10.2°C 93% 14.0 mph SW22.5 kmh SW 27.0 mph43.5 kmh 29.91 in1012.9 mb 0.00 in0.0 mm 0.00 in/hr0.0 mm/hr 0.00 in0.0 mm
06:53 AM 52.3°F11.3°C 50.4°F10.2°C 93% 13.0 mph SW20.9 kmh SW 27.0 mph43.5 kmh 29.91 in1012.9 mb 0.00 in0.0 mm 0.00 in/hr0.0 mm/hr 0.00 in0.0 mm
06:52 AM 52.3°F11.3°C 50.4°F10.2°C 93% 14.0 mph SW22.5 kmh SW 27.0 mph43.5 kmh 29.91 in1012.9 mb 0.00 in0.0 mm 0.00 in/hr0.0 mm/hr 0.00 in0.0 mm
06:51 AM 52.3°F11.3°C 50.4°F10.2°C 93% 14.0 mph SW22.5 kmh SW 27.0 mph43.5 kmh 29.91 in1012.9 mb 0.00 in0.0 mm 0.00 in/hr0.0 mm/hr 0.00 in0.0 mm
06:50 AM 52.3°F11.3°C 50.4°F10.2°C 93% 14.0 mph SW22.5 kmh SW 28.0 mph45.1 kmh 29.91 in1012.9 mb 0.00 in0.0 mm 0.00 in/hr0.0 mm/hr 0.00 in0.0 mm
06:49 AM 52.3°F11.3°C 50.4°F10.2°C 93% 14.0 mph SW22.5 kmh SW 28.0 mph45.1 kmh 29.91 in1012.9 mb 0.00 in0.0 mm 0.00 in/hr0.0 mm/hr 0.00 in0.0 mm
06:48 AM 52.3°F11.3°C 50.4°F10.2°C 93% 14.0 mph SW22.5 kmh SW 28.0 mph45.1 kmh 29.91 in1012.9 mb 0.00 in0.0 mm 0.00 in/hr0.0 mm/hr 0.00 in0.0 mm
06:47 AM 52.3°F11.3°C 50.4°F10.2°C 93% 14.0 mph SW22.5 kmh SW 28.0 mph45.1 kmh 29.91 in1012.9 mb 0.00 in0.0 mm 0.00 in/hr0.0 mm/hr 0.00 in0.0 mm
06:46 AM 52.3°F11.3°C 50.4°F10.2°C 93% 14.0 mph SW22.5 kmh SW 28.0 mph45.1 kmh 29.91 in1012.9 mb 0.00 in0.0 mm 0.00 in/hr0.0 mm/hr 0.00 in0.0 mm
06:45 AM 52.3°F11.3°C 50.4°F10.2°C 93% 14.0 mph SW22.5 kmh SW 28.0 mph45.1 kmh 29.91 in1012.9 mb 0.00 in0.0 mm 0.00 in/hr0.0 mm/hr 0.00 in0.0 mm
06:44 AM 52.3°F11.3°C 50.4°F10.2°C 93% 14.0 mph SW22.5 kmh SW 28.0 mph45.1 kmh 29.91 in1012.9 mb 0.00 in0.0 mm 0.00 in/hr0.0 mm/hr 0.00 in0.0 mm
06:43 AM 52.3°F11.3°C 50.4°F10.2°C 93% 15.0 mph SW24.1 kmh SW 28.0 mph45.1 kmh 29.91 in1012.9 mb 0.00 in0.0 mm 0.00 in/hr0.0 mm/hr 0.00 in0.0 mm
06:42 AM 52.3°F11.3°C 50.2°F10.1°C 92% 15.0 mph SW24.1 kmh SW 28.0 mph45.1 kmh 29.91 in1012.9 mb 0.00 in0.0 mm 0.00 in/hr0.0 mm/hr 0.00 in0.0 mm
06:41 AM 52.3°F11.3°C 50.4°F10.2°C 93% 14.0 mph SW22.5 kmh SW 28.0 mph45.1 kmh 29.91 in1012.9 mb 0.00 in0.0 mm 0.00 in/hr0.0 mm/hr 0.00 in0.0 mm
06:40 AM 52.3°F11.3°C 50.4°F10.2°C 93% 14.0 mph SW22.5 kmh SW 27.0 mph43.5 kmh 29.91 in1012.9 mb 0.00 in0.0 mm 0.00 in/hr0.0 mm/hr 0.00 in0.0 mm
06:39 AM 52.3°F11.3°C 50.4°F10.2°C 93% 14.0 mph SW22.5 kmh SW 25.0 mph40.2 kmh 29.91 in1012.9 mb 0.00 in0.0 mm 0.00 in/hr0.0 mm/hr 0.00 in0.0 mm
06:38 AM 52.3°F11.3°C 50.4°F10.2°C 93% 13.0 mph SW20.9 kmh SW 25.0 mph40.2 kmh 29.91 in1012.9 mb 0.00 in0.0 mm 0.00 in/hr0.0 mm/hr 0.00 in0.0 mm
06:37 AM 52.3°F11.3°C 50.4°F10.2°C 93% 13.0 mph SW20.9 kmh SW 25.0 mph40.2 kmh 29.91 in1012.9 mb 0.00 in0.0 mm 0.00 in/hr0.0 mm/hr 0.00 in0.0 mm
06:36 AM 52.3°F11.3°C 50.0°F10.0°C 92% 13.0 mph SW20.9 kmh SW 25.0 mph40.2 kmh 29.91 in1012.9 mb 0.00 in0.0 mm 0.00 in/hr0.0 mm/hr 0.00 in0.0 mm
06:35 AM 52.3°F11.3°C 50.0°F10.0°C 92% 13.0 mph SW20.9 kmh SW 25.0 mph40.2 kmh 29.91 in1012.9 mb 0.00 in0.0 mm 0.00 in/hr0.0 mm/hr 0.00 in0.0 mm
06:34 AM 52.3°F11.3°C 50.0°F10.0°C 92% 13.0 mph SW20.9 kmh SW 25.0 mph40.2 kmh 29.91 in1012.9 mb 0.00 in0.0 mm 0.00 in/hr0.0 mm/hr 0.00 in0.0 mm
06:33 AM 52.3°F11.3°C 50.0°F10.0°C 92% 12.0 mph SW19.3 kmh SW 25.0 mph40.2 kmh 29.91 in1012.9 mb 0.00 in0.0 mm 0.00 in/hr0.0 mm/hr 0.00 in0.0 mm
06:32 AM 52.3°F11.3°C 50.0°F10.0°C 92% 12.0 mph SW19.3 kmh SW 23.0 mph37.0 kmh 29.91 in1012.9 mb 0.00 in0.0 mm 0.00 in/hr0.0 mm/hr 0.00 in0.0 mm
06:31 AM 52.3°F11.3°C 50.0°F10.0°C 92% 12.0 mph SW19.3 kmh SW 24.0 mph38.6 kmh 29.91 in1012.9 mb 0.00 in0.0 mm 0.00 in/hr0.0 mm/hr 0.00 in0.0 mm
06:30 AM 52.3°F11.3°C 50.0°F10.0°C 92% 12.0 mph SW19.3 kmh SW 24.0 mph38.6 kmh 29.91 in1012.9 mb 0.00 in0.0 mm 0.00 in/hr0.0 mm/hr 0.00 in0.0 mm
06:29 AM 52.3°F11.3°C 50.0°F10.0°C 92% 12.0 mph SW19.3 kmh SW 24.0 mph38.6 kmh 29.91 in1012.9 mb 0.00 in0.0 mm 0.00 in/hr0.0 mm/hr 0.00 in0.0 mm
06:28 AM 52.3°F11.3°C 50.0°F10.0°C 92% 12.0 mph SW19.3 kmh SW 24.0 mph38.6 kmh 29.91 in1012.9 mb 0.00 in0.0 mm 0.00 in/hr0.0 mm/hr 0.00 in0.0 mm
06:27 AM 52.3°F11.3°C 50.0°F10.0°C 92% 12.0 mph SW19.3 kmh SW 24.0 mph38.6 kmh 29.92 in1013.2 mb 0.00 in0.0 mm 0.00 in/hr0.0 mm/hr 0.00 in0.0 mm
06:26 AM 52.3°F11.3°C 50.0°F10.0°C 92% 11.0 mph SW17.7 kmh SW 24.0 mph38.6 kmh 29.92 in1013.2 mb 0.00 in0.0 mm 0.00 in/hr0.0 mm/hr 0.00 in0.0 mm
06:25 AM 52.3°F11.3°C 50.0°F10.0°C 92% 11.0 mph SW17.7 kmh SW 24.0 mph38.6 kmh 29.91 in1012.9 mb 0.00 in0.0 mm 0.00 in/hr0.0 mm/hr 0.00 in0.0 mm
06:24 AM 52.3°F11.3°C 50.0°F10.0°C 92% 12.0 mph SW19.3 kmh SW 24.0 mph38.6 kmh 29.92 in1013.2 mb 0.00 in0.0 mm 0.00 in/hr0.0 mm/hr 0.00 in0.0 mm
06:23 AM 52.3°F11.3°C 50.0°F10.0°C 92% 12.0 mph SW19.3 kmh SW 24.0 mph38.6 kmh 29.92 in1013.2 mb 0.00 in0.0 mm 0.00 in/hr0.0 mm/hr 0.00 in0.0 mm
06:22 AM 52.3°F11.3°C 50.0°F10.0°C 92% 12.0 mph SW19.3 kmh SW 24.0 mph38.6 kmh 29.91 in1012.9 mb 0.00 in0.0 mm 0.00 in/hr0.0 mm/hr 0.00 in0.0 mm
06:21 AM 52.3°F11.3°C 50.2°F10.1°C 92% 12.0 mph SW19.3 kmh SW 22.0 mph35.4 kmh 29.91 in1012.9 mb 0.00 in0.0 mm 0.00 in/hr0.0 mm/hr 0.00 in0.0 mm
06:20 AM 52.3°F11.3°C 50.2°F10.1°C 92% 11.0 mph SW17.7 kmh SW 22.0 mph35.4 kmh 29.91 in1012.9 mb 0.00 in0.0 mm 0.00 in/hr0.0 mm/hr 0.00 in0.0 mm
06:19 AM 52.3°F11.3°C 50.0°F10.0°C 92% 11.0 mph SW17.7 kmh SW 22.0 mph35.4 kmh 29.91 in1012.9 mb 0.00 in0.0 mm 0.00 in/hr0.0 mm/hr 0.00 in0.0 mm
06:18 AM 52.3°F11.3°C 50.0°F10.0°C 92% 11.0 mph SW17.7 kmh SW 22.0 mph35.4 kmh 29.91 in1012.9 mb 0.00 in0.0 mm 0.00 in/hr0.0 mm/hr 0.00 in0.0 mm
06:17 AM 52.3°F11.3°C 50.0°F10.0°C 92% 12.0 mph SW19.3 kmh SW 22.0 mph35.4 kmh 29.91 in1012.9 mb 0.00 in0.0 mm 0.00 in/hr0.0 mm/hr 0.00 in0.0 mm
06:16 AM 52.3°F11.3°C 50.0°F10.0°C 92% 12.0 mph SW19.3 kmh SW 22.0 mph35.4 kmh 29.91 in1012.9 mb 0.00 in0.0 mm 0.00 in/hr0.0 mm/hr 0.00 in0.0 mm
06:15 AM 52.3°F11.3°C 50.0°F10.0°C 92% 12.0 mph SW19.3 kmh SW 24.0 mph38.6 kmh 29.91 in1012.9 mb 0.00 in0.0 mm 0.00 in/hr0.0 mm/hr 0.00 in0.0 mm
06:14 AM 52.3°F11.3°C 50.0°F10.0°C 92% 12.0 mph SW19.3 kmh SW 24.0 mph38.6 kmh 29.91 in1012.9 mb 0.00 in0.0 mm 0.00 in/hr0.0 mm/hr 0.00 in0.0 mm
06:13 AM 52.3°F11.3°C 50.0°F10.0°C 92% 12.0 mph SW19.3 kmh SW 24.0 mph38.6 kmh 29.92 in1013.2 mb 0.00 in0.0 mm 0.00 in/hr0.0 mm/hr 0.00 in0.0 mm
06:12 AM 52.3°F11.3°C 50.0°F10.0°C 92% 12.0 mph SW19.3 kmh SW 25.0 mph40.2 kmh 29.91 in1012.9 mb 0.00 in0.0 mm 0.00 in/hr0.0 mm/hr 0.00 in0.0 mm
06:11 AM 52.3°F11.3°C 50.0°F10.0°C 92% 12.0 mph SW19.3 kmh SW 25.0 mph40.2 kmh 29.92 in1013.2 mb 0.00 in0.0 mm 0.00 in/hr0.0 mm/hr 0.00 in0.0 mm
06:10 AM 52.3°F11.3°C 50.0°F10.0°C 92% 13.0 mph SW20.9 kmh SW 25.0 mph40.2 kmh 29.91 in1012.9 mb 0.00 in0.0 mm 0.00 in/hr0.0 mm/hr 0.00 in0.0 mm
06:09 AM 52.3°F11.3°C 50.0°F10.0°C 92% 13.0 mph SW20.9 kmh SW 25.0 mph40.2 kmh 29.91 in1012.9 mb 0.00 in0.0 mm 0.00 in/hr0.0 mm/hr 0.00 in0.0 mm
06:08 AM 52.3°F11.3°C 50.0°F10.0°C 92% 13.0 mph SW20.9 kmh SW 25.0 mph40.2 kmh 29.91 in1012.9 mb 0.00 in0.0 mm 0.00 in/hr0.0 mm/hr 0.00 in0.0 mm
06:07 AM 52.3°F11.3°C 50.0°F10.0°C 92% 13.0 mph SW20.9 kmh SW 25.0 mph40.2 kmh 29.91 in1012.9 mb 0.00 in0.0 mm 0.00 in/hr0.0 mm/hr 0.00 in0.0 mm
06:06 AM 52.3°F11.3°C 50.0°F10.0°C 92% 12.0 mph SW19.3 kmh SW 25.0 mph40.2 kmh 29.91 in1012.9 mb 0.00 in0.0 mm 0.00 in/hr0.0 mm/hr 0.00 in0.0 mm
06:05 AM 52.3°F11.3°C 50.0°F10.0°C 92% 13.0 mph SW20.9 kmh SW 25.0 mph40.2 kmh 29.91 in1012.9 mb 0.00 in0.0 mm 0.00 in/hr0.0 mm/hr 0.00 in0.0 mm
06:04 AM 52.3°F11.3°C 50.0°F10.0°C 92% 13.0 mph SW20.9 kmh SW 26.0 mph41.8 kmh 29.91 in1012.9 mb 0.00 in0.0 mm 0.00 in/hr0.0 mm/hr 0.00 in0.0 mm
06:03 AM 52.3°F11.3°C 50.0°F10.0°C 92% 12.0 mph SW19.3 kmh SW 26.0 mph41.8 kmh 29.91 in1012.9 mb 0.00 in0.0 mm 0.00 in/hr0.0 mm/hr 0.00 in0.0 mm
06:02 AM 52.3°F11.3°C 50.0°F10.0°C 92% 12.0 mph SW19.3 kmh SW 26.0 mph41.8 kmh 29.91 in1012.9 mb 0.00 in0.0 mm 0.00 in/hr0.0 mm/hr 0.00 in0.0 mm
06:01 AM 52.3°F11.3°C 50.0°F10.0°C 92% 13.0 mph SW20.9 kmh SW 26.0 mph41.8 kmh 29.91 in1012.9 mb 0.00 in0.0 mm 0.00 in/hr0.0 mm/hr 0.00 in0.0 mm
06:00 AM 52.3°F11.3°C 50.0°F10.0°C 92% 13.0 mph SW20.9 kmh SW 26.0 mph41.8 kmh 29.92 in1013.2 mb 0.00 in0.0 mm 0.00 in/hr0.0 mm/hr 0.00 in0.0 mm
05:59 AM 52.3°F11.3°C 50.0°F10.0°C 92% 13.0 mph SW20.9 kmh SW 26.0 mph41.8 kmh 29.91 in1012.9 mb 0.00 in0.0 mm 0.00 in/hr0.0 mm/hr 0.00 in0.0 mm
05:58 AM 52.3°F11.3°C 50.0°F10.0°C 92% 13.0 mph SW20.9 kmh SW 26.0 mph41.8 kmh 29.91 in1012.9 mb 0.00 in0.0 mm 0.00 in/hr0.0 mm/hr 0.00 in0.0 mm
05:57 AM 52.3°F11.3°C 50.0°F10.0°C 92% 13.0 mph SW20.9 kmh SW 26.0 mph41.8 kmh 29.91 in1012.9 mb 0.00 in0.0 mm 0.00 in/hr0.0 mm/hr 0.00 in0.0 mm
05:56 AM 52.3°F11.3°C 50.0°F10.0°C 92% 14.0 mph SW22.5 kmh SW 26.0 mph41.8 kmh 29.91 in1012.9 mb 0.00 in0.0 mm 0.00 in/hr0.0 mm/hr 0.00 in0.0 mm
05:55 AM 52.3°F11.3°C 50.0°F10.0°C 92% 13.0 mph SW20.9 kmh SW 26.0 mph41.8 kmh 29.92 in1013.2 mb 0.00 in0.0 mm 0.00 in/hr0.0 mm/hr 0.00 in0.0 mm
05:54 AM 52.3°F11.3°C 50.0°F10.0°C 92% 13.0 mph SW20.9 kmh SW 26.0 mph41.8 kmh 29.91 in1012.9 mb 0.00 in0.0 mm 0.00 in/hr0.0 mm/hr 0.00 in0.0 mm
05:53 AM 52.3°F11.3°C 50.0°F10.0°C 92% 14.0 mph SW22.5 kmh SW 26.0 mph41.8 kmh 29.92 in1013.2 mb 0.00 in0.0 mm 0.00 in/hr0.0 mm/hr 0.00 in0.0 mm
05:52 AM 52.3°F11.3°C 50.0°F10.0°C 92% 14.0 mph SW22.5 kmh SW 26.0 mph41.8 kmh 29.92 in1013.2 mb 0.00 in0.0 mm 0.00 in/hr0.0 mm/hr 0.00 in0.0 mm
05:51 AM 52.3°F11.3°C 50.0°F10.0°C 92% 13.0 mph SW20.9 kmh SW 26.0 mph41.8 kmh 29.92 in1013.2 mb 0.00 in0.0 mm 0.00 in/hr0.0 mm/hr 0.00 in0.0 mm
05:50 AM 52.3°F11.3°C 50.0°F10.0°C 92% 13.0 mph SW20.9 kmh SW 25.0 mph40.2 kmh 29.92 in1013.2 mb 0.00 in0.0 mm 0.00 in/hr0.0 mm/hr 0.00 in0.0 mm
05:49 AM 52.3°F11.3°C 50.0°F10.0°C 92% 13.0 mph SW20.9 kmh SW 25.0 mph40.2 kmh 29.92 in1013.2 mb 0.00 in0.0 mm 0.00 in/hr0.0 mm/hr 0.00 in0.0 mm
05:48 AM 52.3°F11.3°C 50.0°F10.0°C 92% 13.0 mph SW20.9 kmh SW 25.0 mph40.2 kmh 29.91 in1012.9 mb 0.00 in0.0 mm 0.00 in/hr0.0 mm/hr 0.00 in0.0 mm
05:47 AM 52.3°F11.3°C 50.0°F10.0°C 92% 12.0 mph SW19.3 kmh SW 25.0 mph40.2 kmh 29.92 in1013.2 mb 0.00 in0.0 mm 0.00 in/hr0.0 mm/hr 0.00 in0.0 mm
05:46 AM 52.3°F11.3°C 50.0°F10.0°C 92% 12.0 mph SW19.3 kmh SW 25.0 mph40.2 kmh 29.92 in1013.2 mb 0.00 in0.0 mm 0.00 in/hr0.0 mm/hr 0.00 in0.0 mm
05:45 AM 52.3°F11.3°C 50.0°F10.0°C 92% 12.0 mph SW19.3 kmh SW 25.0 mph40.2 kmh 29.92 in1013.2 mb 0.00 in0.0 mm 0.00 in/hr0.0 mm/hr 0.00 in0.0 mm
05:44 AM 52.3°F11.3°C 50.0°F10.0°C 92% 12.0 mph SW19.3 kmh SW 24.0 mph38.6 kmh 29.92 in1013.2 mb 0.00 in0.0 mm 0.00 in/hr0.0 mm/hr 0.00 in0.0 mm
05:43 AM 52.3°F11.3°C 50.0°F10.0°C 92% 11.0 mph SW17.7 kmh SW 24.0 mph38.6 kmh 29.92 in1013.2 mb 0.00 in0.0 mm 0.00 in/hr0.0 mm/hr 0.00 in0.0 mm
05:42 AM 52.3°F11.3°C 50.0°F10.0°C 92% 11.0 mph SW17.7 kmh SW 24.0 mph38.6 kmh 29.92 in1013.2 mb 0.00 in0.0 mm 0.00 in/hr0.0 mm/hr 0.00 in0.0 mm
05:41 AM 52.3°F11.3°C 50.0°F10.0°C 92% 11.0 mph SW17.7 kmh SW 24.0 mph38.6 kmh 29.92 in1013.2 mb 0.00 in0.0 mm 0.00 in/hr0.0 mm/hr 0.00 in0.0 mm
05:40 AM 52.3°F11.3°C 50.0°F10.0°C 92% 11.0 mph SW17.7 kmh SW 24.0 mph38.6 kmh 29.92 in1013.2 mb 0.00 in0.0 mm 0.00 in/hr0.0 mm/hr 0.00 in0.0 mm
05:39 AM 52.3°F11.3°C 50.0°F10.0°C 92% 11.0 mph SW17.7 kmh SW 24.0 mph38.6 kmh 29.92 in1013.2 mb 0.00 in0.0 mm 0.00 in/hr0.0 mm/hr 0.00 in0.0 mm
05:38 AM 52.3°F11.3°C 50.0°F10.0°C 92% 11.0 mph SW17.7 kmh SW 24.0 mph38.6 kmh 29.92 in1013.2 mb 0.00 in0.0 mm 0.00 in/hr0.0 mm/hr 0.00 in0.0 mm
05:37 AM 52.2°F11.2°C 50.0°F10.0°C 92% 11.0 mph SW17.7 kmh SW 22.0 mph35.4 kmh 29.92 in1013.2 mb 0.00 in0.0 mm 0.00 in/hr0.0 mm/hr 0.00 in0.0 mm
05:36 AM 52.2°F11.2°C 50.0°F10.0°C 92% 11.0 mph SW17.7 kmh SW 22.0 mph35.4 kmh 29.92 in1013.2 mb 0.00 in0.0 mm 0.00 in/hr0.0 mm/hr 0.00 in0.0 mm
05:35 AM 52.2°F11.2°C 50.0°F10.0°C 92% 12.0 mph SW19.3 kmh SW 24.0 mph38.6 kmh 29.92 in1013.2 mb 0.00 in0.0 mm 0.00 in/hr0.0 mm/hr 0.00 in0.0 mm
05:34 AM 52.2°F11.2°C 50.0°F10.0°C 92% 12.0 mph SW19.3 kmh SW 24.0 mph38.6 kmh 29.92 in1013.2 mb 0.00 in0.0 mm 0.00 in/hr0.0 mm/hr 0.00 in0.0 mm
05:33 AM 52.2°F11.2°C 50.0°F10.0°C 92% 12.0 mph SW19.3 kmh SW 24.0 mph38.6 kmh 29.93 in1013.5 mb 0.00 in0.0 mm 0.00 in/hr0.0 mm/hr 0.00 in0.0 mm
05:32 AM 52.2°F11.2°C 50.0°F10.0°C 92% 12.0 mph SW19.3 kmh SW 24.0 mph38.6 kmh 29.92 in1013.2 mb 0.00 in0.0 mm 0.00 in/hr0.0 mm/hr 0.00 in0.0 mm
05:31 AM 52.2°F11.2°C 50.0°F10.0°C 92% 13.0 mph SW20.9 kmh SW 24.0 mph38.6 kmh 29.93 in1013.5 mb 0.00 in0.0 mm 0.00 in/hr0.0 mm/hr 0.00 in0.0 mm
05:30 AM 52.2°F11.2°C 50.0°F10.0°C 92% 13.0 mph SW20.9 kmh SW 24.0 mph38.6 kmh 29.93 in1013.5 mb 0.00 in0.0 mm 0.00 in/hr0.0 mm/hr 0.00 in0.0 mm
05:29 AM 52.2°F11.2°C 50.0°F10.0°C 92% 13.0 mph SW20.9 kmh SW 24.0 mph38.6 kmh 29.93 in1013.5 mb 0.00 in0.0 mm 0.00 in/hr0.0 mm/hr 0.00 in0.0 mm
05:28 AM 52.2°F11.2°C 50.0°F10.0°C 92% 14.0 mph SW22.5 kmh SW 24.0 mph38.6 kmh 29.93 in1013.5 mb 0.00 in0.0 mm 0.00 in/hr0.0 mm/hr 0.00 in0.0 mm
05:27 AM 52.2°F11.2°C 50.0°F10.0°C 92% 13.0 mph SW20.9 kmh SW 24.0 mph38.6 kmh 29.93 in1013.5 mb 0.00 in0.0 mm 0.00 in/hr0.0 mm/hr 0.00 in0.0 mm
05:26 AM 52.2°F11.2°C 50.0°F10.0°C 92% 13.0 mph SW20.9 kmh SW 24.0 mph38.6 kmh 29.93 in1013.5 mb 0.00 in0.0 mm 0.00 in/hr0.0 mm/hr 0.00 in0.0 mm
05:25 AM 52.2°F11.2°C 50.0°F10.0°C 92% 13.0 mph SW20.9 kmh SW 24.0 mph38.6 kmh 29.93 in1013.5 mb 0.00 in0.0 mm 0.00 in/hr0.0 mm/hr 0.00 in0.0 mm
05:24 AM 52.2°F11.2°C 50.0°F10.0°C 92% 14.0 mph SW22.5 kmh SW 29.0 mph46.7 kmh 29.92 in1013.2 mb 0.00 in0.0 mm 0.00 in/hr0.0 mm/hr 0.00 in0.0 mm
05:23 AM 52.2°F11.2°C 50.0°F10.0°C 92% 14.0 mph SW22.5 kmh SW 29.0 mph46.7 kmh 29.93 in1013.5 mb 0.00 in0.0 mm 0.00 in/hr0.0 mm/hr 0.00 in0.0 mm
05:22 AM 52.2°F11.2°C 50.0°F10.0°C 92% 13.0 mph SW20.9 kmh SW 29.0 mph46.7 kmh 29.93 in1013.5 mb 0.00 in0.0 mm 0.00 in/hr0.0 mm/hr 0.00 in0.0 mm
05:21 AM 52.2°F11.2°C 49.8°F9.9°C 92% 13.0 mph SW20.9 kmh SW 29.0 mph46.7 kmh 29.93 in1013.5 mb 0.00 in0.0 mm 0.00 in/hr0.0 mm/hr 0.00 in0.0 mm
05:20 AM 52.2°F11.2°C 49.8°F9.9°C 92% 13.0 mph SW20.9 kmh SW 29.0 mph46.7 kmh 29.93 in1013.5 mb 0.00 in0.0 mm 0.00 in/hr0.0 mm/hr 0.00 in0.0 mm
05:19 AM 52.2°F11.2°C 49.8°F9.9°C 92% 14.0 mph SW22.5 kmh SW 29.0 mph46.7 kmh 29.92 in1013.2 mb 0.00 in0.0 mm 0.00 in/hr0.0 mm/hr 0.00 in0.0 mm
05:18 AM 52.2°F11.2°C 49.8°F9.9°C 92% 14.0 mph SW22.5 kmh SW 29.0 mph46.7 kmh 29.93 in1013.5 mb 0.00 in0.0 mm 0.00 in/hr0.0 mm/hr 0.00 in0.0 mm
05:17 AM 52.2°F11.2°C 49.8°F9.9°C 92% 13.0 mph SW20.9 kmh SW 29.0 mph46.7 kmh 29.93 in1013.5 mb 0.00 in0.0 mm 0.00 in/hr0.0 mm/hr 0.00 in0.0 mm
05:16 AM 52.2°F11.2°C 49.8°F9.9°C 92% 14.0 mph SW22.5 kmh SW 29.0 mph46.7 kmh 29.93 in1013.5 mb 0.00 in0.0 mm 0.00 in/hr0.0 mm/hr 0.00 in0.0 mm
05:15 AM 52.0°F11.1°C 49.8°F9.9°C 92% 13.0 mph SW20.9 kmh SW 29.0 mph46.7 kmh 29.93 in1013.5 mb 0.00 in0.0 mm 0.00 in/hr0.0 mm/hr 0.00 in0.0 mm
05:14 AM 52.0°F11.1°C 49.8°F9.9°C 92% 13.0 mph SW20.9 kmh SW 24.0 mph38.6 kmh 29.92 in1013.2 mb 0.00 in0.0 mm 0.00 in/hr0.0 mm/hr 0.00 in0.0 mm
05:13 AM 52.0°F11.1°C 49.8°F9.9°C 92% 13.0 mph SW20.9 kmh SW 24.0 mph38.6 kmh 29.92 in1013.2 mb 0.00 in0.0 mm 0.00 in/hr0.0 mm/hr 0.00 in0.0 mm
05:12 AM 52.0°F11.1°C 49.8°F9.9°C 92% 13.0 mph SW20.9 kmh SW 24.0 mph38.6 kmh 29.92 in1013.2 mb 0.00 in0.0 mm 0.00 in/hr0.0 mm/hr 0.00 in0.0 mm
05:11 AM 52.0°F11.1°C 49.8°F9.9°C 92% 12.0 mph SW19.3 kmh SW 24.0 mph38.6 kmh 29.93 in1013.5 mb 0.00 in0.0 mm 0.00 in/hr0.0 mm/hr 0.00 in0.0 mm
05:10 AM 52.0°F11.1°C 49.8°F9.9°C 92% 12.0 mph SW19.3 kmh SW 24.0 mph38.6 kmh 29.92 in1013.2 mb 0.00 in0.0 mm 0.00 in/hr0.0 mm/hr 0.00 in0.0 mm
05:09 AM 52.0°F11.1°C 49.8°F9.9°C 92% 12.0 mph SW19.3 kmh SW 24.0 mph38.6 kmh 29.93 in1013.5 mb 0.00 in0.0 mm 0.00 in/hr0.0 mm/hr 0.00 in0.0 mm
05:08 AM 52.0°F11.1°C 49.8°F9.9°C 92% 12.0 mph SW19.3 kmh SW 24.0 mph38.6 kmh 29.93 in1013.5 mb 0.00 in0.0 mm 0.00 in/hr0.0 mm/hr 0.00 in0.0 mm
05:07 AM 52.0°F11.1°C 49.8°F9.9°C 92% 13.0 mph SW20.9 kmh SW 28.0 mph45.1 kmh 29.93 in1013.5 mb 0.00 in0.0 mm 0.00 in/hr0.0 mm/hr 0.00 in0.0 mm
05:06 AM 52.0°F11.1°C 49.8°F9.9°C 92% 13.0 mph SW20.9 kmh SW 28.0 mph45.1 kmh 29.93 in1013.5 mb 0.00 in0.0 mm 0.00 in/hr0.0 mm/hr 0.00 in0.0 mm
05:05 AM 52.0°F11.1°C 49.6°F9.8°C 92% 13.0 mph SW20.9 kmh SW 28.0 mph45.1 kmh 29.93 in1013.5 mb 0.00 in0.0 mm 0.00 in/hr0.0 mm/hr 0.00 in0.0 mm
05:04 AM 52.0°F11.1°C 49.6°F9.8°C 92% 13.0 mph SW20.9 kmh SW 28.0 mph45.1 kmh 29.93 in1013.5 mb 0.00 in0.0 mm 0.00 in/hr0.0 mm/hr 0.00 in0.0 mm
05:03 AM 52.0°F11.1°C 49.6°F9.8°C 92% 13.0 mph SW20.9 kmh SW 28.0 mph45.1 kmh 29.93 in1013.5 mb 0.00 in0.0 mm 0.00 in/hr0.0 mm/hr 0.00 in0.0 mm
05:02 AM 52.0°F11.1°C 49.6°F9.8°C 92% 13.0 mph SW20.9 kmh SW 28.0 mph45.1 kmh 29.92 in1013.2 mb 0.00 in0.0 mm 0.00 in/hr0.0 mm/hr 0.00 in0.0 mm
05:01 AM 52.0°F11.1°C 49.6°F9.8°C 92% 13.0 mph SW20.9 kmh SW 28.0 mph45.1 kmh 29.93 in1013.5 mb 0.00 in0.0 mm 0.00 in/hr0.0 mm/hr 0.00 in0.0 mm
05:00 AM 52.0°F11.1°C 49.6°F9.8°C 92% 13.0 mph SW20.9 kmh SW 28.0 mph45.1 kmh 29.92 in1013.2 mb 0.00 in0.0 mm 0.00 in/hr0.0 mm/hr 0.00 in0.0 mm
04:59 AM 52.0°F11.1°C 49.6°F9.8°C 92% 13.0 mph SW20.9 kmh SW 28.0 mph45.1 kmh 29.93 in1013.5 mb 0.00 in0.0 mm 0.00 in/hr0.0 mm/hr 0.00 in0.0 mm
04:58 AM 52.0°F11.1°C 49.6°F9.8°C 92% 13.0 mph SW20.9 kmh SW 28.0 mph45.1 kmh 29.93 in1013.5 mb 0.00 in0.0 mm 0.00 in/hr0.0 mm/hr 0.00 in0.0 mm
04:57 AM 52.0°F11.1°C 49.6°F9.8°C 92% 13.0 mph SW20.9 kmh SW 27.0 mph43.5 kmh 29.92 in1013.2 mb 0.00 in0.0 mm 0.00 in/hr0.0 mm/hr 0.00 in0.0 mm
04:56 AM 52.0°F11.1°C 49.6°F9.8°C 92% 12.0 mph SW19.3 kmh SW 27.0 mph43.5 kmh 29.93 in1013.5 mb 0.00 in0.0 mm 0.00 in/hr0.0 mm/hr 0.00 in0.0 mm
04:55 AM 52.0°F11.1°C 49.6°F9.8°C 92% 12.0 mph SW19.3 kmh SW 27.0 mph43.5 kmh 29.93 in1013.5 mb 0.00 in0.0 mm 0.00 in/hr0.0 mm/hr 0.00 in0.0 mm
04:54 AM 52.0°F11.1°C 49.6°F9.8°C 92% 12.0 mph SW19.3 kmh SW 27.0 mph43.5 kmh 29.93 in1013.5 mb 0.00 in0.0 mm 0.00 in/hr0.0 mm/hr 0.00 in0.0 mm
04:53 AM 52.0°F11.1°C 49.6°F9.8°C 92% 12.0 mph SW19.3 kmh SW 27.0 mph43.5 kmh 29.93 in1013.5 mb 0.00 in0.0 mm 0.00 in/hr0.0 mm/hr 0.00 in0.0 mm
04:52 AM 52.0°F11.1°C 49.6°F9.8°C 92% 12.0 mph SW19.3 kmh SW 27.0 mph43.5 kmh 29.93 in1013.5 mb 0.00 in0.0 mm 0.00 in/hr0.0 mm/hr 0.00 in0.0 mm
04:51 AM 52.0°F11.1°C 49.6°F9.8°C 92% 11.0 mph SW17.7 kmh SW 27.0 mph43.5 kmh 29.93 in1013.5 mb 0.00 in0.0 mm 0.00 in/hr0.0 mm/hr 0.00 in0.0 mm
04:50 AM 52.0°F11.1°C 49.6°F9.8°C 92% 11.0 mph SW17.7 kmh SW 27.0 mph43.5 kmh 29.93 in1013.5 mb 0.00 in0.0 mm 0.00 in/hr0.0 mm/hr 0.00 in0.0 mm
04:49 AM 52.0°F11.1°C 49.6°F9.8°C 92% 11.0 mph SW17.7 kmh SW 24.0 mph38.6 kmh 29.93 in1013.5 mb 0.00 in0.0 mm 0.00 in/hr0.0 mm/hr 0.00 in0.0 mm
04:48 AM 52.0°F11.1°C 49.6°F9.8°C 92% 12.0 mph SW19.3 kmh SW 24.0 mph38.6 kmh 29.93 in1013.5 mb 0.00 in0.0 mm 0.00 in/hr0.0 mm/hr 0.00 in0.0 mm
04:47 AM 52.0°F11.1°C 49.6°F9.8°C 92% 12.0 mph SW19.3 kmh SW 28.0 mph45.1 kmh 29.94 in1013.9 mb 0.00 in0.0 mm 0.00 in/hr0.0 mm/hr 0.00 in0.0 mm
04:46 AM 52.0°F11.1°C 49.6°F9.8°C 92% 12.0 mph SW19.3 kmh SW 28.0 mph45.1 kmh 29.93 in1013.5 mb 0.00 in0.0 mm 0.00 in/hr0.0 mm/hr 0.00 in0.0 mm
04:45 AM 51.8°F11.0°C 49.5°F9.7°C 92% 12.0 mph SW19.3 kmh SW 28.0 mph45.1 kmh 29.93 in1013.5 mb 0.00 in0.0 mm 0.00 in/hr0.0 mm/hr 0.00 in0.0 mm
04:44 AM 52.0°F11.1°C 49.6°F9.8°C 92% 13.0 mph SW20.9 kmh SW 28.0 mph45.1 kmh 29.93 in1013.5 mb 0.00 in0.0 mm 0.00 in/hr0.0 mm/hr 0.00 in0.0 mm
04:43 AM 52.0°F11.1°C 49.6°F9.8°C 92% 13.0 mph SW20.9 kmh SW 28.0 mph45.1 kmh 29.94 in1013.9 mb 0.00 in0.0 mm 0.00 in/hr0.0 mm/hr 0.00 in0.0 mm
04:42 AM 51.8°F11.0°C 49.5°F9.7°C 92% 13.0 mph SW20.9 kmh SW 28.0 mph45.1 kmh 29.93 in1013.5 mb 0.00 in0.0 mm 0.00 in/hr0.0 mm/hr 0.00 in0.0 mm
04:41 AM 52.0°F11.1°C 49.6°F9.8°C 92% 14.0 mph SW22.5 kmh SW 28.0 mph45.1 kmh 29.94 in1013.9 mb 0.00 in0.0 mm 0.00 in/hr0.0 mm/hr 0.00 in0.0 mm
04:40 AM 51.8°F11.0°C 49.5°F9.7°C 92% 13.0 mph SW20.9 kmh SW 28.0 mph45.1 kmh 29.94 in1013.9 mb 0.00 in0.0 mm 0.00 in/hr0.0 mm/hr 0.00 in0.0 mm
04:39 AM 51.8°F11.0°C 49.5°F9.7°C 92% 13.0 mph SW20.9 kmh SW 28.0 mph45.1 kmh 29.94 in1013.9 mb 0.00 in0.0 mm 0.00 in/hr0.0 mm/hr 0.00 in0.0 mm
04:38 AM 51.8°F11.0°C 49.5°F9.7°C 92% 13.0 mph SW20.9 kmh SW 28.0 mph45.1 kmh 29.94 in1013.9 mb 0.00 in0.0 mm 0.00 in/hr0.0 mm/hr 0.00 in0.0 mm
04:37 AM 51.8°F11.0°C 49.5°F9.7°C 92% 13.0 mph SW20.9 kmh SW 25.0 mph40.2 kmh 29.94 in1013.9 mb 0.00 in0.0 mm 0.00 in/hr0.0 mm/hr 0.00 in0.0 mm
04:36 AM 51.8°F11.0°C 49.5°F9.7°C 92% 13.0 mph SW20.9 kmh SW 25.0 mph40.2 kmh 29.93 in1013.5 mb 0.00 in0.0 mm 0.00 in/hr0.0 mm/hr 0.00 in0.0 mm
04:35 AM 51.8°F11.0°C 49.5°F9.7°C 92% 13.0 mph SW20.9 kmh SW 25.0 mph40.2 kmh 29.94 in1013.9 mb 0.00 in0.0 mm 0.00 in/hr0.0 mm/hr 0.00 in0.0 mm
04:34 AM 51.6°F10.9°C 49.5°F9.7°C 92% 12.0 mph SW19.3 kmh SW 25.0 mph40.2 kmh 29.94 in1013.9 mb 0.00 in0.0 mm 0.00 in/hr0.0 mm/hr 0.00 in0.0 mm
04:33 AM 51.6°F10.9°C 49.5°F9.7°C 92% 12.0 mph SW19.3 kmh SW 25.0 mph40.2 kmh 29.94 in1013.9 mb 0.00 in0.0 mm 0.00 in/hr0.0 mm/hr 0.00 in0.0 mm
04:32 AM 51.6°F10.9°C 49.5°F9.7°C 92% 12.0 mph SW19.3 kmh SW 22.0 mph35.4 kmh 29.94 in1013.9 mb 0.00 in0.0 mm 0.00 in/hr0.0 mm/hr 0.00 in0.0 mm
04:31 AM 51.6°F10.9°C 49.5°F9.7°C 92% 12.0 mph SW19.3 kmh SW 22.0 mph35.4 kmh 29.94 in1013.9 mb 0.00 in0.0 mm 0.00 in/hr0.0 mm/hr 0.00 in0.0 mm
04:30 AM 51.6°F10.9°C 49.5°F9.7°C 92% 12.0 mph SW19.3 kmh SW 21.0 mph33.8 kmh 29.93 in1013.5 mb 0.00 in0.0 mm 0.00 in/hr0.0 mm/hr 0.00 in0.0 mm
04:29 AM 51.6°F10.9°C 49.5°F9.7°C 92% 12.0 mph SW19.3 kmh SW 21.0 mph33.8 kmh 29.94 in1013.9 mb 0.00 in0.0 mm 0.00 in/hr0.0 mm/hr 0.00 in0.0 mm
04:28 AM 51.6°F10.9°C 49.5°F9.7°C 92% 12.0 mph SW19.3 kmh SW 21.0 mph33.8 kmh 29.94 in1013.9 mb 0.00 in0.0 mm 0.00 in/hr0.0 mm/hr 0.00 in0.0 mm
04:27 AM 51.6°F10.9°C 49.5°F9.7°C 92% 12.0 mph SW19.3 kmh SW 21.0 mph33.8 kmh 29.94 in1013.9 mb 0.00 in0.0 mm 0.00 in/hr0.0 mm/hr 0.00 in0.0 mm
04:26 AM 51.6°F10.9°C 49.5°F9.7°C 92% 12.0 mph SW19.3 kmh SW 22.0 mph35.4 kmh 29.94 in1013.9 mb 0.00 in0.0 mm 0.00 in/hr0.0 mm/hr 0.00 in0.0 mm
04:25 AM 51.6°F10.9°C 49.5°F9.7°C 92% 12.0 mph SW19.3 kmh SW 22.0 mph35.4 kmh 29.94 in1013.9 mb 0.00 in0.0 mm 0.00 in/hr0.0 mm/hr 0.00 in0.0 mm
04:24 AM 51.6°F10.9°C 49.5°F9.7°C 92% 12.0 mph SW19.3 kmh SW 22.0 mph35.4 kmh 29.94 in1013.9 mb 0.00 in0.0 mm 0.00 in/hr0.0 mm/hr 0.00 in0.0 mm
04:23 AM 51.6°F10.9°C 49.5°F9.7°C 92% 13.0 mph SW20.9 kmh SW 22.0 mph35.4 kmh 29.94 in1013.9 mb 0.00 in0.0 mm 0.00 in/hr0.0 mm/hr 0.00 in0.0 mm
04:22 AM 51.6°F10.9°C 49.3°F9.6°C 92% 13.0 mph SW20.9 kmh SW 28.0 mph45.1 kmh 29.94 in1013.9 mb 0.00 in0.0 mm 0.00 in/hr0.0 mm/hr 0.00 in0.0 mm
04:21 AM 51.6°F10.9°C 49.5°F9.7°C 92% 13.0 mph SW20.9 kmh SW 28.0 mph45.1 kmh 29.95 in1014.2 mb 0.00 in0.0 mm 0.00 in/hr0.0 mm/hr 0.00 in0.0 mm
04:20 AM 51.6°F10.9°C 49.3°F9.6°C 92% 13.0 mph SW20.9 kmh SW 28.0 mph45.1 kmh 29.95 in1014.2 mb 0.00 in0.0 mm 0.00 in/hr0.0 mm/hr 0.00 in0.0 mm
04:19 AM 51.6°F10.9°C 49.3°F9.6°C 92% 13.0 mph SW20.9 kmh SW 28.0 mph45.1 kmh 29.95 in1014.2 mb 0.00 in0.0 mm 0.00 in/hr0.0 mm/hr 0.00 in0.0 mm
04:18 AM 51.6°F10.9°C 49.3°F9.6°C 92% 13.0 mph SW20.9 kmh SW 28.0 mph45.1 kmh 29.95 in1014.2 mb 0.00 in0.0 mm 0.00 in/hr0.0 mm/hr 0.00 in0.0 mm
04:17 AM 51.6°F10.9°C 49.3°F9.6°C 92% 13.0 mph SW20.9 kmh SW 28.0 mph45.1 kmh 29.95 in1014.2 mb 0.00 in0.0 mm 0.00 in/hr0.0 mm/hr 0.00 in0.0 mm
04:16 AM 51.6°F10.9°C 49.3°F9.6°C 92% 13.0 mph SW20.9 kmh SW 28.0 mph45.1 kmh 29.95 in1014.2 mb 0.00 in0.0 mm 0.00 in/hr0.0 mm/hr 0.00 in0.0 mm
04:15 AM 51.6°F10.9°C 49.3°F9.6°C 92% 13.0 mph SW20.9 kmh SW 28.0 mph45.1 kmh 29.95 in1014.2 mb 0.00 in0.0 mm 0.00 in/hr0.0 mm/hr 0.00 in0.0 mm
04:14 AM 51.6°F10.9°C 49.3°F9.6°C 92% 12.0 mph SW19.3 kmh SW 28.0 mph45.1 kmh 29.95 in1014.2 mb 0.00 in0.0 mm 0.00 in/hr0.0 mm/hr 0.00 in0.0 mm
04:13 AM 51.6°F10.9°C 49.3°F9.6°C 92% 12.0 mph SW19.3 kmh SW 28.0 mph45.1 kmh 29.95 in1014.2 mb 0.00 in0.0 mm 0.00 in/hr0.0 mm/hr 0.00 in0.0 mm
04:12 AM 51.6°F10.9°C 49.3°F9.6°C 92% 12.0 mph SW19.3 kmh SW 25.0 mph40.2 kmh 29.95 in1014.2 mb 0.00 in0.0 mm 0.00 in/hr0.0 mm/hr 0.00 in0.0 mm
04:11 AM 51.6°F10.9°C 49.3°F9.6°C 92% 12.0 mph SW19.3 kmh SW 25.0 mph40.2 kmh 29.95 in1014.2 mb 0.00 in0.0 mm 0.00 in/hr0.0 mm/hr 0.00 in0.0 mm
04:10 AM 51.6°F10.9°C 49.3°F9.6°C 92% 13.0 mph SW20.9 kmh SW 25.0 mph40.2 kmh 29.94 in1013.9 mb 0.00 in0.0 mm 0.00 in/hr0.0 mm/hr 0.00 in0.0 mm
04:09 AM 51.6°F10.9°C 49.3°F9.6°C 92% 12.0 mph SW19.3 kmh SW 25.0 mph40.2 kmh 29.94 in1013.9 mb 0.00 in0.0 mm 0.00 in/hr0.0 mm/hr 0.00 in0.0 mm
04:08 AM 51.6°F10.9°C 49.3°F9.6°C 92% 13.0 mph SW20.9 kmh SW 25.0 mph40.2 kmh 29.94 in1013.9 mb 0.00 in0.0 mm 0.00 in/hr0.0 mm/hr 0.00 in0.0 mm
04:07 AM 51.6°F10.9°C 49.3°F9.6°C 92% 13.0 mph SW20.9 kmh SW 25.0 mph40.2 kmh 29.95 in1014.2 mb 0.00 in0.0 mm 0.00 in/hr0.0 mm/hr 0.00 in0.0 mm
04:06 AM 51.6°F10.9°C 49.3°F9.6°C 92% 13.0 mph SW20.9 kmh SW 26.0 mph41.8 kmh 29.95 in1014.2 mb 0.00 in0.0 mm 0.00 in/hr0.0 mm/hr 0.00 in0.0 mm
04:05 AM 51.6°F10.9°C 49.3°F9.6°C 92% 13.0 mph SW20.9 kmh SW 26.0 mph41.8 kmh 29.95 in1014.2 mb 0.00 in0.0 mm 0.00 in/hr0.0 mm/hr 0.00 in0.0 mm
04:04 AM 51.6°F10.9°C 49.3°F9.6°C 92% 13.0 mph SW20.9 kmh SW 26.0 mph41.8 kmh 29.95 in1014.2 mb